<?xml version="1.0" encoding="UTF-8" standalone="no" ?>
<gpx xmlns="http://www.topografix.com/GPX/1/1" xmlns:xsi="http://www.w3.org/2001/XMLSchema-instance" xsi:schemaLocation="http://www.topografix.com/GPX/1/1 http://www.topografix.com/GPX/1/1/gpx.xsd" version="1.1" creator="VisuGPX - https://www.visugpx.com">
  <metadata>
    <name>Le_circuit_des_vaches_Montferrat</name>
    <desc><![CDATA[File with points/tracks from Locus Map/3.50.1]]></desc>
  </metadata>
  <wpt lat="45.49337" lon="5.55829">
    <ele>633</ele>
    <name><![CDATA[Point 1]]></name>
  </wpt>
  <trk>
    <name><![CDATA[2021-02-03 09:59:37]]></name>
    <extensions>
      <line xmlns="http://www.topografix.com/GPX/gpx_style/0/2">
        <color>0000FF</color>
        <opacity>0.59</opacity>
        <width>5.0</width>
      </line>
    </extensions>
    <trkseg>
      <trkpt lat="45.48974" lon="5.59196">
        <ele>550.3</ele>
        <time>2021-02-03T08:59:36.000Z</time>
      </trkpt>
      <trkpt lat="45.48972" lon="5.59195">
        <ele>549.92</ele>
        <time>2021-02-03T08:59:48.074Z</time>
      </trkpt>
      <trkpt lat="45.48968" lon="5.59196">
        <ele>549.86</ele>
        <time>2021-02-03T08:59:57.925Z</time>
      </trkpt>
      <trkpt lat="45.48958" lon="5.59198">
        <ele>549.37</ele>
        <time>2021-02-03T09:00:03.023Z</time>
      </trkpt>
      <trkpt lat="45.48948" lon="5.59202">
        <ele>549.81</ele>
        <time>2021-02-03T09:00:07.544Z</time>
      </trkpt>
      <trkpt lat="45.4894" lon="5.59207">
        <ele>549.58</ele>
        <time>2021-02-03T09:00:16.143Z</time>
      </trkpt>
      <trkpt lat="45.48931" lon="5.59208">
        <ele>549.66</ele>
        <time>2021-02-03T09:00:24.024Z</time>
      </trkpt>
      <trkpt lat="45.48923" lon="5.59214">
        <ele>549.58</ele>
        <time>2021-02-03T09:00:32.023Z</time>
      </trkpt>
      <trkpt lat="45.48915" lon="5.59225">
        <ele>549.6</ele>
        <time>2021-02-03T09:00:40.282Z</time>
      </trkpt>
      <trkpt lat="45.48914" lon="5.59238">
        <ele>548.68</ele>
        <time>2021-02-03T09:00:46.662Z</time>
      </trkpt>
      <trkpt lat="45.48913" lon="5.5925">
        <ele>548.23</ele>
        <time>2021-02-03T09:00:54.323Z</time>
      </trkpt>
      <trkpt lat="45.48903" lon="5.59254">
        <ele>547.78</ele>
        <time>2021-02-03T09:01:03.005Z</time>
      </trkpt>
      <trkpt lat="45.48895" lon="5.59258">
        <ele>546.78</ele>
        <time>2021-02-03T09:01:10.843Z</time>
      </trkpt>
      <trkpt lat="45.48887" lon="5.59264">
        <ele>546.45</ele>
        <time>2021-02-03T09:01:18.744Z</time>
      </trkpt>
      <trkpt lat="45.48877" lon="5.59266">
        <ele>545.9</ele>
        <time>2021-02-03T09:01:27.125Z</time>
      </trkpt>
      <trkpt lat="45.48868" lon="5.59261">
        <ele>545.32</ele>
        <time>2021-02-03T09:01:35.504Z</time>
      </trkpt>
      <trkpt lat="45.48859" lon="5.59254">
        <ele>544.82</ele>
        <time>2021-02-03T09:01:43.326Z</time>
      </trkpt>
      <trkpt lat="45.48852" lon="5.59247">
        <ele>544.84</ele>
        <time>2021-02-03T09:01:50.004Z</time>
      </trkpt>
      <trkpt lat="45.48845" lon="5.59236">
        <ele>544.37</ele>
        <time>2021-02-03T09:01:57.864Z</time>
      </trkpt>
      <trkpt lat="45.48839" lon="5.59225">
        <ele>543.97</ele>
        <time>2021-02-03T09:02:07.243Z</time>
      </trkpt>
      <trkpt lat="45.48831" lon="5.59218">
        <ele>544.61</ele>
        <time>2021-02-03T09:02:17.103Z</time>
      </trkpt>
      <trkpt lat="45.48822" lon="5.59213">
        <ele>544.79</ele>
        <time>2021-02-03T09:02:26.165Z</time>
      </trkpt>
      <trkpt lat="45.48816" lon="5.59203">
        <ele>544.69</ele>
        <time>2021-02-03T09:02:35.064Z</time>
      </trkpt>
      <trkpt lat="45.48807" lon="5.59196">
        <ele>544.91</ele>
        <time>2021-02-03T09:02:43.244Z</time>
      </trkpt>
      <trkpt lat="45.48801" lon="5.59185">
        <ele>545.13</ele>
        <time>2021-02-03T09:02:51.282Z</time>
      </trkpt>
      <trkpt lat="45.48793" lon="5.59177">
        <ele>544.82</ele>
        <time>2021-02-03T09:02:59.283Z</time>
      </trkpt>
      <trkpt lat="45.48786" lon="5.59167">
        <ele>544.97</ele>
        <time>2021-02-03T09:03:08.023Z</time>
      </trkpt>
      <trkpt lat="45.48779" lon="5.59158">
        <ele>545.29</ele>
        <time>2021-02-03T09:03:16.222Z</time>
      </trkpt>
      <trkpt lat="45.48772" lon="5.59148">
        <ele>545.58</ele>
        <time>2021-02-03T09:03:25.181Z</time>
      </trkpt>
      <trkpt lat="45.48764" lon="5.59143">
        <ele>546.17</ele>
        <time>2021-02-03T09:03:33.101Z</time>
      </trkpt>
      <trkpt lat="45.48756" lon="5.59136">
        <ele>545.88</ele>
        <time>2021-02-03T09:03:40.921Z</time>
      </trkpt>
      <trkpt lat="45.48747" lon="5.59129">
        <ele>546.21</ele>
        <time>2021-02-03T09:03:47.000Z</time>
      </trkpt>
      <trkpt lat="45.48742" lon="5.59123">
        <ele>546.61</ele>
        <time>2021-02-03T09:03:56.562Z</time>
      </trkpt>
      <trkpt lat="45.48736" lon="5.5911">
        <ele>547.03</ele>
        <time>2021-02-03T09:04:04.060Z</time>
      </trkpt>
      <trkpt lat="45.48733" lon="5.59101">
        <ele>547.41</ele>
        <time>2021-02-03T09:04:14.000Z</time>
      </trkpt>
      <trkpt lat="45.48732" lon="5.59101">
        <ele>547.35</ele>
        <time>2021-02-03T09:04:27.000Z</time>
      </trkpt>
      <trkpt lat="45.48729" lon="5.59098">
        <ele>547.14</ele>
        <time>2021-02-03T09:04:36.330Z</time>
      </trkpt>
      <trkpt lat="45.48722" lon="5.59091">
        <ele>547.02</ele>
        <time>2021-02-03T09:04:47.000Z</time>
      </trkpt>
      <trkpt lat="45.48721" lon="5.59087">
        <ele>546.84</ele>
        <time>2021-02-03T09:04:58.542Z</time>
      </trkpt>
      <trkpt lat="45.48717" lon="5.59076">
        <ele>546.32</ele>
        <time>2021-02-03T09:05:08.191Z</time>
      </trkpt>
      <trkpt lat="45.48714" lon="5.59064">
        <ele>545.98</ele>
        <time>2021-02-03T09:05:16.039Z</time>
      </trkpt>
      <trkpt lat="45.48706" lon="5.59053">
        <ele>545.02</ele>
        <time>2021-02-03T09:05:25.030Z</time>
      </trkpt>
      <trkpt lat="45.48699" lon="5.59044">
        <ele>544.31</ele>
        <time>2021-02-03T09:05:33.288Z</time>
      </trkpt>
      <trkpt lat="45.48695" lon="5.59032">
        <ele>543.64</ele>
        <time>2021-02-03T09:05:40.327Z</time>
      </trkpt>
      <trkpt lat="45.48693" lon="5.59019">
        <ele>543.22</ele>
        <time>2021-02-03T09:05:47.465Z</time>
      </trkpt>
      <trkpt lat="45.48693" lon="5.59006">
        <ele>542.16</ele>
        <time>2021-02-03T09:05:55.167Z</time>
      </trkpt>
      <trkpt lat="45.48694" lon="5.59005">
        <ele>541.91</ele>
        <time>2021-02-03T09:06:07.107Z</time>
      </trkpt>
      <trkpt lat="45.48692" lon="5.58995">
        <ele>541.49</ele>
        <time>2021-02-03T09:06:16.164Z</time>
      </trkpt>
      <trkpt lat="45.48686" lon="5.58984">
        <ele>541.31</ele>
        <time>2021-02-03T09:06:26.269Z</time>
      </trkpt>
      <trkpt lat="45.48689" lon="5.58971">
        <ele>540.77</ele>
        <time>2021-02-03T09:06:33.089Z</time>
      </trkpt>
      <trkpt lat="45.48695" lon="5.58962">
        <ele>541.13</ele>
        <time>2021-02-03T09:06:40.528Z</time>
      </trkpt>
      <trkpt lat="45.48702" lon="5.58951">
        <ele>540.23</ele>
        <time>2021-02-03T09:06:48.466Z</time>
      </trkpt>
      <trkpt lat="45.48708" lon="5.58941">
        <ele>540.08</ele>
        <time>2021-02-03T09:06:55.490Z</time>
      </trkpt>
      <trkpt lat="45.48712" lon="5.58929">
        <ele>539.67</ele>
        <time>2021-02-03T09:07:05.066Z</time>
      </trkpt>
      <trkpt lat="45.48719" lon="5.58917">
        <ele>540.23</ele>
        <time>2021-02-03T09:07:14.168Z</time>
      </trkpt>
      <trkpt lat="45.48726" lon="5.58909">
        <ele>540.17</ele>
        <time>2021-02-03T09:07:22.126Z</time>
      </trkpt>
      <trkpt lat="45.48731" lon="5.58898">
        <ele>539.65</ele>
        <time>2021-02-03T09:07:31.185Z</time>
      </trkpt>
      <trkpt lat="45.48735" lon="5.58886">
        <ele>540.33</ele>
        <time>2021-02-03T09:07:38.008Z</time>
      </trkpt>
      <trkpt lat="45.48743" lon="5.58878">
        <ele>540.61</ele>
        <time>2021-02-03T09:07:45.404Z</time>
      </trkpt>
      <trkpt lat="45.48745" lon="5.58865">
        <ele>540.14</ele>
        <time>2021-02-03T09:07:51.264Z</time>
      </trkpt>
      <trkpt lat="45.48748" lon="5.58854">
        <ele>540.22</ele>
        <time>2021-02-03T09:08:00.999Z</time>
      </trkpt>
      <trkpt lat="45.4875" lon="5.58851">
        <ele>540.07</ele>
        <time>2021-02-03T09:08:10.999Z</time>
      </trkpt>
      <trkpt lat="45.4875" lon="5.58847">
        <ele>539.86</ele>
        <time>2021-02-03T09:08:20.283Z</time>
      </trkpt>
      <trkpt lat="45.48751" lon="5.58834">
        <ele>539.64</ele>
        <time>2021-02-03T09:08:27.145Z</time>
      </trkpt>
      <trkpt lat="45.48753" lon="5.5882">
        <ele>539.77</ele>
        <time>2021-02-03T09:08:34.466Z</time>
      </trkpt>
      <trkpt lat="45.48755" lon="5.58806">
        <ele>539.72</ele>
        <time>2021-02-03T09:08:42.288Z</time>
      </trkpt>
      <trkpt lat="45.48756" lon="5.58793">
        <ele>539.01</ele>
        <time>2021-02-03T09:08:50.147Z</time>
      </trkpt>
      <trkpt lat="45.48758" lon="5.58778">
        <ele>538.65</ele>
        <time>2021-02-03T09:08:58.206Z</time>
      </trkpt>
      <trkpt lat="45.48759" lon="5.58765">
        <ele>537.93</ele>
        <time>2021-02-03T09:09:05.926Z</time>
      </trkpt>
      <trkpt lat="45.4876" lon="5.58752">
        <ele>537.92</ele>
        <time>2021-02-03T09:09:14.204Z</time>
      </trkpt>
      <trkpt lat="45.48762" lon="5.58738">
        <ele>537.39</ele>
        <time>2021-02-03T09:09:22.123Z</time>
      </trkpt>
      <trkpt lat="45.48763" lon="5.58724">
        <ele>536.93</ele>
        <time>2021-02-03T09:09:30.543Z</time>
      </trkpt>
      <trkpt lat="45.48765" lon="5.58711">
        <ele>536.4</ele>
        <time>2021-02-03T09:09:37.457Z</time>
      </trkpt>
      <trkpt lat="45.48767" lon="5.58698">
        <ele>536.17</ele>
        <time>2021-02-03T09:09:45.160Z</time>
      </trkpt>
      <trkpt lat="45.48768" lon="5.58684">
        <ele>534.63</ele>
        <time>2021-02-03T09:09:54.789Z</time>
      </trkpt>
      <trkpt lat="45.48769" lon="5.58672">
        <ele>534.71</ele>
        <time>2021-02-03T09:10:04.028Z</time>
      </trkpt>
      <trkpt lat="45.4877" lon="5.58656">
        <ele>534.2</ele>
        <time>2021-02-03T09:10:14.767Z</time>
      </trkpt>
      <trkpt lat="45.4877" lon="5.58641">
        <ele>533.05</ele>
        <time>2021-02-03T09:10:23.486Z</time>
      </trkpt>
      <trkpt lat="45.48771" lon="5.58627">
        <ele>532.4</ele>
        <time>2021-02-03T09:10:30.505Z</time>
      </trkpt>
      <trkpt lat="45.48769" lon="5.58613">
        <ele>532.01</ele>
        <time>2021-02-03T09:10:37.565Z</time>
      </trkpt>
      <trkpt lat="45.48767" lon="5.586">
        <ele>531.41</ele>
        <time>2021-02-03T09:10:45.065Z</time>
      </trkpt>
      <trkpt lat="45.48763" lon="5.58587">
        <ele>530.51</ele>
        <time>2021-02-03T09:10:53.687Z</time>
      </trkpt>
      <trkpt lat="45.4876" lon="5.58573">
        <ele>529.76</ele>
        <time>2021-02-03T09:11:03.464Z</time>
      </trkpt>
      <trkpt lat="45.48757" lon="5.58561">
        <ele>529.25</ele>
        <time>2021-02-03T09:11:10.504Z</time>
      </trkpt>
      <trkpt lat="45.48754" lon="5.58548">
        <ele>528.56</ele>
        <time>2021-02-03T09:11:16.563Z</time>
      </trkpt>
      <trkpt lat="45.48751" lon="5.58535">
        <ele>527.6</ele>
        <time>2021-02-03T09:11:23.381Z</time>
      </trkpt>
      <trkpt lat="45.48747" lon="5.58523">
        <ele>526.63</ele>
        <time>2021-02-03T09:11:30.541Z</time>
      </trkpt>
      <trkpt lat="45.48743" lon="5.5851">
        <ele>526.14</ele>
        <time>2021-02-03T09:11:40.320Z</time>
      </trkpt>
      <trkpt lat="45.48741" lon="5.58507">
        <ele>525.73</ele>
        <time>2021-02-03T09:11:49.678Z</time>
      </trkpt>
      <trkpt lat="45.48736" lon="5.58497">
        <ele>525.36</ele>
        <time>2021-02-03T09:11:56.009Z</time>
      </trkpt>
      <trkpt lat="45.48734" lon="5.58484">
        <ele>525.37</ele>
        <time>2021-02-03T09:12:01.018Z</time>
      </trkpt>
      <trkpt lat="45.48735" lon="5.58471">
        <ele>524.81</ele>
        <time>2021-02-03T09:12:07.991Z</time>
      </trkpt>
      <trkpt lat="45.48736" lon="5.58458">
        <ele>523.79</ele>
        <time>2021-02-03T09:12:16.530Z</time>
      </trkpt>
      <trkpt lat="45.48737" lon="5.58443">
        <ele>522.85</ele>
        <time>2021-02-03T09:12:25.510Z</time>
      </trkpt>
      <trkpt lat="45.4874" lon="5.5843">
        <ele>522.28</ele>
        <time>2021-02-03T09:12:34.410Z</time>
      </trkpt>
      <trkpt lat="45.48748" lon="5.5842">
        <ele>520.85</ele>
        <time>2021-02-03T09:12:43.249Z</time>
      </trkpt>
      <trkpt lat="45.48757" lon="5.58418">
        <ele>520.19</ele>
        <time>2021-02-03T09:12:51.987Z</time>
      </trkpt>
      <trkpt lat="45.48765" lon="5.58412">
        <ele>520.06</ele>
        <time>2021-02-03T09:12:59.749Z</time>
      </trkpt>
      <trkpt lat="45.48772" lon="5.58403">
        <ele>518.98</ele>
        <time>2021-02-03T09:13:08.828Z</time>
      </trkpt>
      <trkpt lat="45.48779" lon="5.58393">
        <ele>519.46</ele>
        <time>2021-02-03T09:13:16.727Z</time>
      </trkpt>
      <trkpt lat="45.48787" lon="5.58385">
        <ele>518.54</ele>
        <time>2021-02-03T09:13:23.462Z</time>
      </trkpt>
      <trkpt lat="45.48795" lon="5.58379">
        <ele>518.23</ele>
        <time>2021-02-03T09:13:30.047Z</time>
      </trkpt>
      <trkpt lat="45.488" lon="5.58368">
        <ele>518.72</ele>
        <time>2021-02-03T09:13:37.106Z</time>
      </trkpt>
      <trkpt lat="45.48807" lon="5.58359">
        <ele>517.84</ele>
        <time>2021-02-03T09:13:45.583Z</time>
      </trkpt>
      <trkpt lat="45.48815" lon="5.58351">
        <ele>516.65</ele>
        <time>2021-02-03T09:13:53.305Z</time>
      </trkpt>
      <trkpt lat="45.48823" lon="5.58351">
        <ele>516.42</ele>
        <time>2021-02-03T09:14:02.366Z</time>
      </trkpt>
      <trkpt lat="45.48829" lon="5.58361">
        <ele>516.11</ele>
        <time>2021-02-03T09:14:11.724Z</time>
      </trkpt>
      <trkpt lat="45.48836" lon="5.5837">
        <ele>516.44</ele>
        <time>2021-02-03T09:14:20.505Z</time>
      </trkpt>
      <trkpt lat="45.48843" lon="5.58378">
        <ele>517.1</ele>
        <time>2021-02-03T09:14:29.067Z</time>
      </trkpt>
      <trkpt lat="45.4885" lon="5.58386">
        <ele>517.08</ele>
        <time>2021-02-03T09:14:36.642Z</time>
      </trkpt>
      <trkpt lat="45.48859" lon="5.58398">
        <ele>517.3</ele>
        <time>2021-02-03T09:14:46.489Z</time>
      </trkpt>
      <trkpt lat="45.48865" lon="5.58408">
        <ele>517.42</ele>
        <time>2021-02-03T09:14:55.167Z</time>
      </trkpt>
      <trkpt lat="45.48873" lon="5.58418">
        <ele>517.56</ele>
        <time>2021-02-03T09:15:04.165Z</time>
      </trkpt>
      <trkpt lat="45.48879" lon="5.58427">
        <ele>518.16</ele>
        <time>2021-02-03T09:15:13.344Z</time>
      </trkpt>
      <trkpt lat="45.48886" lon="5.58437">
        <ele>518.3</ele>
        <time>2021-02-03T09:15:21.324Z</time>
      </trkpt>
      <trkpt lat="45.48893" lon="5.58446">
        <ele>517.92</ele>
        <time>2021-02-03T09:15:30.343Z</time>
      </trkpt>
      <trkpt lat="45.48901" lon="5.58455">
        <ele>518.17</ele>
        <time>2021-02-03T09:15:37.320Z</time>
      </trkpt>
      <trkpt lat="45.48907" lon="5.58465">
        <ele>517.78</ele>
        <time>2021-02-03T09:15:44.047Z</time>
      </trkpt>
      <trkpt lat="45.48913" lon="5.58474">
        <ele>517.72</ele>
        <time>2021-02-03T09:15:53.207Z</time>
      </trkpt>
      <trkpt lat="45.48918" lon="5.58486">
        <ele>517.69</ele>
        <time>2021-02-03T09:16:01.265Z</time>
      </trkpt>
      <trkpt lat="45.4892" lon="5.58499">
        <ele>517.75</ele>
        <time>2021-02-03T09:16:09.452Z</time>
      </trkpt>
      <trkpt lat="45.48925" lon="5.58509">
        <ele>518.17</ele>
        <time>2021-02-03T09:16:19.188Z</time>
      </trkpt>
      <trkpt lat="45.4893" lon="5.58521">
        <ele>518.18</ele>
        <time>2021-02-03T09:16:26.468Z</time>
      </trkpt>
      <trkpt lat="45.48935" lon="5.58533">
        <ele>517.37</ele>
        <time>2021-02-03T09:16:34.167Z</time>
      </trkpt>
      <trkpt lat="45.48938" lon="5.58545">
        <ele>516.73</ele>
        <time>2021-02-03T09:16:41.841Z</time>
      </trkpt>
      <trkpt lat="45.48942" lon="5.58557">
        <ele>517.11</ele>
        <time>2021-02-03T09:16:49.661Z</time>
      </trkpt>
      <trkpt lat="45.48946" lon="5.5857">
        <ele>517.01</ele>
        <time>2021-02-03T09:16:58.715Z</time>
      </trkpt>
      <trkpt lat="45.48949" lon="5.58582">
        <ele>517.24</ele>
        <time>2021-02-03T09:17:07.187Z</time>
      </trkpt>
      <trkpt lat="45.48954" lon="5.58595">
        <ele>517.7</ele>
        <time>2021-02-03T09:17:15.181Z</time>
      </trkpt>
      <trkpt lat="45.48958" lon="5.58606">
        <ele>517.88</ele>
        <time>2021-02-03T09:17:23.241Z</time>
      </trkpt>
      <trkpt lat="45.48964" lon="5.58617">
        <ele>518.42</ele>
        <time>2021-02-03T09:17:32.382Z</time>
      </trkpt>
      <trkpt lat="45.48967" lon="5.58631">
        <ele>518.61</ele>
        <time>2021-02-03T09:17:40.999Z</time>
      </trkpt>
      <trkpt lat="45.4897" lon="5.58633">
        <ele>518.85</ele>
        <time>2021-02-03T09:17:50.487Z</time>
      </trkpt>
      <trkpt lat="45.48971" lon="5.58646">
        <ele>518.58</ele>
        <time>2021-02-03T09:18:00.028Z</time>
      </trkpt>
      <trkpt lat="45.48975" lon="5.5866">
        <ele>519.17</ele>
        <time>2021-02-03T09:18:08.727Z</time>
      </trkpt>
      <trkpt lat="45.4898" lon="5.58672">
        <ele>519.23</ele>
        <time>2021-02-03T09:18:17.248Z</time>
      </trkpt>
      <trkpt lat="45.48985" lon="5.58686">
        <ele>520.66</ele>
        <time>2021-02-03T09:18:26.127Z</time>
      </trkpt>
      <trkpt lat="45.48987" lon="5.587">
        <ele>520.87</ele>
        <time>2021-02-03T09:18:34.563Z</time>
      </trkpt>
      <trkpt lat="45.48992" lon="5.58708">
        <ele>521.7</ele>
        <time>2021-02-03T09:18:44.503Z</time>
      </trkpt>
      <trkpt lat="45.48994" lon="5.58722">
        <ele>521.88</ele>
        <time>2021-02-03T09:18:54.243Z</time>
      </trkpt>
      <trkpt lat="45.49" lon="5.58733">
        <ele>522.57</ele>
        <time>2021-02-03T09:19:03.541Z</time>
      </trkpt>
      <trkpt lat="45.49003" lon="5.58746">
        <ele>522.67</ele>
        <time>2021-02-03T09:19:13.181Z</time>
      </trkpt>
      <trkpt lat="45.49008" lon="5.58757">
        <ele>523.44</ele>
        <time>2021-02-03T09:19:22.482Z</time>
      </trkpt>
      <trkpt lat="45.49015" lon="5.58766">
        <ele>523.64</ele>
        <time>2021-02-03T09:19:31.340Z</time>
      </trkpt>
      <trkpt lat="45.4902" lon="5.58776">
        <ele>523.87</ele>
        <time>2021-02-03T09:19:40.599Z</time>
      </trkpt>
      <trkpt lat="45.49027" lon="5.58784">
        <ele>523.97</ele>
        <time>2021-02-03T09:19:49.959Z</time>
      </trkpt>
      <trkpt lat="45.49032" lon="5.58795">
        <ele>524.12</ele>
        <time>2021-02-03T09:20:00.130Z</time>
      </trkpt>
      <trkpt lat="45.49039" lon="5.58805">
        <ele>524.38</ele>
        <time>2021-02-03T09:20:10.291Z</time>
      </trkpt>
      <trkpt lat="45.49047" lon="5.58813">
        <ele>524.75</ele>
        <time>2021-02-03T09:20:18.574Z</time>
      </trkpt>
      <trkpt lat="45.49054" lon="5.58823">
        <ele>525.12</ele>
        <time>2021-02-03T09:20:26.129Z</time>
      </trkpt>
      <trkpt lat="45.49061" lon="5.58833">
        <ele>525.12</ele>
        <time>2021-02-03T09:20:33.858Z</time>
      </trkpt>
      <trkpt lat="45.4907" lon="5.58841">
        <ele>525.65</ele>
        <time>2021-02-03T09:20:42.379Z</time>
      </trkpt>
      <trkpt lat="45.49076" lon="5.58851">
        <ele>526.08</ele>
        <time>2021-02-03T09:20:49.807Z</time>
      </trkpt>
      <trkpt lat="45.49084" lon="5.58854">
        <ele>526.73</ele>
        <time>2021-02-03T09:21:00.539Z</time>
      </trkpt>
      <trkpt lat="45.4909" lon="5.58865">
        <ele>526.71</ele>
        <time>2021-02-03T09:21:09.129Z</time>
      </trkpt>
      <trkpt lat="45.49098" lon="5.5887">
        <ele>526.13</ele>
        <time>2021-02-03T09:21:16.518Z</time>
      </trkpt>
      <trkpt lat="45.49106" lon="5.58861">
        <ele>526.19</ele>
        <time>2021-02-03T09:21:23.519Z</time>
      </trkpt>
      <trkpt lat="45.49114" lon="5.58857">
        <ele>526.05</ele>
        <time>2021-02-03T09:21:31.462Z</time>
      </trkpt>
      <trkpt lat="45.49123" lon="5.58856">
        <ele>525.99</ele>
        <time>2021-02-03T09:21:38.371Z</time>
      </trkpt>
      <trkpt lat="45.49132" lon="5.58853">
        <ele>526.04</ele>
        <time>2021-02-03T09:21:46.769Z</time>
      </trkpt>
      <trkpt lat="45.49142" lon="5.58851">
        <ele>525.91</ele>
        <time>2021-02-03T09:21:56.113Z</time>
      </trkpt>
      <trkpt lat="45.49152" lon="5.58853">
        <ele>525.82</ele>
        <time>2021-02-03T09:22:05.078Z</time>
      </trkpt>
      <trkpt lat="45.49161" lon="5.58853">
        <ele>524.79</ele>
        <time>2021-02-03T09:22:13.629Z</time>
      </trkpt>
      <trkpt lat="45.4917" lon="5.58857">
        <ele>523.93</ele>
        <time>2021-02-03T09:22:21.563Z</time>
      </trkpt>
      <trkpt lat="45.49179" lon="5.5886">
        <ele>523.25</ele>
        <time>2021-02-03T09:22:29.661Z</time>
      </trkpt>
      <trkpt lat="45.49187" lon="5.5886">
        <ele>522.56</ele>
        <time>2021-02-03T09:22:39.464Z</time>
      </trkpt>
      <trkpt lat="45.49195" lon="5.58868">
        <ele>521</ele>
        <time>2021-02-03T09:22:47.599Z</time>
      </trkpt>
      <trkpt lat="45.49204" lon="5.58871">
        <ele>519.97</ele>
        <time>2021-02-03T09:22:56.099Z</time>
      </trkpt>
      <trkpt lat="45.49214" lon="5.5887">
        <ele>519.08</ele>
        <time>2021-02-03T09:23:04.941Z</time>
      </trkpt>
      <trkpt lat="45.49224" lon="5.58869">
        <ele>518.96</ele>
        <time>2021-02-03T09:23:14.102Z</time>
      </trkpt>
      <trkpt lat="45.49233" lon="5.5887">
        <ele>518.82</ele>
        <time>2021-02-03T09:23:22.121Z</time>
      </trkpt>
      <trkpt lat="45.49242" lon="5.58868">
        <ele>518.72</ele>
        <time>2021-02-03T09:23:30.341Z</time>
      </trkpt>
      <trkpt lat="45.4925" lon="5.5887">
        <ele>519.01</ele>
        <time>2021-02-03T09:23:39.480Z</time>
      </trkpt>
      <trkpt lat="45.49259" lon="5.5887">
        <ele>518.52</ele>
        <time>2021-02-03T09:23:48.179Z</time>
      </trkpt>
      <trkpt lat="45.49265" lon="5.58868">
        <ele>518.39</ele>
        <time>2021-02-03T09:23:58.000Z</time>
      </trkpt>
      <trkpt lat="45.49264" lon="5.58864">
        <ele>518.65</ele>
        <time>2021-02-03T09:24:10.539Z</time>
      </trkpt>
      <trkpt lat="45.49268" lon="5.58861">
        <ele>518.69</ele>
        <time>2021-02-03T09:24:27.219Z</time>
      </trkpt>
      <trkpt lat="45.49277" lon="5.58857">
        <ele>518.6</ele>
        <time>2021-02-03T09:24:33.663Z</time>
      </trkpt>
      <trkpt lat="45.49282" lon="5.58864">
        <ele>518.59</ele>
        <time>2021-02-03T09:24:43.340Z</time>
      </trkpt>
      <trkpt lat="45.49278" lon="5.58861">
        <ele>518.1</ele>
        <time>2021-02-03T09:25:41.999Z</time>
      </trkpt>
      <trkpt lat="45.49283" lon="5.58861">
        <ele>518.15</ele>
        <time>2021-02-03T09:25:51.948Z</time>
      </trkpt>
      <trkpt lat="45.49292" lon="5.58866">
        <ele>518.43</ele>
        <time>2021-02-03T09:25:57.407Z</time>
      </trkpt>
      <trkpt lat="45.493" lon="5.58872">
        <ele>518.21</ele>
        <time>2021-02-03T09:26:02.207Z</time>
      </trkpt>
      <trkpt lat="45.49309" lon="5.58877">
        <ele>518.41</ele>
        <time>2021-02-03T09:26:08.488Z</time>
      </trkpt>
      <trkpt lat="45.49318" lon="5.58881">
        <ele>518.66</ele>
        <time>2021-02-03T09:26:15.190Z</time>
      </trkpt>
      <trkpt lat="45.49328" lon="5.58884">
        <ele>518.79</ele>
        <time>2021-02-03T09:26:21.928Z</time>
      </trkpt>
      <trkpt lat="45.49338" lon="5.58884">
        <ele>518.77</ele>
        <time>2021-02-03T09:26:30.008Z</time>
      </trkpt>
      <trkpt lat="45.49348" lon="5.5888">
        <ele>518.93</ele>
        <time>2021-02-03T09:26:38.507Z</time>
      </trkpt>
      <trkpt lat="45.49356" lon="5.58874">
        <ele>519.27</ele>
        <time>2021-02-03T09:26:46.249Z</time>
      </trkpt>
      <trkpt lat="45.49365" lon="5.5887">
        <ele>519.39</ele>
        <time>2021-02-03T09:26:54.067Z</time>
      </trkpt>
      <trkpt lat="45.49375" lon="5.58865">
        <ele>519.8</ele>
        <time>2021-02-03T09:27:02.545Z</time>
      </trkpt>
      <trkpt lat="45.49385" lon="5.58855">
        <ele>520.79</ele>
        <time>2021-02-03T09:27:12.384Z</time>
      </trkpt>
      <trkpt lat="45.4939" lon="5.58844">
        <ele>521.68</ele>
        <time>2021-02-03T09:27:21.127Z</time>
      </trkpt>
      <trkpt lat="45.49398" lon="5.58837">
        <ele>521.93</ele>
        <time>2021-02-03T09:27:29.543Z</time>
      </trkpt>
      <trkpt lat="45.49406" lon="5.58831">
        <ele>522.62</ele>
        <time>2021-02-03T09:27:37.983Z</time>
      </trkpt>
      <trkpt lat="45.49413" lon="5.58821">
        <ele>522.59</ele>
        <time>2021-02-03T09:27:46.343Z</time>
      </trkpt>
      <trkpt lat="45.49419" lon="5.58811">
        <ele>523.11</ele>
        <time>2021-02-03T09:27:54.453Z</time>
      </trkpt>
      <trkpt lat="45.49426" lon="5.58801">
        <ele>522.81</ele>
        <time>2021-02-03T09:28:03.122Z</time>
      </trkpt>
      <trkpt lat="45.49431" lon="5.5879">
        <ele>523.03</ele>
        <time>2021-02-03T09:28:11.088Z</time>
      </trkpt>
      <trkpt lat="45.4944" lon="5.58783">
        <ele>523.67</ele>
        <time>2021-02-03T09:28:20.107Z</time>
      </trkpt>
      <trkpt lat="45.49446" lon="5.58773">
        <ele>523.75</ele>
        <time>2021-02-03T09:28:28.454Z</time>
      </trkpt>
      <trkpt lat="45.49454" lon="5.58764">
        <ele>523.87</ele>
        <time>2021-02-03T09:28:37.105Z</time>
      </trkpt>
      <trkpt lat="45.4946" lon="5.58755">
        <ele>524.32</ele>
        <time>2021-02-03T09:28:45.467Z</time>
      </trkpt>
      <trkpt lat="45.49466" lon="5.58744">
        <ele>524.5</ele>
        <time>2021-02-03T09:28:52.503Z</time>
      </trkpt>
      <trkpt lat="45.49473" lon="5.58735">
        <ele>524.66</ele>
        <time>2021-02-03T09:29:00.203Z</time>
      </trkpt>
      <trkpt lat="45.4948" lon="5.58725">
        <ele>524.85</ele>
        <time>2021-02-03T09:29:09.523Z</time>
      </trkpt>
      <trkpt lat="45.49487" lon="5.58717">
        <ele>525.49</ele>
        <time>2021-02-03T09:29:18.423Z</time>
      </trkpt>
      <trkpt lat="45.49493" lon="5.58705">
        <ele>525.83</ele>
        <time>2021-02-03T09:29:28.362Z</time>
      </trkpt>
      <trkpt lat="45.49499" lon="5.58695">
        <ele>526.07</ele>
        <time>2021-02-03T09:29:36.581Z</time>
      </trkpt>
      <trkpt lat="45.49505" lon="5.58685">
        <ele>526.59</ele>
        <time>2021-02-03T09:29:45.359Z</time>
      </trkpt>
      <trkpt lat="45.4951" lon="5.58673">
        <ele>527.53</ele>
        <time>2021-02-03T09:29:56.318Z</time>
      </trkpt>
      <trkpt lat="45.49517" lon="5.58666">
        <ele>528.32</ele>
        <time>2021-02-03T09:30:06.199Z</time>
      </trkpt>
      <trkpt lat="45.49515" lon="5.58665">
        <ele>528.5</ele>
        <time>2021-02-03T09:30:27.999Z</time>
      </trkpt>
      <trkpt lat="45.49519" lon="5.5866">
        <ele>528.26</ele>
        <time>2021-02-03T09:30:37.049Z</time>
      </trkpt>
      <trkpt lat="45.49527" lon="5.58653">
        <ele>529.15</ele>
        <time>2021-02-03T09:30:45.268Z</time>
      </trkpt>
      <trkpt lat="45.49535" lon="5.58649">
        <ele>529.69</ele>
        <time>2021-02-03T09:30:53.811Z</time>
      </trkpt>
      <trkpt lat="45.49544" lon="5.58646">
        <ele>529.75</ele>
        <time>2021-02-03T09:31:02.951Z</time>
      </trkpt>
      <trkpt lat="45.49554" lon="5.58644">
        <ele>530</ele>
        <time>2021-02-03T09:31:12.417Z</time>
      </trkpt>
      <trkpt lat="45.49563" lon="5.58646">
        <ele>530.43</ele>
        <time>2021-02-03T09:31:21.238Z</time>
      </trkpt>
      <trkpt lat="45.49572" lon="5.58643">
        <ele>530.93</ele>
        <time>2021-02-03T09:31:30.038Z</time>
      </trkpt>
      <trkpt lat="45.49581" lon="5.5864">
        <ele>531.4</ele>
        <time>2021-02-03T09:31:37.465Z</time>
      </trkpt>
      <trkpt lat="45.49591" lon="5.58639">
        <ele>531.78</ele>
        <time>2021-02-03T09:31:46.299Z</time>
      </trkpt>
      <trkpt lat="45.49599" lon="5.58635">
        <ele>532.25</ele>
        <time>2021-02-03T09:31:55.467Z</time>
      </trkpt>
      <trkpt lat="45.49608" lon="5.58631">
        <ele>532.81</ele>
        <time>2021-02-03T09:32:04.964Z</time>
      </trkpt>
      <trkpt lat="45.49616" lon="5.58624">
        <ele>534.3</ele>
        <time>2021-02-03T09:32:14.760Z</time>
      </trkpt>
      <trkpt lat="45.49622" lon="5.58615">
        <ele>535.52</ele>
        <time>2021-02-03T09:32:24.261Z</time>
      </trkpt>
      <trkpt lat="45.49627" lon="5.58606">
        <ele>536.65</ele>
        <time>2021-02-03T09:32:34.541Z</time>
      </trkpt>
      <trkpt lat="45.49629" lon="5.58597">
        <ele>537.81</ele>
        <time>2021-02-03T09:32:44.740Z</time>
      </trkpt>
      <trkpt lat="45.49633" lon="5.58586">
        <ele>539.22</ele>
        <time>2021-02-03T09:32:54.240Z</time>
      </trkpt>
      <trkpt lat="45.49635" lon="5.58574">
        <ele>540.52</ele>
        <time>2021-02-03T09:33:04.199Z</time>
      </trkpt>
      <trkpt lat="45.4964" lon="5.58564">
        <ele>542.05</ele>
        <time>2021-02-03T09:33:13.720Z</time>
      </trkpt>
      <trkpt lat="45.49643" lon="5.58552">
        <ele>543.31</ele>
        <time>2021-02-03T09:33:22.642Z</time>
      </trkpt>
      <trkpt lat="45.49646" lon="5.58541">
        <ele>544.67</ele>
        <time>2021-02-03T09:33:32.340Z</time>
      </trkpt>
      <trkpt lat="45.49651" lon="5.58533">
        <ele>545.24</ele>
        <time>2021-02-03T09:33:42.659Z</time>
      </trkpt>
      <trkpt lat="45.49657" lon="5.58528">
        <ele>546.42</ele>
        <time>2021-02-03T09:33:52.010Z</time>
      </trkpt>
      <trkpt lat="45.49665" lon="5.58525">
        <ele>547.6</ele>
        <time>2021-02-03T09:34:01.408Z</time>
      </trkpt>
      <trkpt lat="45.49672" lon="5.5852">
        <ele>548.44</ele>
        <time>2021-02-03T09:34:11.607Z</time>
      </trkpt>
      <trkpt lat="45.49679" lon="5.58521">
        <ele>549.65</ele>
        <time>2021-02-03T09:34:21.170Z</time>
      </trkpt>
      <trkpt lat="45.49686" lon="5.58514">
        <ele>551</ele>
        <time>2021-02-03T09:34:31.565Z</time>
      </trkpt>
      <trkpt lat="45.49695" lon="5.58511">
        <ele>552.24</ele>
        <time>2021-02-03T09:34:41.584Z</time>
      </trkpt>
      <trkpt lat="45.49703" lon="5.58512">
        <ele>553.4</ele>
        <time>2021-02-03T09:34:50.986Z</time>
      </trkpt>
      <trkpt lat="45.4971" lon="5.5851">
        <ele>554.87</ele>
        <time>2021-02-03T09:35:00.225Z</time>
      </trkpt>
      <trkpt lat="45.49717" lon="5.58507">
        <ele>556.01</ele>
        <time>2021-02-03T09:35:09.601Z</time>
      </trkpt>
      <trkpt lat="45.4972" lon="5.58503">
        <ele>556.38</ele>
        <time>2021-02-03T09:35:19.362Z</time>
      </trkpt>
      <trkpt lat="45.49728" lon="5.58499">
        <ele>556.8</ele>
        <time>2021-02-03T09:35:27.343Z</time>
      </trkpt>
      <trkpt lat="45.49736" lon="5.58493">
        <ele>557.11</ele>
        <time>2021-02-03T09:35:37.579Z</time>
      </trkpt>
      <trkpt lat="45.49743" lon="5.58489">
        <ele>558.33</ele>
        <time>2021-02-03T09:35:47.548Z</time>
      </trkpt>
      <trkpt lat="45.4975" lon="5.5848">
        <ele>558.93</ele>
        <time>2021-02-03T09:35:57.467Z</time>
      </trkpt>
      <trkpt lat="45.49755" lon="5.58468">
        <ele>559.23</ele>
        <time>2021-02-03T09:36:06.485Z</time>
      </trkpt>
      <trkpt lat="45.49757" lon="5.58455">
        <ele>559.71</ele>
        <time>2021-02-03T09:36:15.144Z</time>
      </trkpt>
      <trkpt lat="45.49761" lon="5.58444">
        <ele>560.03</ele>
        <time>2021-02-03T09:36:24.244Z</time>
      </trkpt>
      <trkpt lat="45.49762" lon="5.58432">
        <ele>560.51</ele>
        <time>2021-02-03T09:36:34.084Z</time>
      </trkpt>
      <trkpt lat="45.49761" lon="5.58435">
        <ele>560.32</ele>
        <time>2021-02-03T09:36:52.304Z</time>
      </trkpt>
      <trkpt lat="45.49761" lon="5.58425">
        <ele>560.9</ele>
        <time>2021-02-03T09:37:01.647Z</time>
      </trkpt>
      <trkpt lat="45.49763" lon="5.58411">
        <ele>560.98</ele>
        <time>2021-02-03T09:37:10.406Z</time>
      </trkpt>
      <trkpt lat="45.49765" lon="5.58398">
        <ele>561.57</ele>
        <time>2021-02-03T09:37:19.206Z</time>
      </trkpt>
      <trkpt lat="45.49767" lon="5.58386">
        <ele>561.16</ele>
        <time>2021-02-03T09:37:27.366Z</time>
      </trkpt>
      <trkpt lat="45.49767" lon="5.58372">
        <ele>561.01</ele>
        <time>2021-02-03T09:37:35.690Z</time>
      </trkpt>
      <trkpt lat="45.49767" lon="5.58359">
        <ele>560.32</ele>
        <time>2021-02-03T09:37:45.085Z</time>
      </trkpt>
      <trkpt lat="45.49768" lon="5.58346">
        <ele>560.24</ele>
        <time>2021-02-03T09:37:53.307Z</time>
      </trkpt>
      <trkpt lat="45.49771" lon="5.58334">
        <ele>560.27</ele>
        <time>2021-02-03T09:38:01.787Z</time>
      </trkpt>
      <trkpt lat="45.49773" lon="5.58319">
        <ele>560.07</ele>
        <time>2021-02-03T09:38:11.067Z</time>
      </trkpt>
      <trkpt lat="45.49775" lon="5.58306">
        <ele>559.28</ele>
        <time>2021-02-03T09:38:19.167Z</time>
      </trkpt>
      <trkpt lat="45.49779" lon="5.58293">
        <ele>558.95</ele>
        <time>2021-02-03T09:38:27.222Z</time>
      </trkpt>
      <trkpt lat="45.49783" lon="5.58281">
        <ele>558.73</ele>
        <time>2021-02-03T09:38:35.262Z</time>
      </trkpt>
      <trkpt lat="45.49785" lon="5.58268">
        <ele>558.3</ele>
        <time>2021-02-03T09:38:43.225Z</time>
      </trkpt>
      <trkpt lat="45.49787" lon="5.58255">
        <ele>557.69</ele>
        <time>2021-02-03T09:38:51.012Z</time>
      </trkpt>
      <trkpt lat="45.49789" lon="5.58243">
        <ele>556.84</ele>
        <time>2021-02-03T09:38:59.207Z</time>
      </trkpt>
      <trkpt lat="45.49792" lon="5.5823">
        <ele>556.23</ele>
        <time>2021-02-03T09:39:07.322Z</time>
      </trkpt>
      <trkpt lat="45.49795" lon="5.58217">
        <ele>555.93</ele>
        <time>2021-02-03T09:39:15.529Z</time>
      </trkpt>
      <trkpt lat="45.49798" lon="5.58202">
        <ele>555.41</ele>
        <time>2021-02-03T09:39:25.960Z</time>
      </trkpt>
      <trkpt lat="45.49803" lon="5.5819">
        <ele>555.33</ele>
        <time>2021-02-03T09:39:34.141Z</time>
      </trkpt>
      <trkpt lat="45.49805" lon="5.58177">
        <ele>555.31</ele>
        <time>2021-02-03T09:39:42.260Z</time>
      </trkpt>
      <trkpt lat="45.49809" lon="5.58165">
        <ele>555.69</ele>
        <time>2021-02-03T09:39:52.281Z</time>
      </trkpt>
      <trkpt lat="45.49807" lon="5.58152">
        <ele>555.33</ele>
        <time>2021-02-03T09:40:00.342Z</time>
      </trkpt>
      <trkpt lat="45.49814" lon="5.58143">
        <ele>555.66</ele>
        <time>2021-02-03T09:40:08.181Z</time>
      </trkpt>
      <trkpt lat="45.49821" lon="5.58135">
        <ele>555.79</ele>
        <time>2021-02-03T09:40:15.659Z</time>
      </trkpt>
      <trkpt lat="45.49824" lon="5.58123">
        <ele>556.17</ele>
        <time>2021-02-03T09:40:23.642Z</time>
      </trkpt>
      <trkpt lat="45.49824" lon="5.58109">
        <ele>556.91</ele>
        <time>2021-02-03T09:40:33.361Z</time>
      </trkpt>
      <trkpt lat="45.49822" lon="5.58096">
        <ele>557.73</ele>
        <time>2021-02-03T09:40:42.078Z</time>
      </trkpt>
      <trkpt lat="45.49822" lon="5.58083">
        <ele>558.15</ele>
        <time>2021-02-03T09:40:51.587Z</time>
      </trkpt>
      <trkpt lat="45.49821" lon="5.5807">
        <ele>558.68</ele>
        <time>2021-02-03T09:41:01.126Z</time>
      </trkpt>
      <trkpt lat="45.4982" lon="5.58058">
        <ele>559.32</ele>
        <time>2021-02-03T09:41:08.408Z</time>
      </trkpt>
      <trkpt lat="45.49819" lon="5.58043">
        <ele>560.05</ele>
        <time>2021-02-03T09:41:17.301Z</time>
      </trkpt>
      <trkpt lat="45.49816" lon="5.5803">
        <ele>560.75</ele>
        <time>2021-02-03T09:41:25.607Z</time>
      </trkpt>
      <trkpt lat="45.49812" lon="5.58018">
        <ele>560.38</ele>
        <time>2021-02-03T09:41:33.229Z</time>
      </trkpt>
      <trkpt lat="45.4981" lon="5.58002">
        <ele>560.67</ele>
        <time>2021-02-03T09:41:41.467Z</time>
      </trkpt>
      <trkpt lat="45.49804" lon="5.57993">
        <ele>560.4</ele>
        <time>2021-02-03T09:41:48.326Z</time>
      </trkpt>
      <trkpt lat="45.49802" lon="5.5798">
        <ele>560.41</ele>
        <time>2021-02-03T09:41:55.306Z</time>
      </trkpt>
      <trkpt lat="45.49804" lon="5.57966">
        <ele>560.29</ele>
        <time>2021-02-03T09:42:05.608Z</time>
      </trkpt>
      <trkpt lat="45.49805" lon="5.57953">
        <ele>560.6</ele>
        <time>2021-02-03T09:42:14.465Z</time>
      </trkpt>
      <trkpt lat="45.49811" lon="5.57943">
        <ele>561.03</ele>
        <time>2021-02-03T09:42:23.166Z</time>
      </trkpt>
      <trkpt lat="45.49816" lon="5.57933">
        <ele>562.1</ele>
        <time>2021-02-03T09:42:32.623Z</time>
      </trkpt>
      <trkpt lat="45.49822" lon="5.57925">
        <ele>562.57</ele>
        <time>2021-02-03T09:42:41.625Z</time>
      </trkpt>
      <trkpt lat="45.49826" lon="5.57916">
        <ele>563.37</ele>
        <time>2021-02-03T09:42:50.645Z</time>
      </trkpt>
      <trkpt lat="45.49833" lon="5.57909">
        <ele>564.38</ele>
        <time>2021-02-03T09:43:00.471Z</time>
      </trkpt>
      <trkpt lat="45.49839" lon="5.57897">
        <ele>565.48</ele>
        <time>2021-02-03T09:43:10.362Z</time>
      </trkpt>
      <trkpt lat="45.49846" lon="5.57889">
        <ele>566.5</ele>
        <time>2021-02-03T09:43:19.002Z</time>
      </trkpt>
      <trkpt lat="45.49854" lon="5.57883">
        <ele>566.51</ele>
        <time>2021-02-03T09:43:28.143Z</time>
      </trkpt>
      <trkpt lat="45.49862" lon="5.57876">
        <ele>567.18</ele>
        <time>2021-02-03T09:43:35.467Z</time>
      </trkpt>
      <trkpt lat="45.49868" lon="5.57866">
        <ele>567.71</ele>
        <time>2021-02-03T09:43:46.002Z</time>
      </trkpt>
      <trkpt lat="45.49873" lon="5.57859">
        <ele>568.02</ele>
        <time>2021-02-03T09:43:55.561Z</time>
      </trkpt>
      <trkpt lat="45.4988" lon="5.5785">
        <ele>568.84</ele>
        <time>2021-02-03T09:44:05.700Z</time>
      </trkpt>
      <trkpt lat="45.49885" lon="5.5784">
        <ele>569.78</ele>
        <time>2021-02-03T09:44:15.222Z</time>
      </trkpt>
      <trkpt lat="45.49891" lon="5.57831">
        <ele>570.32</ele>
        <time>2021-02-03T09:44:24.641Z</time>
      </trkpt>
      <trkpt lat="45.49897" lon="5.57822">
        <ele>570.84</ele>
        <time>2021-02-03T09:44:32.621Z</time>
      </trkpt>
      <trkpt lat="45.49902" lon="5.57812">
        <ele>571.41</ele>
        <time>2021-02-03T09:44:42.240Z</time>
      </trkpt>
      <trkpt lat="45.49909" lon="5.57802">
        <ele>572.17</ele>
        <time>2021-02-03T09:44:52.469Z</time>
      </trkpt>
      <trkpt lat="45.4991" lon="5.57796">
        <ele>572.73</ele>
        <time>2021-02-03T09:45:02.707Z</time>
      </trkpt>
      <trkpt lat="45.49917" lon="5.57785">
        <ele>572.87</ele>
        <time>2021-02-03T09:45:12.601Z</time>
      </trkpt>
      <trkpt lat="45.49923" lon="5.57774">
        <ele>573.72</ele>
        <time>2021-02-03T09:45:22.480Z</time>
      </trkpt>
      <trkpt lat="45.49929" lon="5.57764">
        <ele>573.97</ele>
        <time>2021-02-03T09:45:31.220Z</time>
      </trkpt>
      <trkpt lat="45.49932" lon="5.57752">
        <ele>574.74</ele>
        <time>2021-02-03T09:45:41.540Z</time>
      </trkpt>
      <trkpt lat="45.49936" lon="5.5774">
        <ele>575.1</ele>
        <time>2021-02-03T09:45:51.621Z</time>
      </trkpt>
      <trkpt lat="45.49937" lon="5.57728">
        <ele>575.75</ele>
        <time>2021-02-03T09:46:01.240Z</time>
      </trkpt>
      <trkpt lat="45.49935" lon="5.57714">
        <ele>576.84</ele>
        <time>2021-02-03T09:46:11.279Z</time>
      </trkpt>
      <trkpt lat="45.49936" lon="5.57705">
        <ele>577.34</ele>
        <time>2021-02-03T09:46:21.465Z</time>
      </trkpt>
      <trkpt lat="45.49938" lon="5.57692">
        <ele>577.63</ele>
        <time>2021-02-03T09:46:30.164Z</time>
      </trkpt>
      <trkpt lat="45.49936" lon="5.57681">
        <ele>578.21</ele>
        <time>2021-02-03T09:46:39.249Z</time>
      </trkpt>
      <trkpt lat="45.49937" lon="5.57669">
        <ele>579.24</ele>
        <time>2021-02-03T09:46:49.530Z</time>
      </trkpt>
      <trkpt lat="45.49945" lon="5.57663">
        <ele>579.69</ele>
        <time>2021-02-03T09:46:59.489Z</time>
      </trkpt>
      <trkpt lat="45.49953" lon="5.57657">
        <ele>579.62</ele>
        <time>2021-02-03T09:47:07.370Z</time>
      </trkpt>
      <trkpt lat="45.49959" lon="5.57645">
        <ele>580.21</ele>
        <time>2021-02-03T09:47:17.467Z</time>
      </trkpt>
      <trkpt lat="45.49967" lon="5.57639">
        <ele>580.29</ele>
        <time>2021-02-03T09:47:27.526Z</time>
      </trkpt>
      <trkpt lat="45.49972" lon="5.57628">
        <ele>581.15</ele>
        <time>2021-02-03T09:47:39.366Z</time>
      </trkpt>
      <trkpt lat="45.49979" lon="5.57622">
        <ele>581.91</ele>
        <time>2021-02-03T09:47:49.366Z</time>
      </trkpt>
      <trkpt lat="45.49986" lon="5.57614">
        <ele>582.19</ele>
        <time>2021-02-03T09:47:57.507Z</time>
      </trkpt>
      <trkpt lat="45.4999" lon="5.57602">
        <ele>582.9</ele>
        <time>2021-02-03T09:48:07.566Z</time>
      </trkpt>
      <trkpt lat="45.49996" lon="5.57591">
        <ele>583.77</ele>
        <time>2021-02-03T09:48:16.265Z</time>
      </trkpt>
      <trkpt lat="45.50002" lon="5.57581">
        <ele>583.86</ele>
        <time>2021-02-03T09:48:26.104Z</time>
      </trkpt>
      <trkpt lat="45.50008" lon="5.57572">
        <ele>584.97</ele>
        <time>2021-02-03T09:48:35.965Z</time>
      </trkpt>
      <trkpt lat="45.50014" lon="5.57564">
        <ele>584.92</ele>
        <time>2021-02-03T09:48:45.148Z</time>
      </trkpt>
      <trkpt lat="45.5002" lon="5.57552">
        <ele>585.16</ele>
        <time>2021-02-03T09:48:54.486Z</time>
      </trkpt>
      <trkpt lat="45.50028" lon="5.57544">
        <ele>585.68</ele>
        <time>2021-02-03T09:49:05.385Z</time>
      </trkpt>
      <trkpt lat="45.50034" lon="5.57536">
        <ele>586.21</ele>
        <time>2021-02-03T09:49:14.664Z</time>
      </trkpt>
      <trkpt lat="45.50037" lon="5.5753">
        <ele>586.76</ele>
        <time>2021-02-03T09:49:24.144Z</time>
      </trkpt>
      <trkpt lat="45.50045" lon="5.5752">
        <ele>586.94</ele>
        <time>2021-02-03T09:49:34.381Z</time>
      </trkpt>
      <trkpt lat="45.50051" lon="5.57511">
        <ele>587.79</ele>
        <time>2021-02-03T09:49:43.182Z</time>
      </trkpt>
      <trkpt lat="45.50057" lon="5.57502">
        <ele>588.26</ele>
        <time>2021-02-03T09:49:52.322Z</time>
      </trkpt>
      <trkpt lat="45.5006" lon="5.57492">
        <ele>589.59</ele>
        <time>2021-02-03T09:50:02.068Z</time>
      </trkpt>
      <trkpt lat="45.50058" lon="5.57481">
        <ele>589.51</ele>
        <time>2021-02-03T09:50:11.286Z</time>
      </trkpt>
      <trkpt lat="45.50056" lon="5.57479">
        <ele>590.2</ele>
        <time>2021-02-03T09:50:31.989Z</time>
      </trkpt>
      <trkpt lat="45.50049" lon="5.57474">
        <ele>590.22</ele>
        <time>2021-02-03T09:50:41.509Z</time>
      </trkpt>
      <trkpt lat="45.50045" lon="5.5747">
        <ele>590.46</ele>
        <time>2021-02-03T09:50:50.587Z</time>
      </trkpt>
      <trkpt lat="45.50041" lon="5.57465">
        <ele>590.4</ele>
        <time>2021-02-03T09:51:00.451Z</time>
      </trkpt>
      <trkpt lat="45.50037" lon="5.5746">
        <ele>590.45</ele>
        <time>2021-02-03T09:51:09.623Z</time>
      </trkpt>
      <trkpt lat="45.50035" lon="5.57456">
        <ele>590.49</ele>
        <time>2021-02-03T09:51:19.365Z</time>
      </trkpt>
      <trkpt lat="45.50027" lon="5.5745">
        <ele>590.48</ele>
        <time>2021-02-03T09:51:28.505Z</time>
      </trkpt>
      <trkpt lat="45.50019" lon="5.57443">
        <ele>590.34</ele>
        <time>2021-02-03T09:51:38.765Z</time>
      </trkpt>
      <trkpt lat="45.50012" lon="5.57438">
        <ele>590.07</ele>
        <time>2021-02-03T09:51:48.124Z</time>
      </trkpt>
      <trkpt lat="45.50006" lon="5.57431">
        <ele>589.59</ele>
        <time>2021-02-03T09:51:57.405Z</time>
      </trkpt>
      <trkpt lat="45.49999" lon="5.57425">
        <ele>588.41</ele>
        <time>2021-02-03T09:52:06.445Z</time>
      </trkpt>
      <trkpt lat="45.49994" lon="5.57418">
        <ele>587.87</ele>
        <time>2021-02-03T09:52:15.666Z</time>
      </trkpt>
      <trkpt lat="45.49988" lon="5.57411">
        <ele>587.24</ele>
        <time>2021-02-03T09:52:25.008Z</time>
      </trkpt>
      <trkpt lat="45.49981" lon="5.57405">
        <ele>586.53</ele>
        <time>2021-02-03T09:52:34.045Z</time>
      </trkpt>
      <trkpt lat="45.49975" lon="5.574">
        <ele>586.36</ele>
        <time>2021-02-03T09:52:43.166Z</time>
      </trkpt>
      <trkpt lat="45.49969" lon="5.57393">
        <ele>585.8</ele>
        <time>2021-02-03T09:52:52.187Z</time>
      </trkpt>
      <trkpt lat="45.49964" lon="5.57392">
        <ele>584.68</ele>
        <time>2021-02-03T09:53:05.584Z</time>
      </trkpt>
      <trkpt lat="45.49957" lon="5.57382">
        <ele>584.45</ele>
        <time>2021-02-03T09:53:12.469Z</time>
      </trkpt>
      <trkpt lat="45.49951" lon="5.57374">
        <ele>583.67</ele>
        <time>2021-02-03T09:53:22.346Z</time>
      </trkpt>
      <trkpt lat="45.49945" lon="5.57368">
        <ele>583.54</ele>
        <time>2021-02-03T09:53:31.405Z</time>
      </trkpt>
      <trkpt lat="45.4994" lon="5.57359">
        <ele>582.87</ele>
        <time>2021-02-03T09:53:40.453Z</time>
      </trkpt>
      <trkpt lat="45.49931" lon="5.57359">
        <ele>582.12</ele>
        <time>2021-02-03T09:53:50.000Z</time>
      </trkpt>
      <trkpt lat="45.49924" lon="5.57354">
        <ele>581.71</ele>
        <time>2021-02-03T09:54:01.484Z</time>
      </trkpt>
      <trkpt lat="45.49925" lon="5.57351">
        <ele>582.16</ele>
        <time>2021-02-03T09:54:17.462Z</time>
      </trkpt>
      <trkpt lat="45.49918" lon="5.57343">
        <ele>581.31</ele>
        <time>2021-02-03T09:54:26.205Z</time>
      </trkpt>
      <trkpt lat="45.49913" lon="5.57337">
        <ele>580.26</ele>
        <time>2021-02-03T09:54:36.265Z</time>
      </trkpt>
      <trkpt lat="45.49906" lon="5.57328">
        <ele>579.32</ele>
        <time>2021-02-03T09:54:45.224Z</time>
      </trkpt>
      <trkpt lat="45.49901" lon="5.57318">
        <ele>578.29</ele>
        <time>2021-02-03T09:54:54.465Z</time>
      </trkpt>
      <trkpt lat="45.49893" lon="5.57311">
        <ele>576.95</ele>
        <time>2021-02-03T09:55:03.182Z</time>
      </trkpt>
      <trkpt lat="45.49886" lon="5.57304">
        <ele>576.34</ele>
        <time>2021-02-03T09:55:12.323Z</time>
      </trkpt>
      <trkpt lat="45.49879" lon="5.57296">
        <ele>575.31</ele>
        <time>2021-02-03T09:55:21.123Z</time>
      </trkpt>
      <trkpt lat="45.4987" lon="5.57291">
        <ele>573.94</ele>
        <time>2021-02-03T09:55:29.719Z</time>
      </trkpt>
      <trkpt lat="45.49871" lon="5.57291">
        <ele>573.72</ele>
        <time>2021-02-03T09:55:39.000Z</time>
      </trkpt>
      <trkpt lat="45.49873" lon="5.57292">
        <ele>574.09</ele>
        <time>2021-02-03T09:55:51.061Z</time>
      </trkpt>
      <trkpt lat="45.4988" lon="5.57295">
        <ele>574.48</ele>
        <time>2021-02-03T09:56:05.000Z</time>
      </trkpt>
      <trkpt lat="45.49881" lon="5.57292">
        <ele>574.03</ele>
        <time>2021-02-03T09:56:16.941Z</time>
      </trkpt>
      <trkpt lat="45.49878" lon="5.57279">
        <ele>572.03</ele>
        <time>2021-02-03T09:56:26.717Z</time>
      </trkpt>
      <trkpt lat="45.49876" lon="5.57261">
        <ele>571.37</ele>
        <time>2021-02-03T09:56:36.000Z</time>
      </trkpt>
      <trkpt lat="45.49875" lon="5.57254">
        <ele>572.28</ele>
        <time>2021-02-03T09:56:45.161Z</time>
      </trkpt>
      <trkpt lat="45.4988" lon="5.57244">
        <ele>573.27</ele>
        <time>2021-02-03T09:56:54.222Z</time>
      </trkpt>
      <trkpt lat="45.49886" lon="5.57238">
        <ele>573.73</ele>
        <time>2021-02-03T09:57:04.621Z</time>
      </trkpt>
      <trkpt lat="45.49891" lon="5.57229">
        <ele>574.1</ele>
        <time>2021-02-03T09:57:13.643Z</time>
      </trkpt>
      <trkpt lat="45.49898" lon="5.57221">
        <ele>574.66</ele>
        <time>2021-02-03T09:57:23.522Z</time>
      </trkpt>
      <trkpt lat="45.49899" lon="5.57223">
        <ele>574.15</ele>
        <time>2021-02-03T09:57:33.101Z</time>
      </trkpt>
      <trkpt lat="45.49908" lon="5.57219">
        <ele>574.03</ele>
        <time>2021-02-03T09:57:42.220Z</time>
      </trkpt>
      <trkpt lat="45.49917" lon="5.57216">
        <ele>573.92</ele>
        <time>2021-02-03T09:57:50.922Z</time>
      </trkpt>
      <trkpt lat="45.49925" lon="5.57211">
        <ele>574.13</ele>
        <time>2021-02-03T09:58:00.099Z</time>
      </trkpt>
      <trkpt lat="45.49933" lon="5.57207">
        <ele>574.52</ele>
        <time>2021-02-03T09:58:09.641Z</time>
      </trkpt>
      <trkpt lat="45.49941" lon="5.57207">
        <ele>573.77</ele>
        <time>2021-02-03T09:58:19.101Z</time>
      </trkpt>
      <trkpt lat="45.49949" lon="5.57201">
        <ele>573.77</ele>
        <time>2021-02-03T09:58:28.200Z</time>
      </trkpt>
      <trkpt lat="45.49953" lon="5.57197">
        <ele>573.06</ele>
        <time>2021-02-03T09:58:38.000Z</time>
      </trkpt>
      <trkpt lat="45.49958" lon="5.57195">
        <ele>573.06</ele>
        <time>2021-02-03T09:58:48.582Z</time>
      </trkpt>
      <trkpt lat="45.49966" lon="5.57188">
        <ele>572.85</ele>
        <time>2021-02-03T09:58:57.101Z</time>
      </trkpt>
      <trkpt lat="45.49973" lon="5.57184">
        <ele>572.94</ele>
        <time>2021-02-03T09:59:07.260Z</time>
      </trkpt>
      <trkpt lat="45.49982" lon="5.57181">
        <ele>572.37</ele>
        <time>2021-02-03T09:59:17.579Z</time>
      </trkpt>
      <trkpt lat="45.49988" lon="5.57183">
        <ele>571.81</ele>
        <time>2021-02-03T09:59:26.732Z</time>
      </trkpt>
      <trkpt lat="45.49984" lon="5.57181">
        <ele>572.37</ele>
        <time>2021-02-03T09:59:35.820Z</time>
      </trkpt>
      <trkpt lat="45.49989" lon="5.57167">
        <ele>572.88</ele>
        <time>2021-02-03T09:59:45.538Z</time>
      </trkpt>
      <trkpt lat="45.49994" lon="5.57162">
        <ele>573.07</ele>
        <time>2021-02-03T09:59:55.660Z</time>
      </trkpt>
      <trkpt lat="45.50001" lon="5.57159">
        <ele>573.57</ele>
        <time>2021-02-03T10:00:05.119Z</time>
      </trkpt>
      <trkpt lat="45.50007" lon="5.57155">
        <ele>573.57</ele>
        <time>2021-02-03T10:00:14.578Z</time>
      </trkpt>
      <trkpt lat="45.5001" lon="5.57146">
        <ele>573.96</ele>
        <time>2021-02-03T10:00:23.949Z</time>
      </trkpt>
      <trkpt lat="45.50016" lon="5.57146">
        <ele>573.98</ele>
        <time>2021-02-03T10:00:33.148Z</time>
      </trkpt>
      <trkpt lat="45.50025" lon="5.57147">
        <ele>574.49</ele>
        <time>2021-02-03T10:00:43.828Z</time>
      </trkpt>
      <trkpt lat="45.50031" lon="5.57147">
        <ele>574.48</ele>
        <time>2021-02-03T10:00:52.968Z</time>
      </trkpt>
      <trkpt lat="45.50036" lon="5.57152">
        <ele>575.42</ele>
        <time>2021-02-03T10:01:02.719Z</time>
      </trkpt>
      <trkpt lat="45.50038" lon="5.57145">
        <ele>576.66</ele>
        <time>2021-02-03T10:01:23.663Z</time>
      </trkpt>
      <trkpt lat="45.50043" lon="5.57139">
        <ele>576.71</ele>
        <time>2021-02-03T10:01:33.247Z</time>
      </trkpt>
      <trkpt lat="45.50045" lon="5.57134">
        <ele>577.1</ele>
        <time>2021-02-03T10:01:42.364Z</time>
      </trkpt>
      <trkpt lat="45.50051" lon="5.57128">
        <ele>577.6</ele>
        <time>2021-02-03T10:01:51.383Z</time>
      </trkpt>
      <trkpt lat="45.50055" lon="5.57119">
        <ele>577.9</ele>
        <time>2021-02-03T10:02:00.605Z</time>
      </trkpt>
      <trkpt lat="45.5006" lon="5.57108">
        <ele>578.52</ele>
        <time>2021-02-03T10:02:09.987Z</time>
      </trkpt>
      <trkpt lat="45.50068" lon="5.57102">
        <ele>578.79</ele>
        <time>2021-02-03T10:02:18.982Z</time>
      </trkpt>
      <trkpt lat="45.50074" lon="5.57095">
        <ele>579.21</ele>
        <time>2021-02-03T10:02:28.303Z</time>
      </trkpt>
      <trkpt lat="45.50079" lon="5.57086">
        <ele>579.3</ele>
        <time>2021-02-03T10:02:37.788Z</time>
      </trkpt>
      <trkpt lat="45.50088" lon="5.57077">
        <ele>579.89</ele>
        <time>2021-02-03T10:02:47.565Z</time>
      </trkpt>
      <trkpt lat="45.50093" lon="5.57067">
        <ele>580.08</ele>
        <time>2021-02-03T10:02:56.884Z</time>
      </trkpt>
      <trkpt lat="45.50097" lon="5.57057">
        <ele>580.52</ele>
        <time>2021-02-03T10:03:06.003Z</time>
      </trkpt>
      <trkpt lat="45.501" lon="5.57048">
        <ele>580.85</ele>
        <time>2021-02-03T10:03:15.064Z</time>
      </trkpt>
      <trkpt lat="45.50098" lon="5.5704">
        <ele>583.07</ele>
        <time>2021-02-03T10:03:24.943Z</time>
      </trkpt>
      <trkpt lat="45.50098" lon="5.57027">
        <ele>583.9</ele>
        <time>2021-02-03T10:03:34.242Z</time>
      </trkpt>
      <trkpt lat="45.50098" lon="5.57015">
        <ele>584.4</ele>
        <time>2021-02-03T10:03:43.323Z</time>
      </trkpt>
      <trkpt lat="45.50097" lon="5.57008">
        <ele>584.96</ele>
        <time>2021-02-03T10:03:52.540Z</time>
      </trkpt>
      <trkpt lat="45.50094" lon="5.57008">
        <ele>584.6</ele>
        <time>2021-02-03T10:04:12.000Z</time>
      </trkpt>
      <trkpt lat="45.50093" lon="5.57006">
        <ele>584.77</ele>
        <time>2021-02-03T10:04:25.000Z</time>
      </trkpt>
      <trkpt lat="45.50091" lon="5.57001">
        <ele>585.12</ele>
        <time>2021-02-03T10:04:34.007Z</time>
      </trkpt>
      <trkpt lat="45.50084" lon="5.56995">
        <ele>584.8</ele>
        <time>2021-02-03T10:04:45.226Z</time>
      </trkpt>
      <trkpt lat="45.50075" lon="5.56991">
        <ele>584.89</ele>
        <time>2021-02-03T10:04:54.948Z</time>
      </trkpt>
      <trkpt lat="45.50068" lon="5.56983">
        <ele>584.57</ele>
        <time>2021-02-03T10:05:03.925Z</time>
      </trkpt>
      <trkpt lat="45.5006" lon="5.56974">
        <ele>584.31</ele>
        <time>2021-02-03T10:05:12.166Z</time>
      </trkpt>
      <trkpt lat="45.5005" lon="5.56969">
        <ele>584.08</ele>
        <time>2021-02-03T10:05:22.007Z</time>
      </trkpt>
      <trkpt lat="45.50041" lon="5.56965">
        <ele>584.24</ele>
        <time>2021-02-03T10:05:31.226Z</time>
      </trkpt>
      <trkpt lat="45.50032" lon="5.5696">
        <ele>584.36</ele>
        <time>2021-02-03T10:05:40.267Z</time>
      </trkpt>
      <trkpt lat="45.50026" lon="5.56958">
        <ele>584.27</ele>
        <time>2021-02-03T10:05:49.385Z</time>
      </trkpt>
      <trkpt lat="45.50018" lon="5.56949">
        <ele>584.11</ele>
        <time>2021-02-03T10:05:56.546Z</time>
      </trkpt>
      <trkpt lat="45.50009" lon="5.56946">
        <ele>584.69</ele>
        <time>2021-02-03T10:06:05.066Z</time>
      </trkpt>
      <trkpt lat="45.5" lon="5.56943">
        <ele>584.2</ele>
        <time>2021-02-03T10:06:14.664Z</time>
      </trkpt>
      <trkpt lat="45.49991" lon="5.56937">
        <ele>583.53</ele>
        <time>2021-02-03T10:06:23.384Z</time>
      </trkpt>
      <trkpt lat="45.49983" lon="5.56932">
        <ele>583.87</ele>
        <time>2021-02-03T10:06:32.621Z</time>
      </trkpt>
      <trkpt lat="45.49974" lon="5.56928">
        <ele>583.9</ele>
        <time>2021-02-03T10:06:40.203Z</time>
      </trkpt>
      <trkpt lat="45.49965" lon="5.56923">
        <ele>583.6</ele>
        <time>2021-02-03T10:06:49.660Z</time>
      </trkpt>
      <trkpt lat="45.49957" lon="5.5692">
        <ele>583.55</ele>
        <time>2021-02-03T10:06:59.481Z</time>
      </trkpt>
      <trkpt lat="45.49951" lon="5.5691">
        <ele>583.78</ele>
        <time>2021-02-03T10:07:08.279Z</time>
      </trkpt>
      <trkpt lat="45.49949" lon="5.5691">
        <ele>583.79</ele>
        <time>2021-02-03T10:07:20.682Z</time>
      </trkpt>
      <trkpt lat="45.49943" lon="5.56906">
        <ele>583.41</ele>
        <time>2021-02-03T10:07:30.618Z</time>
      </trkpt>
      <trkpt lat="45.49937" lon="5.56895">
        <ele>583.89</ele>
        <time>2021-02-03T10:07:39.509Z</time>
      </trkpt>
      <trkpt lat="45.49928" lon="5.56888">
        <ele>583.91</ele>
        <time>2021-02-03T10:07:48.453Z</time>
      </trkpt>
      <trkpt lat="45.49919" lon="5.56886">
        <ele>583.83</ele>
        <time>2021-02-03T10:07:57.999Z</time>
      </trkpt>
      <trkpt lat="45.49925" lon="5.56887">
        <ele>584.47</ele>
        <time>2021-02-03T10:08:25.999Z</time>
      </trkpt>
      <trkpt lat="45.49927" lon="5.56882">
        <ele>584.5</ele>
        <time>2021-02-03T10:08:35.969Z</time>
      </trkpt>
      <trkpt lat="45.49925" lon="5.56868">
        <ele>585.02</ele>
        <time>2021-02-03T10:08:45.069Z</time>
      </trkpt>
      <trkpt lat="45.49922" lon="5.56855">
        <ele>585.91</ele>
        <time>2021-02-03T10:08:55.489Z</time>
      </trkpt>
      <trkpt lat="45.49923" lon="5.56846">
        <ele>586.72</ele>
        <time>2021-02-03T10:09:21.999Z</time>
      </trkpt>
      <trkpt lat="45.49923" lon="5.56845">
        <ele>587.01</ele>
        <time>2021-02-03T10:09:36.226Z</time>
      </trkpt>
      <trkpt lat="45.49922" lon="5.5684">
        <ele>587.52</ele>
        <time>2021-02-03T10:09:45.287Z</time>
      </trkpt>
      <trkpt lat="45.49922" lon="5.56828">
        <ele>588.63</ele>
        <time>2021-02-03T10:09:54.667Z</time>
      </trkpt>
      <trkpt lat="45.49918" lon="5.56816">
        <ele>589.01</ele>
        <time>2021-02-03T10:10:04.827Z</time>
      </trkpt>
      <trkpt lat="45.49917" lon="5.56805">
        <ele>589.65</ele>
        <time>2021-02-03T10:10:14.167Z</time>
      </trkpt>
      <trkpt lat="45.49918" lon="5.56793">
        <ele>589.98</ele>
        <time>2021-02-03T10:10:23.405Z</time>
      </trkpt>
      <trkpt lat="45.49918" lon="5.56782">
        <ele>590.79</ele>
        <time>2021-02-03T10:10:32.866Z</time>
      </trkpt>
      <trkpt lat="45.49917" lon="5.56771">
        <ele>590.9</ele>
        <time>2021-02-03T10:10:42.166Z</time>
      </trkpt>
      <trkpt lat="45.49915" lon="5.5676">
        <ele>591.76</ele>
        <time>2021-02-03T10:10:51.584Z</time>
      </trkpt>
      <trkpt lat="45.49914" lon="5.56752">
        <ele>593.03</ele>
        <time>2021-02-03T10:11:01.366Z</time>
      </trkpt>
      <trkpt lat="45.49913" lon="5.56741">
        <ele>593.63</ele>
        <time>2021-02-03T10:11:11.105Z</time>
      </trkpt>
      <trkpt lat="45.49911" lon="5.5673">
        <ele>594.84</ele>
        <time>2021-02-03T10:11:21.502Z</time>
      </trkpt>
      <trkpt lat="45.4991" lon="5.56719">
        <ele>595.52</ele>
        <time>2021-02-03T10:11:31.643Z</time>
      </trkpt>
      <trkpt lat="45.49911" lon="5.56707">
        <ele>595.98</ele>
        <time>2021-02-03T10:11:41.565Z</time>
      </trkpt>
      <trkpt lat="45.49911" lon="5.56695">
        <ele>597.08</ele>
        <time>2021-02-03T10:11:51.543Z</time>
      </trkpt>
      <trkpt lat="45.49912" lon="5.56683">
        <ele>597.9</ele>
        <time>2021-02-03T10:12:02.262Z</time>
      </trkpt>
      <trkpt lat="45.49914" lon="5.56674">
        <ele>598.7</ele>
        <time>2021-02-03T10:12:11.479Z</time>
      </trkpt>
      <trkpt lat="45.49915" lon="5.56666">
        <ele>599.72</ele>
        <time>2021-02-03T10:12:21.121Z</time>
      </trkpt>
      <trkpt lat="45.49918" lon="5.56656">
        <ele>600.06</ele>
        <time>2021-02-03T10:12:30.199Z</time>
      </trkpt>
      <trkpt lat="45.49925" lon="5.56647">
        <ele>600.73</ele>
        <time>2021-02-03T10:12:40.519Z</time>
      </trkpt>
      <trkpt lat="45.49927" lon="5.56639">
        <ele>601.01</ele>
        <time>2021-02-03T10:12:50.206Z</time>
      </trkpt>
      <trkpt lat="45.49931" lon="5.56636">
        <ele>601.06</ele>
        <time>2021-02-03T10:12:59.604Z</time>
      </trkpt>
      <trkpt lat="45.49938" lon="5.56626">
        <ele>602.14</ele>
        <time>2021-02-03T10:13:08.404Z</time>
      </trkpt>
      <trkpt lat="45.49942" lon="5.56618">
        <ele>602.31</ele>
        <time>2021-02-03T10:13:17.606Z</time>
      </trkpt>
      <trkpt lat="45.49944" lon="5.56609">
        <ele>603.4</ele>
        <time>2021-02-03T10:13:28.584Z</time>
      </trkpt>
      <trkpt lat="45.49952" lon="5.566">
        <ele>604.29</ele>
        <time>2021-02-03T10:13:38.666Z</time>
      </trkpt>
      <trkpt lat="45.49958" lon="5.56591">
        <ele>604.55</ele>
        <time>2021-02-03T10:13:49.487Z</time>
      </trkpt>
      <trkpt lat="45.49963" lon="5.56587">
        <ele>604.83</ele>
        <time>2021-02-03T10:13:58.508Z</time>
      </trkpt>
      <trkpt lat="45.49969" lon="5.56576">
        <ele>605.25</ele>
        <time>2021-02-03T10:14:06.667Z</time>
      </trkpt>
      <trkpt lat="45.49977" lon="5.56566">
        <ele>605.75</ele>
        <time>2021-02-03T10:14:16.147Z</time>
      </trkpt>
      <trkpt lat="45.49982" lon="5.56561">
        <ele>607.1</ele>
        <time>2021-02-03T10:14:26.606Z</time>
      </trkpt>
      <trkpt lat="45.49986" lon="5.56555">
        <ele>608.32</ele>
        <time>2021-02-03T10:14:37.163Z</time>
      </trkpt>
      <trkpt lat="45.4999" lon="5.56548">
        <ele>609.36</ele>
        <time>2021-02-03T10:14:46.484Z</time>
      </trkpt>
      <trkpt lat="45.49996" lon="5.56535">
        <ele>610.11</ele>
        <time>2021-02-03T10:14:55.999Z</time>
      </trkpt>
      <trkpt lat="45.50002" lon="5.56532">
        <ele>609.8</ele>
        <time>2021-02-03T10:15:05.165Z</time>
      </trkpt>
      <trkpt lat="45.5001" lon="5.56526">
        <ele>610.29</ele>
        <time>2021-02-03T10:15:13.086Z</time>
      </trkpt>
      <trkpt lat="45.50019" lon="5.56521">
        <ele>610.62</ele>
        <time>2021-02-03T10:15:22.647Z</time>
      </trkpt>
      <trkpt lat="45.50025" lon="5.56516">
        <ele>610.86</ele>
        <time>2021-02-03T10:15:31.984Z</time>
      </trkpt>
      <trkpt lat="45.50032" lon="5.56513">
        <ele>611.06</ele>
        <time>2021-02-03T10:15:41.565Z</time>
      </trkpt>
      <trkpt lat="45.50037" lon="5.56511">
        <ele>611.68</ele>
        <time>2021-02-03T10:15:50.654Z</time>
      </trkpt>
      <trkpt lat="45.50044" lon="5.56508">
        <ele>612</ele>
        <time>2021-02-03T10:15:59.844Z</time>
      </trkpt>
      <trkpt lat="45.50052" lon="5.56508">
        <ele>612.7</ele>
        <time>2021-02-03T10:16:09.022Z</time>
      </trkpt>
      <trkpt lat="45.50057" lon="5.56511">
        <ele>613.06</ele>
        <time>2021-02-03T10:16:18.323Z</time>
      </trkpt>
      <trkpt lat="45.50064" lon="5.56515">
        <ele>613.78</ele>
        <time>2021-02-03T10:16:28.483Z</time>
      </trkpt>
      <trkpt lat="45.50072" lon="5.56517">
        <ele>614.63</ele>
        <time>2021-02-03T10:16:38.740Z</time>
      </trkpt>
      <trkpt lat="45.50079" lon="5.5652">
        <ele>615.3</ele>
        <time>2021-02-03T10:16:48.540Z</time>
      </trkpt>
      <trkpt lat="45.50085" lon="5.56524">
        <ele>615.51</ele>
        <time>2021-02-03T10:16:57.720Z</time>
      </trkpt>
      <trkpt lat="45.50093" lon="5.56517">
        <ele>615.76</ele>
        <time>2021-02-03T10:17:07.280Z</time>
      </trkpt>
      <trkpt lat="45.50101" lon="5.56515">
        <ele>614.89</ele>
        <time>2021-02-03T10:17:16.399Z</time>
      </trkpt>
      <trkpt lat="45.50108" lon="5.56508">
        <ele>614.64</ele>
        <time>2021-02-03T10:17:25.465Z</time>
      </trkpt>
      <trkpt lat="45.50117" lon="5.56502">
        <ele>614.9</ele>
        <time>2021-02-03T10:17:35.538Z</time>
      </trkpt>
      <trkpt lat="45.50123" lon="5.56492">
        <ele>614.9</ele>
        <time>2021-02-03T10:17:43.568Z</time>
      </trkpt>
      <trkpt lat="45.5012" lon="5.56482">
        <ele>615</ele>
        <time>2021-02-03T10:17:53.091Z</time>
      </trkpt>
      <trkpt lat="45.50129" lon="5.56484">
        <ele>615.56</ele>
        <time>2021-02-03T10:17:59.180Z</time>
      </trkpt>
      <trkpt lat="45.50138" lon="5.56485">
        <ele>615.94</ele>
        <time>2021-02-03T10:18:03.559Z</time>
      </trkpt>
      <trkpt lat="45.50146" lon="5.56479">
        <ele>615.53</ele>
        <time>2021-02-03T10:18:10.549Z</time>
      </trkpt>
      <trkpt lat="45.50155" lon="5.56482">
        <ele>615.04</ele>
        <time>2021-02-03T10:18:20.789Z</time>
      </trkpt>
      <trkpt lat="45.50164" lon="5.56481">
        <ele>614.13</ele>
        <time>2021-02-03T10:18:30.027Z</time>
      </trkpt>
      <trkpt lat="45.5017" lon="5.5647">
        <ele>613.54</ele>
        <time>2021-02-03T10:18:36.464Z</time>
      </trkpt>
      <trkpt lat="45.50171" lon="5.56457">
        <ele>612.62</ele>
        <time>2021-02-03T10:18:43.946Z</time>
      </trkpt>
      <trkpt lat="45.50175" lon="5.56443">
        <ele>611.84</ele>
        <time>2021-02-03T10:18:53.225Z</time>
      </trkpt>
      <trkpt lat="45.50176" lon="5.56431">
        <ele>611.28</ele>
        <time>2021-02-03T10:19:03.245Z</time>
      </trkpt>
      <trkpt lat="45.50179" lon="5.56419">
        <ele>610.94</ele>
        <time>2021-02-03T10:19:13.405Z</time>
      </trkpt>
      <trkpt lat="45.50184" lon="5.56408">
        <ele>610.57</ele>
        <time>2021-02-03T10:19:22.544Z</time>
      </trkpt>
      <trkpt lat="45.5019" lon="5.56399">
        <ele>610.28</ele>
        <time>2021-02-03T10:19:31.662Z</time>
      </trkpt>
      <trkpt lat="45.50197" lon="5.56391">
        <ele>610.03</ele>
        <time>2021-02-03T10:19:39.066Z</time>
      </trkpt>
      <trkpt lat="45.50203" lon="5.56381">
        <ele>609.79</ele>
        <time>2021-02-03T10:19:48.454Z</time>
      </trkpt>
      <trkpt lat="45.50206" lon="5.5637">
        <ele>609.17</ele>
        <time>2021-02-03T10:19:57.883Z</time>
      </trkpt>
      <trkpt lat="45.50206" lon="5.56356">
        <ele>609.12</ele>
        <time>2021-02-03T10:20:05.600Z</time>
      </trkpt>
      <trkpt lat="45.50208" lon="5.56344">
        <ele>608.96</ele>
        <time>2021-02-03T10:20:14.844Z</time>
      </trkpt>
      <trkpt lat="45.50213" lon="5.56331">
        <ele>608.51</ele>
        <time>2021-02-03T10:20:25.224Z</time>
      </trkpt>
      <trkpt lat="45.50216" lon="5.56315">
        <ele>608.77</ele>
        <time>2021-02-03T10:20:34.999Z</time>
      </trkpt>
      <trkpt lat="45.50217" lon="5.56301">
        <ele>609.06</ele>
        <time>2021-02-03T10:20:44.411Z</time>
      </trkpt>
      <trkpt lat="45.50216" lon="5.56288">
        <ele>609.38</ele>
        <time>2021-02-03T10:20:50.492Z</time>
      </trkpt>
      <trkpt lat="45.50221" lon="5.56278">
        <ele>609.51</ele>
        <time>2021-02-03T10:20:59.999Z</time>
      </trkpt>
      <trkpt lat="45.50223" lon="5.56276">
        <ele>609.59</ele>
        <time>2021-02-03T10:21:09.999Z</time>
      </trkpt>
      <trkpt lat="45.50222" lon="5.56277">
        <ele>608.75</ele>
        <time>2021-02-03T10:22:41.999Z</time>
      </trkpt>
      <trkpt lat="45.50226" lon="5.56266">
        <ele>608.71</ele>
        <time>2021-02-03T10:22:51.292Z</time>
      </trkpt>
      <trkpt lat="45.50226" lon="5.56249">
        <ele>608.87</ele>
        <time>2021-02-03T10:23:01.999Z</time>
      </trkpt>
      <trkpt lat="45.50226" lon="5.56236">
        <ele>608.25</ele>
        <time>2021-02-03T10:23:08.770Z</time>
      </trkpt>
      <trkpt lat="45.50229" lon="5.56223">
        <ele>607.93</ele>
        <time>2021-02-03T10:23:17.999Z</time>
      </trkpt>
      <trkpt lat="45.50233" lon="5.56211">
        <ele>607.66</ele>
        <time>2021-02-03T10:23:26.950Z</time>
      </trkpt>
      <trkpt lat="45.50235" lon="5.56201">
        <ele>607.51</ele>
        <time>2021-02-03T10:23:35.999Z</time>
      </trkpt>
      <trkpt lat="45.50235" lon="5.56188">
        <ele>607.74</ele>
        <time>2021-02-03T10:23:43.669Z</time>
      </trkpt>
      <trkpt lat="45.50235" lon="5.56175">
        <ele>608.26</ele>
        <time>2021-02-03T10:23:52.999Z</time>
      </trkpt>
      <trkpt lat="45.50239" lon="5.56162">
        <ele>608.42</ele>
        <time>2021-02-03T10:24:02.407Z</time>
      </trkpt>
      <trkpt lat="45.50237" lon="5.5615">
        <ele>609.03</ele>
        <time>2021-02-03T10:24:12.999Z</time>
      </trkpt>
      <trkpt lat="45.50236" lon="5.56145">
        <ele>609.45</ele>
        <time>2021-02-03T10:24:22.647Z</time>
      </trkpt>
      <trkpt lat="45.50231" lon="5.56133">
        <ele>610.41</ele>
        <time>2021-02-03T10:24:30.328Z</time>
      </trkpt>
      <trkpt lat="45.50228" lon="5.56121">
        <ele>610.63</ele>
        <time>2021-02-03T10:24:39.999Z</time>
      </trkpt>
      <trkpt lat="45.50223" lon="5.56109">
        <ele>611.23</ele>
        <time>2021-02-03T10:24:48.368Z</time>
      </trkpt>
      <trkpt lat="45.50221" lon="5.561">
        <ele>612.11</ele>
        <time>2021-02-03T10:24:57.999Z</time>
      </trkpt>
      <trkpt lat="45.50215" lon="5.56089">
        <ele>613.25</ele>
        <time>2021-02-03T10:25:07.527Z</time>
      </trkpt>
      <trkpt lat="45.50212" lon="5.56082">
        <ele>614.16</ele>
        <time>2021-02-03T10:25:16.999Z</time>
      </trkpt>
      <trkpt lat="45.50212" lon="5.5607">
        <ele>615.05</ele>
        <time>2021-02-03T10:25:26.198Z</time>
      </trkpt>
      <trkpt lat="45.50215" lon="5.56064">
        <ele>616.36</ele>
        <time>2021-02-03T10:25:35.999Z</time>
      </trkpt>
      <trkpt lat="45.50212" lon="5.56053">
        <ele>617.59</ele>
        <time>2021-02-03T10:25:45.999Z</time>
      </trkpt>
      <trkpt lat="45.50209" lon="5.56044">
        <ele>618.24</ele>
        <time>2021-02-03T10:25:55.999Z</time>
      </trkpt>
      <trkpt lat="45.5021" lon="5.56036">
        <ele>619.04</ele>
        <time>2021-02-03T10:26:05.675Z</time>
      </trkpt>
      <trkpt lat="45.50211" lon="5.56032">
        <ele>619.37</ele>
        <time>2021-02-03T10:26:15.999Z</time>
      </trkpt>
      <trkpt lat="45.50214" lon="5.56022">
        <ele>620.35</ele>
        <time>2021-02-03T10:26:25.376Z</time>
      </trkpt>
      <trkpt lat="45.50217" lon="5.56012">
        <ele>620.44</ele>
        <time>2021-02-03T10:26:34.999Z</time>
      </trkpt>
      <trkpt lat="45.50218" lon="5.55999">
        <ele>620.63</ele>
        <time>2021-02-03T10:26:45.999Z</time>
      </trkpt>
      <trkpt lat="45.50216" lon="5.55991">
        <ele>621.11</ele>
        <time>2021-02-03T10:26:55.999Z</time>
      </trkpt>
      <trkpt lat="45.50218" lon="5.55977">
        <ele>620.57</ele>
        <time>2021-02-03T10:27:04.638Z</time>
      </trkpt>
      <trkpt lat="45.50221" lon="5.55965">
        <ele>620.36</ele>
        <time>2021-02-03T10:27:11.876Z</time>
      </trkpt>
      <trkpt lat="45.50224" lon="5.55956">
        <ele>619.95</ele>
        <time>2021-02-03T10:27:25.847Z</time>
      </trkpt>
      <trkpt lat="45.50229" lon="5.55945">
        <ele>619.42</ele>
        <time>2021-02-03T10:27:32.999Z</time>
      </trkpt>
      <trkpt lat="45.50236" lon="5.55935">
        <ele>619.35</ele>
        <time>2021-02-03T10:27:40.999Z</time>
      </trkpt>
      <trkpt lat="45.50238" lon="5.5592">
        <ele>619.96</ele>
        <time>2021-02-03T10:28:25.248Z</time>
      </trkpt>
      <trkpt lat="45.50243" lon="5.55905">
        <ele>620.4</ele>
        <time>2021-02-03T10:28:32.629Z</time>
      </trkpt>
      <trkpt lat="45.50248" lon="5.55894">
        <ele>619.79</ele>
        <time>2021-02-03T10:28:38.907Z</time>
      </trkpt>
      <trkpt lat="45.50251" lon="5.55881">
        <ele>619.73</ele>
        <time>2021-02-03T10:28:46.369Z</time>
      </trkpt>
      <trkpt lat="45.50252" lon="5.55872">
        <ele>619.23</ele>
        <time>2021-02-03T10:28:55.387Z</time>
      </trkpt>
      <trkpt lat="45.50251" lon="5.55864">
        <ele>618.77</ele>
        <time>2021-02-03T10:29:04.999Z</time>
      </trkpt>
      <trkpt lat="45.50252" lon="5.55851">
        <ele>618.49</ele>
        <time>2021-02-03T10:29:10.440Z</time>
      </trkpt>
      <trkpt lat="45.50252" lon="5.55837">
        <ele>618.09</ele>
        <time>2021-02-03T10:29:16.218Z</time>
      </trkpt>
      <trkpt lat="45.50254" lon="5.55824">
        <ele>617.77</ele>
        <time>2021-02-03T10:29:25.999Z</time>
      </trkpt>
      <trkpt lat="45.50253" lon="5.55809">
        <ele>617.26</ele>
        <time>2021-02-03T10:29:35.255Z</time>
      </trkpt>
      <trkpt lat="45.50254" lon="5.55796">
        <ele>616.83</ele>
        <time>2021-02-03T10:29:44.999Z</time>
      </trkpt>
      <trkpt lat="45.50254" lon="5.55781">
        <ele>616.52</ele>
        <time>2021-02-03T10:29:52.919Z</time>
      </trkpt>
      <trkpt lat="45.50252" lon="5.55767">
        <ele>616.18</ele>
        <time>2021-02-03T10:30:01.517Z</time>
      </trkpt>
      <trkpt lat="45.50248" lon="5.55753">
        <ele>615.96</ele>
        <time>2021-02-03T10:30:10.999Z</time>
      </trkpt>
      <trkpt lat="45.50243" lon="5.55741">
        <ele>616.25</ele>
        <time>2021-02-03T10:30:17.876Z</time>
      </trkpt>
      <trkpt lat="45.50238" lon="5.55729">
        <ele>616.1</ele>
        <time>2021-02-03T10:30:26.817Z</time>
      </trkpt>
      <trkpt lat="45.50237" lon="5.55728">
        <ele>615.8</ele>
        <time>2021-02-03T10:30:35.999Z</time>
      </trkpt>
      <trkpt lat="45.50232" lon="5.55716">
        <ele>615.89</ele>
        <time>2021-02-03T10:30:43.774Z</time>
      </trkpt>
      <trkpt lat="45.50228" lon="5.55706">
        <ele>615.5</ele>
        <time>2021-02-03T10:30:52.999Z</time>
      </trkpt>
      <trkpt lat="45.50226" lon="5.55695">
        <ele>614.61</ele>
        <time>2021-02-03T10:31:02.999Z</time>
      </trkpt>
      <trkpt lat="45.50225" lon="5.55687">
        <ele>613.92</ele>
        <time>2021-02-03T10:31:12.999Z</time>
      </trkpt>
      <trkpt lat="45.50223" lon="5.55672">
        <ele>613.49</ele>
        <time>2021-02-03T10:31:24.999Z</time>
      </trkpt>
      <trkpt lat="45.50221" lon="5.55661">
        <ele>613</ele>
        <time>2021-02-03T10:31:34.999Z</time>
      </trkpt>
      <trkpt lat="45.50218" lon="5.55649">
        <ele>612.43</ele>
        <time>2021-02-03T10:31:44.378Z</time>
      </trkpt>
      <trkpt lat="45.50216" lon="5.55637">
        <ele>612</ele>
        <time>2021-02-03T10:31:53.999Z</time>
      </trkpt>
      <trkpt lat="45.50216" lon="5.55625">
        <ele>611.37</ele>
        <time>2021-02-03T10:32:03.999Z</time>
      </trkpt>
      <trkpt lat="45.50213" lon="5.55613">
        <ele>611.23</ele>
        <time>2021-02-03T10:32:12.295Z</time>
      </trkpt>
      <trkpt lat="45.50211" lon="5.55605">
        <ele>610.89</ele>
        <time>2021-02-03T10:32:21.999Z</time>
      </trkpt>
      <trkpt lat="45.50208" lon="5.55595">
        <ele>610.77</ele>
        <time>2021-02-03T10:32:31.999Z</time>
      </trkpt>
      <trkpt lat="45.50205" lon="5.55583">
        <ele>610.81</ele>
        <time>2021-02-03T10:32:41.999Z</time>
      </trkpt>
      <trkpt lat="45.50203" lon="5.55572">
        <ele>610.69</ele>
        <time>2021-02-03T10:32:51.999Z</time>
      </trkpt>
      <trkpt lat="45.50202" lon="5.55562">
        <ele>610.25</ele>
        <time>2021-02-03T10:33:02.999Z</time>
      </trkpt>
      <trkpt lat="45.502" lon="5.55559">
        <ele>609.8</ele>
        <time>2021-02-03T10:33:12.999Z</time>
      </trkpt>
      <trkpt lat="45.50196" lon="5.55548">
        <ele>609.84</ele>
        <time>2021-02-03T10:33:32.999Z</time>
      </trkpt>
      <trkpt lat="45.50194" lon="5.55533">
        <ele>609.57</ele>
        <time>2021-02-03T10:33:41.337Z</time>
      </trkpt>
      <trkpt lat="45.50191" lon="5.55523">
        <ele>609.47</ele>
        <time>2021-02-03T10:33:50.999Z</time>
      </trkpt>
      <trkpt lat="45.50188" lon="5.55515">
        <ele>609.7</ele>
        <time>2021-02-03T10:34:00.999Z</time>
      </trkpt>
      <trkpt lat="45.50187" lon="5.5551">
        <ele>609.55</ele>
        <time>2021-02-03T10:34:10.999Z</time>
      </trkpt>
      <trkpt lat="45.50183" lon="5.55496">
        <ele>609.45</ele>
        <time>2021-02-03T10:34:18.755Z</time>
      </trkpt>
      <trkpt lat="45.50182" lon="5.55493">
        <ele>609.46</ele>
        <time>2021-02-03T10:34:27.999Z</time>
      </trkpt>
      <trkpt lat="45.5018" lon="5.55492">
        <ele>609.1</ele>
        <time>2021-02-03T10:34:40.000Z</time>
      </trkpt>
      <trkpt lat="45.50181" lon="5.55494">
        <ele>609.83</ele>
        <time>2021-02-03T10:34:53.000Z</time>
      </trkpt>
      <trkpt lat="45.50181" lon="5.55495">
        <ele>609.89</ele>
        <time>2021-02-03T10:35:38.494Z</time>
      </trkpt>
      <trkpt lat="45.50178" lon="5.55482">
        <ele>609.86</ele>
        <time>2021-02-03T10:35:46.452Z</time>
      </trkpt>
      <trkpt lat="45.50175" lon="5.55469">
        <ele>609.66</ele>
        <time>2021-02-03T10:35:54.812Z</time>
      </trkpt>
      <trkpt lat="45.50171" lon="5.55455">
        <ele>610.09</ele>
        <time>2021-02-03T10:36:03.290Z</time>
      </trkpt>
      <trkpt lat="45.50167" lon="5.55442">
        <ele>609.25</ele>
        <time>2021-02-03T10:36:12.810Z</time>
      </trkpt>
      <trkpt lat="45.50167" lon="5.55436">
        <ele>609.42</ele>
        <time>2021-02-03T10:36:22.000Z</time>
      </trkpt>
      <trkpt lat="45.50166" lon="5.55439">
        <ele>609.03</ele>
        <time>2021-02-03T10:36:36.000Z</time>
      </trkpt>
      <trkpt lat="45.5016" lon="5.55446">
        <ele>609.63</ele>
        <time>2021-02-03T10:36:45.950Z</time>
      </trkpt>
      <trkpt lat="45.50152" lon="5.55451">
        <ele>610.29</ele>
        <time>2021-02-03T10:36:56.000Z</time>
      </trkpt>
      <trkpt lat="45.50145" lon="5.55459">
        <ele>611.37</ele>
        <time>2021-02-03T10:37:06.000Z</time>
      </trkpt>
      <trkpt lat="45.50137" lon="5.55465">
        <ele>611.79</ele>
        <time>2021-02-03T10:37:17.000Z</time>
      </trkpt>
      <trkpt lat="45.5013" lon="5.55473">
        <ele>613.2</ele>
        <time>2021-02-03T10:37:26.337Z</time>
      </trkpt>
      <trkpt lat="45.50124" lon="5.55479">
        <ele>614.12</ele>
        <time>2021-02-03T10:37:35.497Z</time>
      </trkpt>
      <trkpt lat="45.50118" lon="5.55483">
        <ele>615.37</ele>
        <time>2021-02-03T10:37:44.837Z</time>
      </trkpt>
      <trkpt lat="45.50112" lon="5.55487">
        <ele>616.36</ele>
        <time>2021-02-03T10:37:54.000Z</time>
      </trkpt>
      <trkpt lat="45.50104" lon="5.55493">
        <ele>617.59</ele>
        <time>2021-02-03T10:38:03.516Z</time>
      </trkpt>
      <trkpt lat="45.50099" lon="5.55499">
        <ele>618.88</ele>
        <time>2021-02-03T10:38:13.000Z</time>
      </trkpt>
      <trkpt lat="45.50093" lon="5.55507">
        <ele>619.49</ele>
        <time>2021-02-03T10:38:23.000Z</time>
      </trkpt>
      <trkpt lat="45.5009" lon="5.55511">
        <ele>619.81</ele>
        <time>2021-02-03T10:38:32.835Z</time>
      </trkpt>
      <trkpt lat="45.50083" lon="5.55515">
        <ele>620.64</ele>
        <time>2021-02-03T10:38:42.000Z</time>
      </trkpt>
      <trkpt lat="45.50076" lon="5.55519">
        <ele>622.21</ele>
        <time>2021-02-03T10:38:51.353Z</time>
      </trkpt>
      <trkpt lat="45.50072" lon="5.55524">
        <ele>623.27</ele>
        <time>2021-02-03T10:39:00.832Z</time>
      </trkpt>
      <trkpt lat="45.50066" lon="5.55528">
        <ele>623.54</ele>
        <time>2021-02-03T10:39:10.000Z</time>
      </trkpt>
      <trkpt lat="45.5006" lon="5.55535">
        <ele>625.11</ele>
        <time>2021-02-03T10:39:19.412Z</time>
      </trkpt>
      <trkpt lat="45.50053" lon="5.55542">
        <ele>624.79</ele>
        <time>2021-02-03T10:39:28.653Z</time>
      </trkpt>
      <trkpt lat="45.50045" lon="5.55548">
        <ele>624.61</ele>
        <time>2021-02-03T10:39:38.000Z</time>
      </trkpt>
      <trkpt lat="45.50039" lon="5.5556">
        <ele>624.59</ele>
        <time>2021-02-03T10:39:47.532Z</time>
      </trkpt>
      <trkpt lat="45.50038" lon="5.55574">
        <ele>624.39</ele>
        <time>2021-02-03T10:39:55.592Z</time>
      </trkpt>
      <trkpt lat="45.50034" lon="5.55583">
        <ele>624.92</ele>
        <time>2021-02-03T10:40:06.000Z</time>
      </trkpt>
      <trkpt lat="45.50027" lon="5.55583">
        <ele>624.98</ele>
        <time>2021-02-03T10:40:16.000Z</time>
      </trkpt>
      <trkpt lat="45.50019" lon="5.55584">
        <ele>625.1</ele>
        <time>2021-02-03T10:40:25.717Z</time>
      </trkpt>
      <trkpt lat="45.50014" lon="5.55583">
        <ele>625.67</ele>
        <time>2021-02-03T10:40:35.000Z</time>
      </trkpt>
      <trkpt lat="45.50008" lon="5.55583">
        <ele>625.87</ele>
        <time>2021-02-03T10:40:45.000Z</time>
      </trkpt>
      <trkpt lat="45.50002" lon="5.55578">
        <ele>626.71</ele>
        <time>2021-02-03T10:41:00.000Z</time>
      </trkpt>
      <trkpt lat="45.49994" lon="5.55571">
        <ele>627.32</ele>
        <time>2021-02-03T10:41:06.213Z</time>
      </trkpt>
      <trkpt lat="45.49983" lon="5.55567">
        <ele>628</ele>
        <time>2021-02-03T10:41:13.614Z</time>
      </trkpt>
      <trkpt lat="45.49975" lon="5.55559">
        <ele>628.21</ele>
        <time>2021-02-03T10:41:21.872Z</time>
      </trkpt>
      <trkpt lat="45.49968" lon="5.55556">
        <ele>628.66</ele>
        <time>2021-02-03T10:41:31.000Z</time>
      </trkpt>
      <trkpt lat="45.49959" lon="5.55556">
        <ele>628.93</ele>
        <time>2021-02-03T10:41:40.000Z</time>
      </trkpt>
      <trkpt lat="45.49949" lon="5.55557">
        <ele>629.76</ele>
        <time>2021-02-03T10:41:48.469Z</time>
      </trkpt>
      <trkpt lat="45.4994" lon="5.55556">
        <ele>629.42</ele>
        <time>2021-02-03T10:41:58.000Z</time>
      </trkpt>
      <trkpt lat="45.49932" lon="5.55557">
        <ele>629.91</ele>
        <time>2021-02-03T10:42:08.000Z</time>
      </trkpt>
      <trkpt lat="45.49923" lon="5.55562">
        <ele>630.27</ele>
        <time>2021-02-03T10:42:18.000Z</time>
      </trkpt>
      <trkpt lat="45.49915" lon="5.55566">
        <ele>630.18</ele>
        <time>2021-02-03T10:42:26.000Z</time>
      </trkpt>
      <trkpt lat="45.49908" lon="5.55567">
        <ele>629.65</ele>
        <time>2021-02-03T10:42:36.000Z</time>
      </trkpt>
      <trkpt lat="45.499" lon="5.55568">
        <ele>630.04</ele>
        <time>2021-02-03T10:42:45.628Z</time>
      </trkpt>
      <trkpt lat="45.49896" lon="5.55566">
        <ele>630.35</ele>
        <time>2021-02-03T10:42:56.000Z</time>
      </trkpt>
      <trkpt lat="45.49888" lon="5.55559">
        <ele>629.61</ele>
        <time>2021-02-03T10:43:06.000Z</time>
      </trkpt>
      <trkpt lat="45.49884" lon="5.55554">
        <ele>629.59</ele>
        <time>2021-02-03T10:43:16.000Z</time>
      </trkpt>
      <trkpt lat="45.49887" lon="5.55551">
        <ele>629.51</ele>
        <time>2021-02-03T10:43:31.000Z</time>
      </trkpt>
      <trkpt lat="45.49884" lon="5.55539">
        <ele>629.13</ele>
        <time>2021-02-03T10:43:36.229Z</time>
      </trkpt>
      <trkpt lat="45.49876" lon="5.55517">
        <ele>628.34</ele>
        <time>2021-02-03T10:44:13.408Z</time>
      </trkpt>
      <trkpt lat="45.49872" lon="5.55504">
        <ele>628.01</ele>
        <time>2021-02-03T10:44:24.000Z</time>
      </trkpt>
      <trkpt lat="45.49868" lon="5.55491">
        <ele>627.98</ele>
        <time>2021-02-03T10:44:31.000Z</time>
      </trkpt>
      <trkpt lat="45.49862" lon="5.55481">
        <ele>627.75</ele>
        <time>2021-02-03T10:44:35.000Z</time>
      </trkpt>
      <trkpt lat="45.49858" lon="5.55469">
        <ele>627.49</ele>
        <time>2021-02-03T10:44:40.000Z</time>
      </trkpt>
      <trkpt lat="45.49857" lon="5.55455">
        <ele>627.62</ele>
        <time>2021-02-03T10:44:46.000Z</time>
      </trkpt>
      <trkpt lat="45.49854" lon="5.55442">
        <ele>627</ele>
        <time>2021-02-03T10:44:51.515Z</time>
      </trkpt>
      <trkpt lat="45.49847" lon="5.55432">
        <ele>627.19</ele>
        <time>2021-02-03T10:45:00.000Z</time>
      </trkpt>
      <trkpt lat="45.49844" lon="5.55427">
        <ele>627.21</ele>
        <time>2021-02-03T10:45:10.000Z</time>
      </trkpt>
      <trkpt lat="45.4984" lon="5.55424">
        <ele>626.85</ele>
        <time>2021-02-03T10:45:22.776Z</time>
      </trkpt>
      <trkpt lat="45.49836" lon="5.55416">
        <ele>627.17</ele>
        <time>2021-02-03T10:45:32.000Z</time>
      </trkpt>
      <trkpt lat="45.49831" lon="5.55404">
        <ele>627.08</ele>
        <time>2021-02-03T10:45:37.374Z</time>
      </trkpt>
      <trkpt lat="45.49822" lon="5.55397">
        <ele>626.95</ele>
        <time>2021-02-03T10:45:46.000Z</time>
      </trkpt>
      <trkpt lat="45.49815" lon="5.55389">
        <ele>626.71</ele>
        <time>2021-02-03T10:45:52.633Z</time>
      </trkpt>
      <trkpt lat="45.49807" lon="5.55379">
        <ele>626.66</ele>
        <time>2021-02-03T10:45:59.813Z</time>
      </trkpt>
      <trkpt lat="45.49799" lon="5.55372">
        <ele>626.77</ele>
        <time>2021-02-03T10:46:10.000Z</time>
      </trkpt>
      <trkpt lat="45.49795" lon="5.55375">
        <ele>627.08</ele>
        <time>2021-02-03T10:46:31.000Z</time>
      </trkpt>
      <trkpt lat="45.49796" lon="5.55376">
        <ele>626.54</ele>
        <time>2021-02-03T10:47:47.000Z</time>
      </trkpt>
      <trkpt lat="45.49792" lon="5.5537">
        <ele>625.96</ele>
        <time>2021-02-03T10:47:57.000Z</time>
      </trkpt>
      <trkpt lat="45.49785" lon="5.5536">
        <ele>625.72</ele>
        <time>2021-02-03T10:48:06.000Z</time>
      </trkpt>
      <trkpt lat="45.49779" lon="5.5535">
        <ele>625.26</ele>
        <time>2021-02-03T10:48:16.000Z</time>
      </trkpt>
      <trkpt lat="45.49774" lon="5.55342">
        <ele>624.33</ele>
        <time>2021-02-03T10:48:33.000Z</time>
      </trkpt>
      <trkpt lat="45.49769" lon="5.5533">
        <ele>623.43</ele>
        <time>2021-02-03T10:48:39.593Z</time>
      </trkpt>
      <trkpt lat="45.49765" lon="5.55318">
        <ele>622.93</ele>
        <time>2021-02-03T10:48:45.852Z</time>
      </trkpt>
      <trkpt lat="45.49759" lon="5.55307">
        <ele>622.77</ele>
        <time>2021-02-03T10:48:52.453Z</time>
      </trkpt>
      <trkpt lat="45.49753" lon="5.55298">
        <ele>622.38</ele>
        <time>2021-02-03T10:49:00.512Z</time>
      </trkpt>
      <trkpt lat="45.49744" lon="5.55291">
        <ele>622.04</ele>
        <time>2021-02-03T10:49:08.612Z</time>
      </trkpt>
      <trkpt lat="45.49736" lon="5.55282">
        <ele>621.24</ele>
        <time>2021-02-03T10:49:31.000Z</time>
      </trkpt>
      <trkpt lat="45.49727" lon="5.55275">
        <ele>621.49</ele>
        <time>2021-02-03T10:49:34.769Z</time>
      </trkpt>
      <trkpt lat="45.4972" lon="5.55267">
        <ele>621.05</ele>
        <time>2021-02-03T10:49:38.672Z</time>
      </trkpt>
      <trkpt lat="45.4971" lon="5.55259">
        <ele>620.74</ele>
        <time>2021-02-03T10:49:45.372Z</time>
      </trkpt>
      <trkpt lat="45.49701" lon="5.55253">
        <ele>620.73</ele>
        <time>2021-02-03T10:49:51.311Z</time>
      </trkpt>
      <trkpt lat="45.49695" lon="5.55243">
        <ele>620.64</ele>
        <time>2021-02-03T10:50:00.750Z</time>
      </trkpt>
      <trkpt lat="45.49692" lon="5.55238">
        <ele>620.34</ele>
        <time>2021-02-03T10:50:10.000Z</time>
      </trkpt>
      <trkpt lat="45.49688" lon="5.55233">
        <ele>620.18</ele>
        <time>2021-02-03T10:50:24.000Z</time>
      </trkpt>
      <trkpt lat="45.4968" lon="5.55224">
        <ele>620.24</ele>
        <time>2021-02-03T10:50:27.918Z</time>
      </trkpt>
      <trkpt lat="45.49672" lon="5.55215">
        <ele>620.16</ele>
        <time>2021-02-03T10:50:33.498Z</time>
      </trkpt>
      <trkpt lat="45.49664" lon="5.55211">
        <ele>620.52</ele>
        <time>2021-02-03T10:50:39.517Z</time>
      </trkpt>
      <trkpt lat="45.49656" lon="5.55203">
        <ele>620.66</ele>
        <time>2021-02-03T10:50:45.595Z</time>
      </trkpt>
      <trkpt lat="45.49649" lon="5.55196">
        <ele>620.76</ele>
        <time>2021-02-03T10:50:54.675Z</time>
      </trkpt>
      <trkpt lat="45.49644" lon="5.55184">
        <ele>620.88</ele>
        <time>2021-02-03T10:51:03.873Z</time>
      </trkpt>
      <trkpt lat="45.49638" lon="5.55173">
        <ele>620.91</ele>
        <time>2021-02-03T10:51:14.000Z</time>
      </trkpt>
      <trkpt lat="45.49631" lon="5.55162">
        <ele>621.25</ele>
        <time>2021-02-03T10:51:22.792Z</time>
      </trkpt>
      <trkpt lat="45.4963" lon="5.55155">
        <ele>621.32</ele>
        <time>2021-02-03T10:51:32.000Z</time>
      </trkpt>
      <trkpt lat="45.49629" lon="5.55156">
        <ele>621.44</ele>
        <time>2021-02-03T10:51:42.000Z</time>
      </trkpt>
      <trkpt lat="45.49628" lon="5.55152">
        <ele>621.72</ele>
        <time>2021-02-03T10:52:03.635Z</time>
      </trkpt>
      <trkpt lat="45.49623" lon="5.55143">
        <ele>622.07</ele>
        <time>2021-02-03T10:52:13.000Z</time>
      </trkpt>
      <trkpt lat="45.49618" lon="5.55131">
        <ele>622.55</ele>
        <time>2021-02-03T10:52:21.410Z</time>
      </trkpt>
      <trkpt lat="45.49609" lon="5.55127">
        <ele>623.29</ele>
        <time>2021-02-03T10:52:29.670Z</time>
      </trkpt>
      <trkpt lat="45.496" lon="5.55122">
        <ele>624.51</ele>
        <time>2021-02-03T10:52:38.349Z</time>
      </trkpt>
      <trkpt lat="45.49592" lon="5.55119">
        <ele>625.25</ele>
        <time>2021-02-03T10:52:48.000Z</time>
      </trkpt>
      <trkpt lat="45.49583" lon="5.55116">
        <ele>625.78</ele>
        <time>2021-02-03T10:52:58.000Z</time>
      </trkpt>
      <trkpt lat="45.49586" lon="5.55113">
        <ele>626.51</ele>
        <time>2021-02-03T10:53:12.474Z</time>
      </trkpt>
      <trkpt lat="45.4958" lon="5.55103">
        <ele>627.33</ele>
        <time>2021-02-03T10:53:18.852Z</time>
      </trkpt>
      <trkpt lat="45.49574" lon="5.55093">
        <ele>627.81</ele>
        <time>2021-02-03T10:53:29.000Z</time>
      </trkpt>
      <trkpt lat="45.49573" lon="5.55082">
        <ele>629.34</ele>
        <time>2021-02-03T10:53:39.000Z</time>
      </trkpt>
      <trkpt lat="45.49568" lon="5.55071">
        <ele>630.09</ele>
        <time>2021-02-03T10:53:46.911Z</time>
      </trkpt>
      <trkpt lat="45.49562" lon="5.55061">
        <ele>630.76</ele>
        <time>2021-02-03T10:53:54.771Z</time>
      </trkpt>
      <trkpt lat="45.49559" lon="5.5505">
        <ele>630.77</ele>
        <time>2021-02-03T10:54:04.431Z</time>
      </trkpt>
      <trkpt lat="45.49555" lon="5.55036">
        <ele>630.58</ele>
        <time>2021-02-03T10:54:13.630Z</time>
      </trkpt>
      <trkpt lat="45.49553" lon="5.55028">
        <ele>629.39</ele>
        <time>2021-02-03T10:54:23.000Z</time>
      </trkpt>
      <trkpt lat="45.49548" lon="5.55018">
        <ele>628.56</ele>
        <time>2021-02-03T10:54:33.000Z</time>
      </trkpt>
      <trkpt lat="45.49545" lon="5.55006">
        <ele>627.07</ele>
        <time>2021-02-03T10:54:42.255Z</time>
      </trkpt>
      <trkpt lat="45.49542" lon="5.54997">
        <ele>625.87</ele>
        <time>2021-02-03T10:54:53.000Z</time>
      </trkpt>
      <trkpt lat="45.49537" lon="5.54989">
        <ele>625.03</ele>
        <time>2021-02-03T10:55:03.000Z</time>
      </trkpt>
      <trkpt lat="45.49538" lon="5.54975">
        <ele>624.19</ele>
        <time>2021-02-03T10:55:12.000Z</time>
      </trkpt>
      <trkpt lat="45.49531" lon="5.54972">
        <ele>623.39</ele>
        <time>2021-02-03T10:55:22.000Z</time>
      </trkpt>
      <trkpt lat="45.49535" lon="5.54972">
        <ele>623.19</ele>
        <time>2021-02-03T10:59:32.000Z</time>
      </trkpt>
      <trkpt lat="45.49527" lon="5.54979">
        <ele>623.35</ele>
        <time>2021-02-03T10:59:40.532Z</time>
      </trkpt>
      <trkpt lat="45.4952" lon="5.54987">
        <ele>623.5</ele>
        <time>2021-02-03T10:59:47.000Z</time>
      </trkpt>
      <trkpt lat="45.49511" lon="5.54994">
        <ele>623.59</ele>
        <time>2021-02-03T10:59:52.653Z</time>
      </trkpt>
      <trkpt lat="45.49505" lon="5.55005">
        <ele>623.9</ele>
        <time>2021-02-03T11:00:01.489Z</time>
      </trkpt>
      <trkpt lat="45.49499" lon="5.55015">
        <ele>623.6</ele>
        <time>2021-02-03T11:00:09.252Z</time>
      </trkpt>
      <trkpt lat="45.49494" lon="5.55027">
        <ele>623.74</ele>
        <time>2021-02-03T11:00:18.000Z</time>
      </trkpt>
      <trkpt lat="45.49488" lon="5.55038">
        <ele>624.35</ele>
        <time>2021-02-03T11:00:28.000Z</time>
      </trkpt>
      <trkpt lat="45.49482" lon="5.5505">
        <ele>624.04</ele>
        <time>2021-02-03T11:00:35.874Z</time>
      </trkpt>
      <trkpt lat="45.49477" lon="5.55061">
        <ele>624.27</ele>
        <time>2021-02-03T11:00:42.722Z</time>
      </trkpt>
      <trkpt lat="45.49473" lon="5.55073">
        <ele>624.33</ele>
        <time>2021-02-03T11:00:52.000Z</time>
      </trkpt>
      <trkpt lat="45.49465" lon="5.55086">
        <ele>624.4</ele>
        <time>2021-02-03T11:00:59.835Z</time>
      </trkpt>
      <trkpt lat="45.49459" lon="5.55096">
        <ele>624.59</ele>
        <time>2021-02-03T11:01:07.456Z</time>
      </trkpt>
      <trkpt lat="45.49453" lon="5.55106">
        <ele>624.13</ele>
        <time>2021-02-03T11:01:16.000Z</time>
      </trkpt>
      <trkpt lat="45.49448" lon="5.55116">
        <ele>624.71</ele>
        <time>2021-02-03T11:01:26.000Z</time>
      </trkpt>
      <trkpt lat="45.49442" lon="5.55126">
        <ele>625.2</ele>
        <time>2021-02-03T11:01:34.000Z</time>
      </trkpt>
      <trkpt lat="45.49435" lon="5.55135">
        <ele>625.62</ele>
        <time>2021-02-03T11:01:41.000Z</time>
      </trkpt>
      <trkpt lat="45.49434" lon="5.5514">
        <ele>625.26</ele>
        <time>2021-02-03T11:01:51.000Z</time>
      </trkpt>
      <trkpt lat="45.49424" lon="5.55149">
        <ele>625.86</ele>
        <time>2021-02-03T11:01:57.811Z</time>
      </trkpt>
      <trkpt lat="45.49416" lon="5.55158">
        <ele>625.45</ele>
        <time>2021-02-03T11:02:05.000Z</time>
      </trkpt>
      <trkpt lat="45.49413" lon="5.55172">
        <ele>626.31</ele>
        <time>2021-02-03T11:02:12.774Z</time>
      </trkpt>
      <trkpt lat="45.49406" lon="5.5518">
        <ele>626.65</ele>
        <time>2021-02-03T11:02:21.000Z</time>
      </trkpt>
      <trkpt lat="45.49397" lon="5.55189">
        <ele>626.46</ele>
        <time>2021-02-03T11:02:30.000Z</time>
      </trkpt>
      <trkpt lat="45.49388" lon="5.55195">
        <ele>626.84</ele>
        <time>2021-02-03T11:02:39.000Z</time>
      </trkpt>
      <trkpt lat="45.4938" lon="5.55201">
        <ele>627.09</ele>
        <time>2021-02-03T11:02:44.515Z</time>
      </trkpt>
      <trkpt lat="45.49372" lon="5.55209">
        <ele>627.71</ele>
        <time>2021-02-03T11:02:51.554Z</time>
      </trkpt>
      <trkpt lat="45.49363" lon="5.55216">
        <ele>628.45</ele>
        <time>2021-02-03T11:03:01.000Z</time>
      </trkpt>
      <trkpt lat="45.49357" lon="5.55227">
        <ele>629.28</ele>
        <time>2021-02-03T11:03:09.000Z</time>
      </trkpt>
      <trkpt lat="45.49351" lon="5.5524">
        <ele>630.43</ele>
        <time>2021-02-03T11:03:18.373Z</time>
      </trkpt>
      <trkpt lat="45.49349" lon="5.5524">
        <ele>630.65</ele>
        <time>2021-02-03T11:03:29.000Z</time>
      </trkpt>
      <trkpt lat="45.49348" lon="5.55242">
        <ele>630.65</ele>
        <time>2021-02-03T11:03:39.000Z</time>
      </trkpt>
      <trkpt lat="45.49347" lon="5.55248">
        <ele>630.83</ele>
        <time>2021-02-03T11:03:49.000Z</time>
      </trkpt>
      <trkpt lat="45.49349" lon="5.55261">
        <ele>631.23</ele>
        <time>2021-02-03T11:03:53.430Z</time>
      </trkpt>
      <trkpt lat="45.49351" lon="5.55274">
        <ele>631.76</ele>
        <time>2021-02-03T11:04:01.549Z</time>
      </trkpt>
      <trkpt lat="45.4935" lon="5.55287">
        <ele>632.1</ele>
        <time>2021-02-03T11:04:11.000Z</time>
      </trkpt>
      <trkpt lat="45.49351" lon="5.55301">
        <ele>632.02</ele>
        <time>2021-02-03T11:04:17.489Z</time>
      </trkpt>
      <trkpt lat="45.49352" lon="5.55306">
        <ele>632.1</ele>
        <time>2021-02-03T11:04:26.509Z</time>
      </trkpt>
      <trkpt lat="45.49354" lon="5.55319">
        <ele>632.86</ele>
        <time>2021-02-03T11:04:34.509Z</time>
      </trkpt>
      <trkpt lat="45.49356" lon="5.55332">
        <ele>632.97</ele>
        <time>2021-02-03T11:04:41.370Z</time>
      </trkpt>
      <trkpt lat="45.49355" lon="5.55346">
        <ele>633.08</ele>
        <time>2021-02-03T11:04:49.309Z</time>
      </trkpt>
      <trkpt lat="45.49354" lon="5.5536">
        <ele>632.9</ele>
        <time>2021-02-03T11:04:57.387Z</time>
      </trkpt>
      <trkpt lat="45.49355" lon="5.55374">
        <ele>633.26</ele>
        <time>2021-02-03T11:05:05.723Z</time>
      </trkpt>
      <trkpt lat="45.49354" lon="5.55387">
        <ele>633.59</ele>
        <time>2021-02-03T11:05:14.498Z</time>
      </trkpt>
      <trkpt lat="45.49352" lon="5.554">
        <ele>633.9</ele>
        <time>2021-02-03T11:05:22.735Z</time>
      </trkpt>
      <trkpt lat="45.4935" lon="5.55413">
        <ele>634.19</ele>
        <time>2021-02-03T11:05:31.798Z</time>
      </trkpt>
      <trkpt lat="45.49348" lon="5.55428">
        <ele>633.93</ele>
        <time>2021-02-03T11:05:40.354Z</time>
      </trkpt>
      <trkpt lat="45.49348" lon="5.55442">
        <ele>634.25</ele>
        <time>2021-02-03T11:05:48.258Z</time>
      </trkpt>
      <trkpt lat="45.49347" lon="5.55455">
        <ele>634.59</ele>
        <time>2021-02-03T11:05:56.999Z</time>
      </trkpt>
      <trkpt lat="45.49345" lon="5.55469">
        <ele>634.6</ele>
        <time>2021-02-03T11:06:05.999Z</time>
      </trkpt>
      <trkpt lat="45.49343" lon="5.55482">
        <ele>635.01</ele>
        <time>2021-02-03T11:06:12.999Z</time>
      </trkpt>
      <trkpt lat="45.49343" lon="5.55495">
        <ele>635.24</ele>
        <time>2021-02-03T11:06:20.999Z</time>
      </trkpt>
      <trkpt lat="45.49345" lon="5.55508">
        <ele>635.84</ele>
        <time>2021-02-03T11:06:29.999Z</time>
      </trkpt>
      <trkpt lat="45.49347" lon="5.55522">
        <ele>636.2</ele>
        <time>2021-02-03T11:06:37.999Z</time>
      </trkpt>
      <trkpt lat="45.49348" lon="5.55536">
        <ele>637.17</ele>
        <time>2021-02-03T11:06:47.330Z</time>
      </trkpt>
      <trkpt lat="45.49348" lon="5.55552">
        <ele>637.96</ele>
        <time>2021-02-03T11:06:56.819Z</time>
      </trkpt>
      <trkpt lat="45.49348" lon="5.55564">
        <ele>638.08</ele>
        <time>2021-02-03T11:07:05.999Z</time>
      </trkpt>
      <trkpt lat="45.49351" lon="5.55562">
        <ele>638.57</ele>
        <time>2021-02-03T11:07:24.777Z</time>
      </trkpt>
      <trkpt lat="45.49348" lon="5.55574">
        <ele>638.33</ele>
        <time>2021-02-03T11:07:33.999Z</time>
      </trkpt>
      <trkpt lat="45.49348" lon="5.55579">
        <ele>638.63</ele>
        <time>2021-02-03T11:07:43.999Z</time>
      </trkpt>
      <trkpt lat="45.49347" lon="5.55592">
        <ele>638.68</ele>
        <time>2021-02-03T11:07:51.999Z</time>
      </trkpt>
      <trkpt lat="45.49348" lon="5.55605">
        <ele>638.23</ele>
        <time>2021-02-03T11:08:01.311Z</time>
      </trkpt>
      <trkpt lat="45.49349" lon="5.55619">
        <ele>638.72</ele>
        <time>2021-02-03T11:08:09.250Z</time>
      </trkpt>
      <trkpt lat="45.49349" lon="5.55633">
        <ele>638.44</ele>
        <time>2021-02-03T11:08:18.335Z</time>
      </trkpt>
      <trkpt lat="45.49351" lon="5.55647">
        <ele>638.83</ele>
        <time>2021-02-03T11:08:26.474Z</time>
      </trkpt>
      <trkpt lat="45.49351" lon="5.55663">
        <ele>639.19</ele>
        <time>2021-02-03T11:08:35.718Z</time>
      </trkpt>
      <trkpt lat="45.49355" lon="5.55674">
        <ele>639.66</ele>
        <time>2021-02-03T11:08:44.893Z</time>
      </trkpt>
      <trkpt lat="45.49357" lon="5.55685">
        <ele>640.25</ele>
        <time>2021-02-03T11:08:53.999Z</time>
      </trkpt>
      <trkpt lat="45.49356" lon="5.55698">
        <ele>640.55</ele>
        <time>2021-02-03T11:09:01.999Z</time>
      </trkpt>
      <trkpt lat="45.49357" lon="5.55703">
        <ele>640.61</ele>
        <time>2021-02-03T11:09:18.309Z</time>
      </trkpt>
      <trkpt lat="45.49358" lon="5.55717">
        <ele>639.97</ele>
        <time>2021-02-03T11:09:26.999Z</time>
      </trkpt>
      <trkpt lat="45.49358" lon="5.55731">
        <ele>639.88</ele>
        <time>2021-02-03T11:09:35.689Z</time>
      </trkpt>
      <trkpt lat="45.49355" lon="5.55743">
        <ele>639.09</ele>
        <time>2021-02-03T11:09:44.870Z</time>
      </trkpt>
      <trkpt lat="45.49357" lon="5.55758">
        <ele>638.57</ele>
        <time>2021-02-03T11:09:53.388Z</time>
      </trkpt>
      <trkpt lat="45.49352" lon="5.55768">
        <ele>637.7</ele>
        <time>2021-02-03T11:09:58.529Z</time>
      </trkpt>
      <trkpt lat="45.49347" lon="5.55775">
        <ele>636.19</ele>
        <time>2021-02-03T11:10:07.650Z</time>
      </trkpt>
      <trkpt lat="45.49342" lon="5.55785">
        <ele>635.28</ele>
        <time>2021-02-03T11:10:16.688Z</time>
      </trkpt>
      <trkpt lat="45.49336" lon="5.55796">
        <ele>634.3</ele>
        <time>2021-02-03T11:10:25.830Z</time>
      </trkpt>
      <trkpt lat="45.49336" lon="5.5581">
        <ele>633.46</ele>
        <time>2021-02-03T11:10:34.927Z</time>
      </trkpt>
      <trkpt lat="45.49338" lon="5.55822">
        <ele>632.74</ele>
        <time>2021-02-03T11:10:44.999Z</time>
      </trkpt>
      <trkpt lat="45.49336" lon="5.55827">
        <ele>632.77</ele>
        <time>2021-02-03T11:10:58.999Z</time>
      </trkpt>
      <trkpt lat="45.49337" lon="5.55829">
        <ele>633.12</ele>
        <time>2021-02-03T11:11:02.999Z</time>
      </trkpt>
      <trkpt lat="45.49337" lon="5.55831">
        <ele>633.2</ele>
        <time>2021-02-03T11:11:12.999Z</time>
      </trkpt>
      <trkpt lat="45.49335" lon="5.55846">
        <ele>632.04</ele>
        <time>2021-02-03T11:11:22.600Z</time>
      </trkpt>
      <trkpt lat="45.49331" lon="5.55858">
        <ele>631.75</ele>
        <time>2021-02-03T11:11:30.999Z</time>
      </trkpt>
      <trkpt lat="45.49322" lon="5.55859">
        <ele>631.48</ele>
        <time>2021-02-03T11:11:39.598Z</time>
      </trkpt>
      <trkpt lat="45.49314" lon="5.55853">
        <ele>631.59</ele>
        <time>2021-02-03T11:11:48.757Z</time>
      </trkpt>
      <trkpt lat="45.49306" lon="5.55845">
        <ele>631.16</ele>
        <time>2021-02-03T11:11:56.437Z</time>
      </trkpt>
      <trkpt lat="45.49297" lon="5.5584">
        <ele>631.4</ele>
        <time>2021-02-03T11:12:04.475Z</time>
      </trkpt>
      <trkpt lat="45.49288" lon="5.55833">
        <ele>631.45</ele>
        <time>2021-02-03T11:12:13.737Z</time>
      </trkpt>
      <trkpt lat="45.4928" lon="5.55828">
        <ele>631.03</ele>
        <time>2021-02-03T11:12:23.999Z</time>
      </trkpt>
      <trkpt lat="45.49273" lon="5.55825">
        <ele>631.23</ele>
        <time>2021-02-03T11:12:33.999Z</time>
      </trkpt>
      <trkpt lat="45.49272" lon="5.55828">
        <ele>631.28</ele>
        <time>2021-02-03T11:12:45.677Z</time>
      </trkpt>
      <trkpt lat="45.49265" lon="5.5582">
        <ele>631.53</ele>
        <time>2021-02-03T11:12:54.735Z</time>
      </trkpt>
      <trkpt lat="45.49259" lon="5.55809">
        <ele>631.98</ele>
        <time>2021-02-03T11:13:03.999Z</time>
      </trkpt>
      <trkpt lat="45.49251" lon="5.55804">
        <ele>632.31</ele>
        <time>2021-02-03T11:13:12.429Z</time>
      </trkpt>
      <trkpt lat="45.49241" lon="5.558">
        <ele>632.9</ele>
        <time>2021-02-03T11:13:20.999Z</time>
      </trkpt>
      <trkpt lat="45.49233" lon="5.55795">
        <ele>633.37</ele>
        <time>2021-02-03T11:13:26.388Z</time>
      </trkpt>
      <trkpt lat="45.49227" lon="5.55796">
        <ele>634.18</ele>
        <time>2021-02-03T11:13:35.999Z</time>
      </trkpt>
      <trkpt lat="45.49217" lon="5.55793">
        <ele>634.58</ele>
        <time>2021-02-03T11:13:44.440Z</time>
      </trkpt>
      <trkpt lat="45.49208" lon="5.55789">
        <ele>634.99</ele>
        <time>2021-02-03T11:13:51.436Z</time>
      </trkpt>
      <trkpt lat="45.49199" lon="5.55788">
        <ele>635.52</ele>
        <time>2021-02-03T11:13:59.797Z</time>
      </trkpt>
      <trkpt lat="45.49191" lon="5.55787">
        <ele>636.15</ele>
        <time>2021-02-03T11:14:08.999Z</time>
      </trkpt>
      <trkpt lat="45.49182" lon="5.55783">
        <ele>636.18</ele>
        <time>2021-02-03T11:14:16.657Z</time>
      </trkpt>
      <trkpt lat="45.49175" lon="5.55783">
        <ele>636.57</ele>
        <time>2021-02-03T11:14:26.999Z</time>
      </trkpt>
      <trkpt lat="45.49165" lon="5.55782">
        <ele>636.7</ele>
        <time>2021-02-03T11:14:34.255Z</time>
      </trkpt>
      <trkpt lat="45.49156" lon="5.55783">
        <ele>636.58</ele>
        <time>2021-02-03T11:14:43.999Z</time>
      </trkpt>
      <trkpt lat="45.49148" lon="5.55788">
        <ele>637.12</ele>
        <time>2021-02-03T11:14:53.574Z</time>
      </trkpt>
      <trkpt lat="45.49138" lon="5.5579">
        <ele>637.7</ele>
        <time>2021-02-03T11:15:02.999Z</time>
      </trkpt>
      <trkpt lat="45.4913" lon="5.55792">
        <ele>637.85</ele>
        <time>2021-02-03T11:15:10.657Z</time>
      </trkpt>
      <trkpt lat="45.49122" lon="5.55794">
        <ele>637.96</ele>
        <time>2021-02-03T11:15:19.999Z</time>
      </trkpt>
      <trkpt lat="45.49113" lon="5.55798">
        <ele>638.12</ele>
        <time>2021-02-03T11:15:27.613Z</time>
      </trkpt>
      <trkpt lat="45.49105" lon="5.55801">
        <ele>638.24</ele>
        <time>2021-02-03T11:15:36.999Z</time>
      </trkpt>
      <trkpt lat="45.49096" lon="5.55806">
        <ele>638.42</ele>
        <time>2021-02-03T11:15:44.869Z</time>
      </trkpt>
      <trkpt lat="45.49086" lon="5.55808">
        <ele>638.35</ele>
        <time>2021-02-03T11:15:53.574Z</time>
      </trkpt>
      <trkpt lat="45.49077" lon="5.5581">
        <ele>638.41</ele>
        <time>2021-02-03T11:16:02.999Z</time>
      </trkpt>
      <trkpt lat="45.49067" lon="5.5581">
        <ele>638.59</ele>
        <time>2021-02-03T11:16:09.999Z</time>
      </trkpt>
      <trkpt lat="45.49062" lon="5.5581">
        <ele>638.81</ele>
        <time>2021-02-03T11:16:25.999Z</time>
      </trkpt>
      <trkpt lat="45.49056" lon="5.55803">
        <ele>638.88</ele>
        <time>2021-02-03T11:16:35.999Z</time>
      </trkpt>
      <trkpt lat="45.49048" lon="5.55798">
        <ele>638.22</ele>
        <time>2021-02-03T11:16:42.999Z</time>
      </trkpt>
      <trkpt lat="45.49039" lon="5.55791">
        <ele>637.67</ele>
        <time>2021-02-03T11:16:50.999Z</time>
      </trkpt>
      <trkpt lat="45.49032" lon="5.55783">
        <ele>637.1</ele>
        <time>2021-02-03T11:16:59.999Z</time>
      </trkpt>
      <trkpt lat="45.49025" lon="5.55773">
        <ele>636.46</ele>
        <time>2021-02-03T11:17:09.999Z</time>
      </trkpt>
      <trkpt lat="45.49017" lon="5.55766">
        <ele>635.86</ele>
        <time>2021-02-03T11:17:17.999Z</time>
      </trkpt>
      <trkpt lat="45.49011" lon="5.55757">
        <ele>635.27</ele>
        <time>2021-02-03T11:17:25.999Z</time>
      </trkpt>
      <trkpt lat="45.49003" lon="5.55751">
        <ele>634.67</ele>
        <time>2021-02-03T11:17:32.078Z</time>
      </trkpt>
      <trkpt lat="45.48995" lon="5.55744">
        <ele>634.69</ele>
        <time>2021-02-03T11:17:39.934Z</time>
      </trkpt>
      <trkpt lat="45.48989" lon="5.55734">
        <ele>634.46</ele>
        <time>2021-02-03T11:17:47.793Z</time>
      </trkpt>
      <trkpt lat="45.48982" lon="5.55724">
        <ele>634.09</ele>
        <time>2021-02-03T11:17:56.371Z</time>
      </trkpt>
      <trkpt lat="45.48974" lon="5.55717">
        <ele>634.04</ele>
        <time>2021-02-03T11:18:05.411Z</time>
      </trkpt>
      <trkpt lat="45.48967" lon="5.55709">
        <ele>633.59</ele>
        <time>2021-02-03T11:18:13.999Z</time>
      </trkpt>
      <trkpt lat="45.48959" lon="5.55702">
        <ele>632.87</ele>
        <time>2021-02-03T11:18:21.999Z</time>
      </trkpt>
      <trkpt lat="45.48952" lon="5.55694">
        <ele>633.17</ele>
        <time>2021-02-03T11:18:28.891Z</time>
      </trkpt>
      <trkpt lat="45.48944" lon="5.55686">
        <ele>632.68</ele>
        <time>2021-02-03T11:18:37.791Z</time>
      </trkpt>
      <trkpt lat="45.48936" lon="5.55679">
        <ele>632.66</ele>
        <time>2021-02-03T11:18:45.670Z</time>
      </trkpt>
      <trkpt lat="45.48927" lon="5.55674">
        <ele>632.19</ele>
        <time>2021-02-03T11:18:53.888Z</time>
      </trkpt>
      <trkpt lat="45.48917" lon="5.55671">
        <ele>631.36</ele>
        <time>2021-02-03T11:19:01.490Z</time>
      </trkpt>
      <trkpt lat="45.48907" lon="5.55674">
        <ele>631.1</ele>
        <time>2021-02-03T11:19:08.690Z</time>
      </trkpt>
      <trkpt lat="45.48899" lon="5.55681">
        <ele>631.16</ele>
        <time>2021-02-03T11:19:17.410Z</time>
      </trkpt>
      <trkpt lat="45.48891" lon="5.55685">
        <ele>630.45</ele>
        <time>2021-02-03T11:19:26.550Z</time>
      </trkpt>
      <trkpt lat="45.48882" lon="5.55687">
        <ele>630.15</ele>
        <time>2021-02-03T11:19:34.532Z</time>
      </trkpt>
      <trkpt lat="45.48878" lon="5.557">
        <ele>629.74</ele>
        <time>2021-02-03T11:19:43.469Z</time>
      </trkpt>
      <trkpt lat="45.4887" lon="5.55707">
        <ele>629.4</ele>
        <time>2021-02-03T11:19:50.610Z</time>
      </trkpt>
      <trkpt lat="45.48862" lon="5.55713">
        <ele>629.4</ele>
        <time>2021-02-03T11:19:59.309Z</time>
      </trkpt>
      <trkpt lat="45.48856" lon="5.55723">
        <ele>628.97</ele>
        <time>2021-02-03T11:20:05.609Z</time>
      </trkpt>
      <trkpt lat="45.48849" lon="5.55732">
        <ele>629.46</ele>
        <time>2021-02-03T11:20:13.688Z</time>
      </trkpt>
      <trkpt lat="45.48843" lon="5.55742">
        <ele>629.04</ele>
        <time>2021-02-03T11:20:22.308Z</time>
      </trkpt>
      <trkpt lat="45.48836" lon="5.55753">
        <ele>628.73</ele>
        <time>2021-02-03T11:20:30.593Z</time>
      </trkpt>
      <trkpt lat="45.4883" lon="5.55765">
        <ele>628.39</ele>
        <time>2021-02-03T11:20:39.608Z</time>
      </trkpt>
      <trkpt lat="45.48823" lon="5.55774">
        <ele>628.42</ele>
        <time>2021-02-03T11:20:47.827Z</time>
      </trkpt>
      <trkpt lat="45.48819" lon="5.55782">
        <ele>628.6</ele>
        <time>2021-02-03T11:20:56.999Z</time>
      </trkpt>
      <trkpt lat="45.48813" lon="5.55794">
        <ele>628.32</ele>
        <time>2021-02-03T11:21:05.518Z</time>
      </trkpt>
      <trkpt lat="45.48807" lon="5.55804">
        <ele>628.35</ele>
        <time>2021-02-03T11:21:13.999Z</time>
      </trkpt>
      <trkpt lat="45.488" lon="5.55813">
        <ele>628.34</ele>
        <time>2021-02-03T11:21:20.749Z</time>
      </trkpt>
      <trkpt lat="45.48795" lon="5.55824">
        <ele>628</ele>
        <time>2021-02-03T11:21:30.999Z</time>
      </trkpt>
      <trkpt lat="45.48792" lon="5.55836">
        <ele>628.06</ele>
        <time>2021-02-03T11:21:38.428Z</time>
      </trkpt>
      <trkpt lat="45.48787" lon="5.55849">
        <ele>627.78</ele>
        <time>2021-02-03T11:21:46.908Z</time>
      </trkpt>
      <trkpt lat="45.48785" lon="5.55862">
        <ele>627.75</ele>
        <time>2021-02-03T11:21:55.999Z</time>
      </trkpt>
      <trkpt lat="45.48786" lon="5.55875">
        <ele>627.24</ele>
        <time>2021-02-03T11:22:03.999Z</time>
      </trkpt>
      <trkpt lat="45.48786" lon="5.55888">
        <ele>627.14</ele>
        <time>2021-02-03T11:22:10.809Z</time>
      </trkpt>
      <trkpt lat="45.48786" lon="5.559">
        <ele>626.45</ele>
        <time>2021-02-03T11:22:19.999Z</time>
      </trkpt>
      <trkpt lat="45.48787" lon="5.55913">
        <ele>625.31</ele>
        <time>2021-02-03T11:22:29.999Z</time>
      </trkpt>
      <trkpt lat="45.48787" lon="5.55928">
        <ele>624.64</ele>
        <time>2021-02-03T11:22:38.558Z</time>
      </trkpt>
      <trkpt lat="45.48784" lon="5.55939">
        <ele>623.67</ele>
        <time>2021-02-03T11:22:48.999Z</time>
      </trkpt>
      <trkpt lat="45.48786" lon="5.55952">
        <ele>623.42</ele>
        <time>2021-02-03T11:22:55.999Z</time>
      </trkpt>
      <trkpt lat="45.48784" lon="5.55963">
        <ele>622.25</ele>
        <time>2021-02-03T11:23:05.999Z</time>
      </trkpt>
      <trkpt lat="45.48781" lon="5.55975">
        <ele>620.92</ele>
        <time>2021-02-03T11:23:15.999Z</time>
      </trkpt>
      <trkpt lat="45.48779" lon="5.55989">
        <ele>620.01</ele>
        <time>2021-02-03T11:23:25.735Z</time>
      </trkpt>
      <trkpt lat="45.48777" lon="5.55995">
        <ele>619.81</ele>
        <time>2021-02-03T11:23:34.999Z</time>
      </trkpt>
      <trkpt lat="45.48776" lon="5.56002">
        <ele>619.29</ele>
        <time>2021-02-03T11:23:44.019Z</time>
      </trkpt>
      <trkpt lat="45.48771" lon="5.56011">
        <ele>618.44</ele>
        <time>2021-02-03T11:23:53.999Z</time>
      </trkpt>
      <trkpt lat="45.4877" lon="5.56015">
        <ele>618.08</ele>
        <time>2021-02-03T11:24:04.999Z</time>
      </trkpt>
      <trkpt lat="45.48764" lon="5.56007">
        <ele>618.13</ele>
        <time>2021-02-03T11:24:14.632Z</time>
      </trkpt>
      <trkpt lat="45.48764" lon="5.56006">
        <ele>617.83</ele>
        <time>2021-02-03T11:24:24.999Z</time>
      </trkpt>
      <trkpt lat="45.48761" lon="5.56008">
        <ele>618.36</ele>
        <time>2021-02-03T11:30:07.999Z</time>
      </trkpt>
      <trkpt lat="45.48764" lon="5.56012">
        <ele>618.35</ele>
        <time>2021-02-03T11:35:53.000Z</time>
      </trkpt>
      <trkpt lat="45.48766" lon="5.56009">
        <ele>618.61</ele>
        <time>2021-02-03T11:36:22.000Z</time>
      </trkpt>
      <trkpt lat="45.48774" lon="5.56019">
        <ele>617.51</ele>
        <time>2021-02-03T11:43:33.000Z</time>
      </trkpt>
      <trkpt lat="45.48776" lon="5.5603">
        <ele>616.95</ele>
        <time>2021-02-03T11:43:43.000Z</time>
      </trkpt>
      <trkpt lat="45.48781" lon="5.56043">
        <ele>616.06</ele>
        <time>2021-02-03T11:43:50.728Z</time>
      </trkpt>
      <trkpt lat="45.48782" lon="5.56056">
        <ele>614.5</ele>
        <time>2021-02-03T11:44:00.000Z</time>
      </trkpt>
      <trkpt lat="45.48783" lon="5.5607">
        <ele>612.7</ele>
        <time>2021-02-03T11:44:09.608Z</time>
      </trkpt>
      <trkpt lat="45.4878" lon="5.5608">
        <ele>611.04</ele>
        <time>2021-02-03T11:44:18.769Z</time>
      </trkpt>
      <trkpt lat="45.48777" lon="5.56091">
        <ele>609.71</ele>
        <time>2021-02-03T11:44:27.868Z</time>
      </trkpt>
      <trkpt lat="45.4877" lon="5.56102">
        <ele>608.13</ele>
        <time>2021-02-03T11:44:36.473Z</time>
      </trkpt>
      <trkpt lat="45.48765" lon="5.56109">
        <ele>606.55</ele>
        <time>2021-02-03T11:44:46.000Z</time>
      </trkpt>
      <trkpt lat="45.48755" lon="5.56117">
        <ele>604.96</ele>
        <time>2021-02-03T11:44:55.591Z</time>
      </trkpt>
      <trkpt lat="45.48751" lon="5.56123">
        <ele>603.21</ele>
        <time>2021-02-03T11:45:05.000Z</time>
      </trkpt>
      <trkpt lat="45.48741" lon="5.56128">
        <ele>601.77</ele>
        <time>2021-02-03T11:45:13.669Z</time>
      </trkpt>
      <trkpt lat="45.48732" lon="5.56131">
        <ele>600.11</ele>
        <time>2021-02-03T11:45:22.668Z</time>
      </trkpt>
      <trkpt lat="45.48724" lon="5.56136">
        <ele>598.71</ele>
        <time>2021-02-03T11:45:31.779Z</time>
      </trkpt>
      <trkpt lat="45.48717" lon="5.56141">
        <ele>597.23</ele>
        <time>2021-02-03T11:45:41.000Z</time>
      </trkpt>
      <trkpt lat="45.48708" lon="5.56148">
        <ele>595.48</ele>
        <time>2021-02-03T11:45:49.731Z</time>
      </trkpt>
      <trkpt lat="45.48699" lon="5.56152">
        <ele>594.63</ele>
        <time>2021-02-03T11:46:00.000Z</time>
      </trkpt>
      <trkpt lat="45.4869" lon="5.56157">
        <ele>593.44</ele>
        <time>2021-02-03T11:46:08.278Z</time>
      </trkpt>
      <trkpt lat="45.48682" lon="5.56163">
        <ele>591.99</ele>
        <time>2021-02-03T11:46:16.636Z</time>
      </trkpt>
      <trkpt lat="45.48674" lon="5.5617">
        <ele>591.11</ele>
        <time>2021-02-03T11:46:25.616Z</time>
      </trkpt>
      <trkpt lat="45.48666" lon="5.56175">
        <ele>589.9</ele>
        <time>2021-02-03T11:46:35.075Z</time>
      </trkpt>
      <trkpt lat="45.48658" lon="5.56182">
        <ele>589.24</ele>
        <time>2021-02-03T11:46:43.656Z</time>
      </trkpt>
      <trkpt lat="45.48651" lon="5.56188">
        <ele>588.14</ele>
        <time>2021-02-03T11:46:53.000Z</time>
      </trkpt>
      <trkpt lat="45.48646" lon="5.56198">
        <ele>586.99</ele>
        <time>2021-02-03T11:47:00.493Z</time>
      </trkpt>
      <trkpt lat="45.4864" lon="5.56208">
        <ele>586.03</ele>
        <time>2021-02-03T11:47:09.000Z</time>
      </trkpt>
      <trkpt lat="45.48635" lon="5.56221">
        <ele>585.24</ele>
        <time>2021-02-03T11:47:18.000Z</time>
      </trkpt>
      <trkpt lat="45.4863" lon="5.56233">
        <ele>583.52</ele>
        <time>2021-02-03T11:47:24.653Z</time>
      </trkpt>
      <trkpt lat="45.48627" lon="5.56244">
        <ele>582.71</ele>
        <time>2021-02-03T11:47:34.000Z</time>
      </trkpt>
      <trkpt lat="45.48623" lon="5.56258">
        <ele>581.38</ele>
        <time>2021-02-03T11:47:42.394Z</time>
      </trkpt>
      <trkpt lat="45.48628" lon="5.5627">
        <ele>580.72</ele>
        <time>2021-02-03T11:47:51.000Z</time>
      </trkpt>
      <trkpt lat="45.48632" lon="5.56276">
        <ele>579.83</ele>
        <time>2021-02-03T11:48:01.000Z</time>
      </trkpt>
      <trkpt lat="45.4864" lon="5.56284">
        <ele>579.06</ele>
        <time>2021-02-03T11:48:08.392Z</time>
      </trkpt>
      <trkpt lat="45.48646" lon="5.56293">
        <ele>578.35</ele>
        <time>2021-02-03T11:48:16.293Z</time>
      </trkpt>
      <trkpt lat="45.48654" lon="5.56298">
        <ele>577.75</ele>
        <time>2021-02-03T11:48:25.430Z</time>
      </trkpt>
      <trkpt lat="45.48662" lon="5.56307">
        <ele>576.95</ele>
        <time>2021-02-03T11:48:33.556Z</time>
      </trkpt>
      <trkpt lat="45.48669" lon="5.56314">
        <ele>576.72</ele>
        <time>2021-02-03T11:48:40.935Z</time>
      </trkpt>
      <trkpt lat="45.48679" lon="5.56317">
        <ele>575.75</ele>
        <time>2021-02-03T11:48:49.635Z</time>
      </trkpt>
      <trkpt lat="45.48688" lon="5.56319">
        <ele>574.32</ele>
        <time>2021-02-03T11:48:58.656Z</time>
      </trkpt>
      <trkpt lat="45.48691" lon="5.56319">
        <ele>572.62</ele>
        <time>2021-02-03T11:49:18.000Z</time>
      </trkpt>
      <trkpt lat="45.487" lon="5.56324">
        <ele>571.3</ele>
        <time>2021-02-03T11:49:26.000Z</time>
      </trkpt>
      <trkpt lat="45.48708" lon="5.5633">
        <ele>569.52</ele>
        <time>2021-02-03T11:49:35.491Z</time>
      </trkpt>
      <trkpt lat="45.48717" lon="5.56334">
        <ele>568</ele>
        <time>2021-02-03T11:49:44.411Z</time>
      </trkpt>
      <trkpt lat="45.48724" lon="5.56341">
        <ele>566.33</ele>
        <time>2021-02-03T11:49:54.000Z</time>
      </trkpt>
      <trkpt lat="45.48731" lon="5.56352">
        <ele>564.84</ele>
        <time>2021-02-03T11:50:02.000Z</time>
      </trkpt>
      <trkpt lat="45.48738" lon="5.5636">
        <ele>563.38</ele>
        <time>2021-02-03T11:50:10.736Z</time>
      </trkpt>
      <trkpt lat="45.48745" lon="5.56367">
        <ele>561.97</ele>
        <time>2021-02-03T11:50:19.893Z</time>
      </trkpt>
      <trkpt lat="45.48751" lon="5.56372">
        <ele>560.47</ele>
        <time>2021-02-03T11:50:29.000Z</time>
      </trkpt>
      <trkpt lat="45.48755" lon="5.56383">
        <ele>558.86</ele>
        <time>2021-02-03T11:50:40.000Z</time>
      </trkpt>
      <trkpt lat="45.48754" lon="5.56396">
        <ele>557.22</ele>
        <time>2021-02-03T11:50:50.000Z</time>
      </trkpt>
      <trkpt lat="45.48752" lon="5.56408">
        <ele>555.61</ele>
        <time>2021-02-03T11:51:00.000Z</time>
      </trkpt>
      <trkpt lat="45.48747" lon="5.56419">
        <ele>553.89</ele>
        <time>2021-02-03T11:51:09.000Z</time>
      </trkpt>
      <trkpt lat="45.48741" lon="5.5643">
        <ele>552.1</ele>
        <time>2021-02-03T11:51:18.437Z</time>
      </trkpt>
      <trkpt lat="45.48738" lon="5.56438">
        <ele>551.3</ele>
        <time>2021-02-03T11:51:28.000Z</time>
      </trkpt>
      <trkpt lat="45.48733" lon="5.56446">
        <ele>550.6</ele>
        <time>2021-02-03T11:51:38.000Z</time>
      </trkpt>
      <trkpt lat="45.48726" lon="5.56456">
        <ele>549.1</ele>
        <time>2021-02-03T11:51:46.495Z</time>
      </trkpt>
      <trkpt lat="45.48724" lon="5.56469">
        <ele>547.63</ele>
        <time>2021-02-03T11:51:54.815Z</time>
      </trkpt>
      <trkpt lat="45.48721" lon="5.56482">
        <ele>546.7</ele>
        <time>2021-02-03T11:52:03.575Z</time>
      </trkpt>
      <trkpt lat="45.48718" lon="5.56494">
        <ele>546.14</ele>
        <time>2021-02-03T11:52:12.616Z</time>
      </trkpt>
      <trkpt lat="45.48714" lon="5.56505">
        <ele>545.1</ele>
        <time>2021-02-03T11:52:22.000Z</time>
      </trkpt>
      <trkpt lat="45.48716" lon="5.56517">
        <ele>544.96</ele>
        <time>2021-02-03T11:52:30.000Z</time>
      </trkpt>
      <trkpt lat="45.48724" lon="5.56526">
        <ele>544.02</ele>
        <time>2021-02-03T11:52:38.000Z</time>
      </trkpt>
      <trkpt lat="45.48731" lon="5.56535">
        <ele>543.77</ele>
        <time>2021-02-03T11:52:44.915Z</time>
      </trkpt>
      <trkpt lat="45.48739" lon="5.56544">
        <ele>543.12</ele>
        <time>2021-02-03T11:52:52.914Z</time>
      </trkpt>
      <trkpt lat="45.48747" lon="5.5655">
        <ele>543.05</ele>
        <time>2021-02-03T11:53:01.816Z</time>
      </trkpt>
      <trkpt lat="45.48754" lon="5.56557">
        <ele>543.33</ele>
        <time>2021-02-03T11:53:10.000Z</time>
      </trkpt>
      <trkpt lat="45.48762" lon="5.56563">
        <ele>543.13</ele>
        <time>2021-02-03T11:53:19.000Z</time>
      </trkpt>
      <trkpt lat="45.48772" lon="5.5657">
        <ele>543.12</ele>
        <time>2021-02-03T11:53:28.000Z</time>
      </trkpt>
      <trkpt lat="45.4878" lon="5.56578">
        <ele>543.6</ele>
        <time>2021-02-03T11:53:38.000Z</time>
      </trkpt>
      <trkpt lat="45.48789" lon="5.56582">
        <ele>543.78</ele>
        <time>2021-02-03T11:53:47.000Z</time>
      </trkpt>
      <trkpt lat="45.48798" lon="5.56586">
        <ele>543.95</ele>
        <time>2021-02-03T11:53:54.491Z</time>
      </trkpt>
      <trkpt lat="45.48807" lon="5.56592">
        <ele>543.96</ele>
        <time>2021-02-03T11:54:02.331Z</time>
      </trkpt>
      <trkpt lat="45.48815" lon="5.56599">
        <ele>543.47</ele>
        <time>2021-02-03T11:54:11.000Z</time>
      </trkpt>
      <trkpt lat="45.48823" lon="5.56606">
        <ele>543.24</ele>
        <time>2021-02-03T11:54:19.000Z</time>
      </trkpt>
      <trkpt lat="45.48832" lon="5.56612">
        <ele>543.89</ele>
        <time>2021-02-03T11:54:28.412Z</time>
      </trkpt>
      <trkpt lat="45.4884" lon="5.56618">
        <ele>543.74</ele>
        <time>2021-02-03T11:54:37.331Z</time>
      </trkpt>
      <trkpt lat="45.48848" lon="5.56626">
        <ele>543.39</ele>
        <time>2021-02-03T11:54:47.000Z</time>
      </trkpt>
      <trkpt lat="45.48856" lon="5.56633">
        <ele>543.02</ele>
        <time>2021-02-03T11:54:54.270Z</time>
      </trkpt>
      <trkpt lat="45.48865" lon="5.56638">
        <ele>542.72</ele>
        <time>2021-02-03T11:55:00.949Z</time>
      </trkpt>
      <trkpt lat="45.48873" lon="5.56642">
        <ele>542.56</ele>
        <time>2021-02-03T11:55:10.000Z</time>
      </trkpt>
      <trkpt lat="45.48876" lon="5.56647">
        <ele>542.4</ele>
        <time>2021-02-03T11:55:20.000Z</time>
      </trkpt>
      <trkpt lat="45.48886" lon="5.56652">
        <ele>542.79</ele>
        <time>2021-02-03T11:55:28.000Z</time>
      </trkpt>
      <trkpt lat="45.48894" lon="5.56657">
        <ele>543.04</ele>
        <time>2021-02-03T11:55:35.000Z</time>
      </trkpt>
      <trkpt lat="45.48902" lon="5.56666">
        <ele>542.71</ele>
        <time>2021-02-03T11:55:46.000Z</time>
      </trkpt>
      <trkpt lat="45.48911" lon="5.56672">
        <ele>543.25</ele>
        <time>2021-02-03T11:55:53.910Z</time>
      </trkpt>
      <trkpt lat="45.48919" lon="5.56679">
        <ele>543.27</ele>
        <time>2021-02-03T11:56:00.867Z</time>
      </trkpt>
      <trkpt lat="45.48923" lon="5.56682">
        <ele>543.02</ele>
        <time>2021-02-03T11:56:10.000Z</time>
      </trkpt>
      <trkpt lat="45.48931" lon="5.5669">
        <ele>544.05</ele>
        <time>2021-02-03T11:56:17.000Z</time>
      </trkpt>
      <trkpt lat="45.48938" lon="5.56699">
        <ele>544.03</ele>
        <time>2021-02-03T11:56:25.000Z</time>
      </trkpt>
      <trkpt lat="45.48943" lon="5.56703">
        <ele>544.27</ele>
        <time>2021-02-03T11:56:35.000Z</time>
      </trkpt>
      <trkpt lat="45.4895" lon="5.56714">
        <ele>545.01</ele>
        <time>2021-02-03T11:56:42.311Z</time>
      </trkpt>
      <trkpt lat="45.48955" lon="5.5672">
        <ele>545.36</ele>
        <time>2021-02-03T11:56:52.000Z</time>
      </trkpt>
      <trkpt lat="45.48962" lon="5.56731">
        <ele>545.37</ele>
        <time>2021-02-03T11:56:57.431Z</time>
      </trkpt>
      <trkpt lat="45.48969" lon="5.56739">
        <ele>545.2</ele>
        <time>2021-02-03T11:57:06.000Z</time>
      </trkpt>
      <trkpt lat="45.48977" lon="5.56748">
        <ele>544.95</ele>
        <time>2021-02-03T11:57:14.000Z</time>
      </trkpt>
      <trkpt lat="45.48983" lon="5.56758">
        <ele>544.73</ele>
        <time>2021-02-03T11:57:23.000Z</time>
      </trkpt>
      <trkpt lat="45.4899" lon="5.56763">
        <ele>544.53</ele>
        <time>2021-02-03T11:57:33.000Z</time>
      </trkpt>
      <trkpt lat="45.48996" lon="5.56772">
        <ele>544.78</ele>
        <time>2021-02-03T11:57:40.291Z</time>
      </trkpt>
      <trkpt lat="45.49002" lon="5.56783">
        <ele>544.52</ele>
        <time>2021-02-03T11:57:49.452Z</time>
      </trkpt>
      <trkpt lat="45.48997" lon="5.56792">
        <ele>543.95</ele>
        <time>2021-02-03T11:57:58.951Z</time>
      </trkpt>
      <trkpt lat="45.48993" lon="5.56804">
        <ele>543.39</ele>
        <time>2021-02-03T11:58:06.034Z</time>
      </trkpt>
      <trkpt lat="45.48991" lon="5.56817">
        <ele>542.89</ele>
        <time>2021-02-03T11:58:14.652Z</time>
      </trkpt>
      <trkpt lat="45.48988" lon="5.56826">
        <ele>541.89</ele>
        <time>2021-02-03T11:58:24.000Z</time>
      </trkpt>
      <trkpt lat="45.48987" lon="5.5684">
        <ele>541.68</ele>
        <time>2021-02-03T11:58:34.000Z</time>
      </trkpt>
      <trkpt lat="45.48985" lon="5.56855">
        <ele>541.15</ele>
        <time>2021-02-03T11:58:43.872Z</time>
      </trkpt>
      <trkpt lat="45.48982" lon="5.56868">
        <ele>540.83</ele>
        <time>2021-02-03T11:58:52.857Z</time>
      </trkpt>
      <trkpt lat="45.4898" lon="5.56882">
        <ele>540.54</ele>
        <time>2021-02-03T11:59:01.810Z</time>
      </trkpt>
      <trkpt lat="45.48975" lon="5.56895">
        <ele>539.59</ele>
        <time>2021-02-03T11:59:09.771Z</time>
      </trkpt>
      <trkpt lat="45.48973" lon="5.56908">
        <ele>539.23</ele>
        <time>2021-02-03T11:59:18.870Z</time>
      </trkpt>
      <trkpt lat="45.48969" lon="5.5692">
        <ele>539.25</ele>
        <time>2021-02-03T11:59:27.850Z</time>
      </trkpt>
      <trkpt lat="45.48966" lon="5.56934">
        <ele>538.07</ele>
        <time>2021-02-03T11:59:35.737Z</time>
      </trkpt>
      <trkpt lat="45.48963" lon="5.56948">
        <ele>537.5</ele>
        <time>2021-02-03T11:59:44.737Z</time>
      </trkpt>
      <trkpt lat="45.4896" lon="5.56961">
        <ele>536.97</ele>
        <time>2021-02-03T11:59:52.771Z</time>
      </trkpt>
      <trkpt lat="45.48956" lon="5.56973">
        <ele>536.88</ele>
        <time>2021-02-03T12:00:01.000Z</time>
      </trkpt>
      <trkpt lat="45.4895" lon="5.56984">
        <ele>536.52</ele>
        <time>2021-02-03T12:00:09.610Z</time>
      </trkpt>
      <trkpt lat="45.48948" lon="5.56989">
        <ele>535.77</ele>
        <time>2021-02-03T12:00:20.428Z</time>
      </trkpt>
      <trkpt lat="45.48949" lon="5.56993">
        <ele>536.69</ele>
        <time>2021-02-03T12:00:30.000Z</time>
      </trkpt>
      <trkpt lat="45.48945" lon="5.57005">
        <ele>536.34</ele>
        <time>2021-02-03T12:00:38.000Z</time>
      </trkpt>
      <trkpt lat="45.48938" lon="5.57014">
        <ele>535.6</ele>
        <time>2021-02-03T12:00:44.186Z</time>
      </trkpt>
      <trkpt lat="45.48932" lon="5.57026">
        <ele>535.71</ele>
        <time>2021-02-03T12:00:52.848Z</time>
      </trkpt>
      <trkpt lat="45.48929" lon="5.57037">
        <ele>534.75</ele>
        <time>2021-02-03T12:01:02.000Z</time>
      </trkpt>
      <trkpt lat="45.48924" lon="5.57049">
        <ele>534.52</ele>
        <time>2021-02-03T12:01:10.599Z</time>
      </trkpt>
      <trkpt lat="45.48918" lon="5.5706">
        <ele>534.12</ele>
        <time>2021-02-03T12:01:18.318Z</time>
      </trkpt>
      <trkpt lat="45.48913" lon="5.57071">
        <ele>533.79</ele>
        <time>2021-02-03T12:01:28.000Z</time>
      </trkpt>
      <trkpt lat="45.4891" lon="5.57083">
        <ele>533.07</ele>
        <time>2021-02-03T12:01:37.000Z</time>
      </trkpt>
      <trkpt lat="45.48905" lon="5.57096">
        <ele>533.43</ele>
        <time>2021-02-03T12:01:46.000Z</time>
      </trkpt>
      <trkpt lat="45.48901" lon="5.57108">
        <ele>533.11</ele>
        <time>2021-02-03T12:01:54.000Z</time>
      </trkpt>
      <trkpt lat="45.48897" lon="5.57119">
        <ele>532.47</ele>
        <time>2021-02-03T12:02:00.677Z</time>
      </trkpt>
      <trkpt lat="45.48892" lon="5.57133">
        <ele>531.89</ele>
        <time>2021-02-03T12:02:09.517Z</time>
      </trkpt>
      <trkpt lat="45.48888" lon="5.57144">
        <ele>532.01</ele>
        <time>2021-02-03T12:02:17.336Z</time>
      </trkpt>
      <trkpt lat="45.48883" lon="5.57157">
        <ele>531.54</ele>
        <time>2021-02-03T12:02:26.292Z</time>
      </trkpt>
      <trkpt lat="45.4888" lon="5.57169">
        <ele>531.47</ele>
        <time>2021-02-03T12:02:35.000Z</time>
      </trkpt>
      <trkpt lat="45.48877" lon="5.57181">
        <ele>530.16</ele>
        <time>2021-02-03T12:02:44.000Z</time>
      </trkpt>
      <trkpt lat="45.48873" lon="5.57193">
        <ele>529.29</ele>
        <time>2021-02-03T12:02:51.931Z</time>
      </trkpt>
      <trkpt lat="45.48869" lon="5.57206">
        <ele>528.96</ele>
        <time>2021-02-03T12:03:00.792Z</time>
      </trkpt>
      <trkpt lat="45.48866" lon="5.57218">
        <ele>528.19</ele>
        <time>2021-02-03T12:03:10.000Z</time>
      </trkpt>
      <trkpt lat="45.48864" lon="5.57223">
        <ele>527.26</ele>
        <time>2021-02-03T12:03:20.000Z</time>
      </trkpt>
      <trkpt lat="45.48858" lon="5.57235">
        <ele>527.29</ele>
        <time>2021-02-03T12:03:27.933Z</time>
      </trkpt>
      <trkpt lat="45.48857" lon="5.57246">
        <ele>527.06</ele>
        <time>2021-02-03T12:03:38.000Z</time>
      </trkpt>
      <trkpt lat="45.48857" lon="5.57253">
        <ele>526.8</ele>
        <time>2021-02-03T12:03:48.000Z</time>
      </trkpt>
      <trkpt lat="45.4885" lon="5.57263">
        <ele>526.36</ele>
        <time>2021-02-03T12:03:57.000Z</time>
      </trkpt>
      <trkpt lat="45.48842" lon="5.57271">
        <ele>526.3</ele>
        <time>2021-02-03T12:04:05.000Z</time>
      </trkpt>
      <trkpt lat="45.4884" lon="5.57285">
        <ele>525.74</ele>
        <time>2021-02-03T12:04:13.000Z</time>
      </trkpt>
      <trkpt lat="45.48834" lon="5.57298">
        <ele>525.48</ele>
        <time>2021-02-03T12:04:22.549Z</time>
      </trkpt>
      <trkpt lat="45.4883" lon="5.5731">
        <ele>524.35</ele>
        <time>2021-02-03T12:04:29.732Z</time>
      </trkpt>
      <trkpt lat="45.48826" lon="5.57322">
        <ele>524.02</ele>
        <time>2021-02-03T12:04:37.999Z</time>
      </trkpt>
      <trkpt lat="45.48823" lon="5.57335">
        <ele>523.82</ele>
        <time>2021-02-03T12:04:44.727Z</time>
      </trkpt>
      <trkpt lat="45.4882" lon="5.57347">
        <ele>523.89</ele>
        <time>2021-02-03T12:04:53.633Z</time>
      </trkpt>
      <trkpt lat="45.48817" lon="5.57361">
        <ele>523.74</ele>
        <time>2021-02-03T12:05:01.472Z</time>
      </trkpt>
      <trkpt lat="45.48813" lon="5.57373">
        <ele>523.2</ele>
        <time>2021-02-03T12:05:09.275Z</time>
      </trkpt>
      <trkpt lat="45.48809" lon="5.57385">
        <ele>522.97</ele>
        <time>2021-02-03T12:05:18.999Z</time>
      </trkpt>
      <trkpt lat="45.48804" lon="5.57397">
        <ele>522.81</ele>
        <time>2021-02-03T12:05:25.952Z</time>
      </trkpt>
      <trkpt lat="45.48799" lon="5.57408">
        <ele>522.42</ele>
        <time>2021-02-03T12:05:34.999Z</time>
      </trkpt>
      <trkpt lat="45.48795" lon="5.57421">
        <ele>522.57</ele>
        <time>2021-02-03T12:05:42.493Z</time>
      </trkpt>
      <trkpt lat="45.4879" lon="5.57433">
        <ele>522.8</ele>
        <time>2021-02-03T12:05:51.352Z</time>
      </trkpt>
      <trkpt lat="45.48785" lon="5.57441">
        <ele>522.15</ele>
        <time>2021-02-03T12:06:00.999Z</time>
      </trkpt>
      <trkpt lat="45.48777" lon="5.57449">
        <ele>522.06</ele>
        <time>2021-02-03T12:06:06.811Z</time>
      </trkpt>
      <trkpt lat="45.4877" lon="5.5746">
        <ele>522.1</ele>
        <time>2021-02-03T12:06:15.999Z</time>
      </trkpt>
      <trkpt lat="45.48766" lon="5.57471">
        <ele>521.39</ele>
        <time>2021-02-03T12:06:21.909Z</time>
      </trkpt>
      <trkpt lat="45.48759" lon="5.57481">
        <ele>521.05</ele>
        <time>2021-02-03T12:06:30.588Z</time>
      </trkpt>
      <trkpt lat="45.48752" lon="5.5749">
        <ele>521.38</ele>
        <time>2021-02-03T12:06:39.999Z</time>
      </trkpt>
      <trkpt lat="45.48745" lon="5.57499">
        <ele>521.49</ele>
        <time>2021-02-03T12:06:46.999Z</time>
      </trkpt>
      <trkpt lat="45.48738" lon="5.57509">
        <ele>521.38</ele>
        <time>2021-02-03T12:06:54.634Z</time>
      </trkpt>
      <trkpt lat="45.48734" lon="5.5752">
        <ele>520.63</ele>
        <time>2021-02-03T12:07:02.999Z</time>
      </trkpt>
      <trkpt lat="45.48727" lon="5.57531">
        <ele>520.5</ele>
        <time>2021-02-03T12:07:10.999Z</time>
      </trkpt>
      <trkpt lat="45.48721" lon="5.57541">
        <ele>521.24</ele>
        <time>2021-02-03T12:07:17.452Z</time>
      </trkpt>
      <trkpt lat="45.48719" lon="5.57548">
        <ele>520.37</ele>
        <time>2021-02-03T12:07:26.493Z</time>
      </trkpt>
      <trkpt lat="45.48713" lon="5.57557">
        <ele>520</ele>
        <time>2021-02-03T12:07:34.999Z</time>
      </trkpt>
      <trkpt lat="45.48707" lon="5.57569">
        <ele>520.89</ele>
        <time>2021-02-03T12:07:41.731Z</time>
      </trkpt>
      <trkpt lat="45.487" lon="5.57579">
        <ele>520.32</ele>
        <time>2021-02-03T12:07:50.999Z</time>
      </trkpt>
      <trkpt lat="45.48694" lon="5.57591">
        <ele>519.85</ele>
        <time>2021-02-03T12:07:57.930Z</time>
      </trkpt>
      <trkpt lat="45.48688" lon="5.57601">
        <ele>519.62</ele>
        <time>2021-02-03T12:08:05.838Z</time>
      </trkpt>
      <trkpt lat="45.48682" lon="5.5761">
        <ele>519.44</ele>
        <time>2021-02-03T12:08:13.999Z</time>
      </trkpt>
      <trkpt lat="45.48676" lon="5.57623">
        <ele>519.09</ele>
        <time>2021-02-03T12:08:21.635Z</time>
      </trkpt>
      <trkpt lat="45.4867" lon="5.57633">
        <ele>518.75</ele>
        <time>2021-02-03T12:08:30.999Z</time>
      </trkpt>
      <trkpt lat="45.48663" lon="5.57641">
        <ele>519.24</ele>
        <time>2021-02-03T12:08:38.999Z</time>
      </trkpt>
      <trkpt lat="45.48657" lon="5.57651">
        <ele>518.95</ele>
        <time>2021-02-03T12:08:45.739Z</time>
      </trkpt>
      <trkpt lat="45.48649" lon="5.57659">
        <ele>518.72</ele>
        <time>2021-02-03T12:08:53.352Z</time>
      </trkpt>
      <trkpt lat="45.48643" lon="5.57665">
        <ele>518.6</ele>
        <time>2021-02-03T12:09:03.999Z</time>
      </trkpt>
      <trkpt lat="45.48634" lon="5.57672">
        <ele>518.27</ele>
        <time>2021-02-03T12:09:08.951Z</time>
      </trkpt>
      <trkpt lat="45.48626" lon="5.57678">
        <ele>518.71</ele>
        <time>2021-02-03T12:09:17.999Z</time>
      </trkpt>
      <trkpt lat="45.48618" lon="5.57686">
        <ele>518.79</ele>
        <time>2021-02-03T12:09:25.550Z</time>
      </trkpt>
      <trkpt lat="45.4861" lon="5.57692">
        <ele>518.71</ele>
        <time>2021-02-03T12:09:33.688Z</time>
      </trkpt>
      <trkpt lat="45.48602" lon="5.57697">
        <ele>519.02</ele>
        <time>2021-02-03T12:09:42.999Z</time>
      </trkpt>
      <trkpt lat="45.48594" lon="5.57703">
        <ele>519.46</ele>
        <time>2021-02-03T12:09:50.999Z</time>
      </trkpt>
      <trkpt lat="45.48585" lon="5.5771">
        <ele>519.01</ele>
        <time>2021-02-03T12:09:57.831Z</time>
      </trkpt>
      <trkpt lat="45.48577" lon="5.57718">
        <ele>519.03</ele>
        <time>2021-02-03T12:10:06.751Z</time>
      </trkpt>
      <trkpt lat="45.48569" lon="5.57727">
        <ele>519.23</ele>
        <time>2021-02-03T12:10:15.739Z</time>
      </trkpt>
      <trkpt lat="45.4856" lon="5.57734">
        <ele>518.62</ele>
        <time>2021-02-03T12:10:24.733Z</time>
      </trkpt>
      <trkpt lat="45.48552" lon="5.57742">
        <ele>518.73</ele>
        <time>2021-02-03T12:10:33.769Z</time>
      </trkpt>
      <trkpt lat="45.48544" lon="5.57751">
        <ele>518.5</ele>
        <time>2021-02-03T12:10:42.548Z</time>
      </trkpt>
      <trkpt lat="45.48537" lon="5.5776">
        <ele>518</ele>
        <time>2021-02-03T12:10:50.999Z</time>
      </trkpt>
      <trkpt lat="45.48531" lon="5.57771">
        <ele>518.72</ele>
        <time>2021-02-03T12:10:58.649Z</time>
      </trkpt>
      <trkpt lat="45.48527" lon="5.57783">
        <ele>520.49</ele>
        <time>2021-02-03T12:11:07.950Z</time>
      </trkpt>
      <trkpt lat="45.48522" lon="5.57793">
        <ele>519.11</ele>
        <time>2021-02-03T12:11:16.999Z</time>
      </trkpt>
      <trkpt lat="45.48523" lon="5.57807">
        <ele>519.72</ele>
        <time>2021-02-03T12:11:24.999Z</time>
      </trkpt>
      <trkpt lat="45.48525" lon="5.57822">
        <ele>520.76</ele>
        <time>2021-02-03T12:11:32.611Z</time>
      </trkpt>
      <trkpt lat="45.48531" lon="5.57832">
        <ele>520.93</ele>
        <time>2021-02-03T12:11:40.999Z</time>
      </trkpt>
      <trkpt lat="45.48533" lon="5.57846">
        <ele>521.09</ele>
        <time>2021-02-03T12:11:49.999Z</time>
      </trkpt>
      <trkpt lat="45.48532" lon="5.5786">
        <ele>521.94</ele>
        <time>2021-02-03T12:11:57.491Z</time>
      </trkpt>
      <trkpt lat="45.4853" lon="5.57872">
        <ele>521.88</ele>
        <time>2021-02-03T12:12:06.999Z</time>
      </trkpt>
      <trkpt lat="45.48528" lon="5.57885">
        <ele>522.93</ele>
        <time>2021-02-03T12:12:15.307Z</time>
      </trkpt>
      <trkpt lat="45.48527" lon="5.57899">
        <ele>522.69</ele>
        <time>2021-02-03T12:12:22.878Z</time>
      </trkpt>
      <trkpt lat="45.48523" lon="5.57911">
        <ele>523.5</ele>
        <time>2021-02-03T12:12:30.999Z</time>
      </trkpt>
      <trkpt lat="45.48522" lon="5.57925">
        <ele>523.84</ele>
        <time>2021-02-03T12:12:38.999Z</time>
      </trkpt>
      <trkpt lat="45.4852" lon="5.57938">
        <ele>524.48</ele>
        <time>2021-02-03T12:12:47.999Z</time>
      </trkpt>
      <trkpt lat="45.48516" lon="5.5795">
        <ele>525.3</ele>
        <time>2021-02-03T12:12:56.999Z</time>
      </trkpt>
      <trkpt lat="45.48513" lon="5.57962">
        <ele>526</ele>
        <time>2021-02-03T12:13:04.999Z</time>
      </trkpt>
      <trkpt lat="45.48511" lon="5.57974">
        <ele>526.56</ele>
        <time>2021-02-03T12:13:14.999Z</time>
      </trkpt>
      <trkpt lat="45.48506" lon="5.57986">
        <ele>527.74</ele>
        <time>2021-02-03T12:13:23.436Z</time>
      </trkpt>
      <trkpt lat="45.485" lon="5.57994">
        <ele>529.11</ele>
        <time>2021-02-03T12:13:32.999Z</time>
      </trkpt>
      <trkpt lat="45.48491" lon="5.57999">
        <ele>529.81</ele>
        <time>2021-02-03T12:13:41.628Z</time>
      </trkpt>
      <trkpt lat="45.48485" lon="5.58004">
        <ele>530.94</ele>
        <time>2021-02-03T12:13:50.999Z</time>
      </trkpt>
      <trkpt lat="45.48477" lon="5.5801">
        <ele>530.99</ele>
        <time>2021-02-03T12:13:59.818Z</time>
      </trkpt>
      <trkpt lat="45.48471" lon="5.58017">
        <ele>532.11</ele>
        <time>2021-02-03T12:14:08.999Z</time>
      </trkpt>
      <trkpt lat="45.48464" lon="5.58025">
        <ele>532.07</ele>
        <time>2021-02-03T12:14:17.537Z</time>
      </trkpt>
      <trkpt lat="45.48456" lon="5.58033">
        <ele>532.35</ele>
        <time>2021-02-03T12:14:25.896Z</time>
      </trkpt>
      <trkpt lat="45.4845" lon="5.58044">
        <ele>532.51</ele>
        <time>2021-02-03T12:14:34.667Z</time>
      </trkpt>
      <trkpt lat="45.48443" lon="5.58054">
        <ele>533.11</ele>
        <time>2021-02-03T12:14:43.999Z</time>
      </trkpt>
      <trkpt lat="45.48437" lon="5.58064">
        <ele>533.89</ele>
        <time>2021-02-03T12:14:51.999Z</time>
      </trkpt>
      <trkpt lat="45.48433" lon="5.58076">
        <ele>534.26</ele>
        <time>2021-02-03T12:14:59.999Z</time>
      </trkpt>
      <trkpt lat="45.48428" lon="5.58087">
        <ele>535.81</ele>
        <time>2021-02-03T12:15:08.346Z</time>
      </trkpt>
      <trkpt lat="45.48423" lon="5.58098">
        <ele>536.25</ele>
        <time>2021-02-03T12:15:16.839Z</time>
      </trkpt>
      <trkpt lat="45.4842" lon="5.5811">
        <ele>537.51</ele>
        <time>2021-02-03T12:15:26.999Z</time>
      </trkpt>
      <trkpt lat="45.48418" lon="5.58126">
        <ele>538.59</ele>
        <time>2021-02-03T12:15:35.906Z</time>
      </trkpt>
      <trkpt lat="45.48417" lon="5.5814">
        <ele>539.6</ele>
        <time>2021-02-03T12:15:44.999Z</time>
      </trkpt>
      <trkpt lat="45.48418" lon="5.5814">
        <ele>539.7</ele>
        <time>2021-02-03T12:16:01.609Z</time>
      </trkpt>
      <trkpt lat="45.48418" lon="5.58153">
        <ele>540.37</ele>
        <time>2021-02-03T12:16:09.768Z</time>
      </trkpt>
      <trkpt lat="45.48418" lon="5.58164">
        <ele>540.88</ele>
        <time>2021-02-03T12:16:18.999Z</time>
      </trkpt>
      <trkpt lat="45.48419" lon="5.58176">
        <ele>541.48</ele>
        <time>2021-02-03T12:16:28.999Z</time>
      </trkpt>
      <trkpt lat="45.4842" lon="5.58188">
        <ele>542.94</ele>
        <time>2021-02-03T12:16:38.999Z</time>
      </trkpt>
      <trkpt lat="45.48421" lon="5.58199">
        <ele>543.24</ele>
        <time>2021-02-03T12:16:48.999Z</time>
      </trkpt>
      <trkpt lat="45.48423" lon="5.58213">
        <ele>544.47</ele>
        <time>2021-02-03T12:16:58.606Z</time>
      </trkpt>
      <trkpt lat="45.48422" lon="5.58225">
        <ele>545.72</ele>
        <time>2021-02-03T12:17:07.999Z</time>
      </trkpt>
      <trkpt lat="45.48423" lon="5.58238">
        <ele>546.38</ele>
        <time>2021-02-03T12:17:16.999Z</time>
      </trkpt>
      <trkpt lat="45.4842" lon="5.58248">
        <ele>547.79</ele>
        <time>2021-02-03T12:17:26.539Z</time>
      </trkpt>
      <trkpt lat="45.4842" lon="5.58258">
        <ele>548.25</ele>
        <time>2021-02-03T12:17:35.999Z</time>
      </trkpt>
      <trkpt lat="45.4842" lon="5.58271">
        <ele>549.86</ele>
        <time>2021-02-03T12:17:45.999Z</time>
      </trkpt>
      <trkpt lat="45.48419" lon="5.58285">
        <ele>551.13</ele>
        <time>2021-02-03T12:17:55.999Z</time>
      </trkpt>
      <trkpt lat="45.48419" lon="5.58281">
        <ele>551.26</ele>
        <time>2021-02-03T12:18:21.999Z</time>
      </trkpt>
      <trkpt lat="45.48419" lon="5.58283">
        <ele>552.04</ele>
        <time>2021-02-03T12:18:56.999Z</time>
      </trkpt>
      <trkpt lat="45.4842" lon="5.58297">
        <ele>552.81</ele>
        <time>2021-02-03T12:19:03.999Z</time>
      </trkpt>
      <trkpt lat="45.48417" lon="5.5831">
        <ele>553.5</ele>
        <time>2021-02-03T12:19:12.539Z</time>
      </trkpt>
      <trkpt lat="45.48415" lon="5.58323">
        <ele>554.5</ele>
        <time>2021-02-03T12:19:20.598Z</time>
      </trkpt>
      <trkpt lat="45.48413" lon="5.58332">
        <ele>555.84</ele>
        <time>2021-02-03T12:19:29.999Z</time>
      </trkpt>
      <trkpt lat="45.48409" lon="5.58342">
        <ele>556.89</ele>
        <time>2021-02-03T12:19:39.999Z</time>
      </trkpt>
      <trkpt lat="45.48405" lon="5.58353">
        <ele>557.54</ele>
        <time>2021-02-03T12:19:49.277Z</time>
      </trkpt>
      <trkpt lat="45.48401" lon="5.58365">
        <ele>558.32</ele>
        <time>2021-02-03T12:19:58.677Z</time>
      </trkpt>
      <trkpt lat="45.48398" lon="5.58375">
        <ele>558.64</ele>
        <time>2021-02-03T12:20:07.999Z</time>
      </trkpt>
      <trkpt lat="45.48396" lon="5.58388">
        <ele>558.26</ele>
        <time>2021-02-03T12:20:17.999Z</time>
      </trkpt>
      <trkpt lat="45.48394" lon="5.584">
        <ele>559.08</ele>
        <time>2021-02-03T12:20:27.999Z</time>
      </trkpt>
      <trkpt lat="45.48391" lon="5.58413">
        <ele>558.85</ele>
        <time>2021-02-03T12:20:36.747Z</time>
      </trkpt>
      <trkpt lat="45.48387" lon="5.58425">
        <ele>559.25</ele>
        <time>2021-02-03T12:20:45.999Z</time>
      </trkpt>
      <trkpt lat="45.48384" lon="5.58437">
        <ele>559.27</ele>
        <time>2021-02-03T12:20:53.999Z</time>
      </trkpt>
      <trkpt lat="45.48381" lon="5.5845">
        <ele>559.01</ele>
        <time>2021-02-03T12:21:01.278Z</time>
      </trkpt>
      <trkpt lat="45.48379" lon="5.58463">
        <ele>559.1</ele>
        <time>2021-02-03T12:21:10.328Z</time>
      </trkpt>
      <trkpt lat="45.48375" lon="5.58475">
        <ele>559.62</ele>
        <time>2021-02-03T12:21:19.808Z</time>
      </trkpt>
      <trkpt lat="45.48372" lon="5.58486">
        <ele>559.51</ele>
        <time>2021-02-03T12:21:28.999Z</time>
      </trkpt>
      <trkpt lat="45.48369" lon="5.58499">
        <ele>559.66</ele>
        <time>2021-02-03T12:21:36.688Z</time>
      </trkpt>
      <trkpt lat="45.48366" lon="5.5851">
        <ele>559.48</ele>
        <time>2021-02-03T12:21:45.999Z</time>
      </trkpt>
      <trkpt lat="45.48363" lon="5.58522">
        <ele>559.7</ele>
        <time>2021-02-03T12:21:54.999Z</time>
      </trkpt>
      <trkpt lat="45.48359" lon="5.58535">
        <ele>560.32</ele>
        <time>2021-02-03T12:22:03.999Z</time>
      </trkpt>
      <trkpt lat="45.48356" lon="5.58547">
        <ele>560.62</ele>
        <time>2021-02-03T12:22:11.999Z</time>
      </trkpt>
      <trkpt lat="45.48352" lon="5.58559">
        <ele>561</ele>
        <time>2021-02-03T12:22:21.999Z</time>
      </trkpt>
      <trkpt lat="45.48351" lon="5.58572">
        <ele>561.22</ele>
        <time>2021-02-03T12:22:29.640Z</time>
      </trkpt>
      <trkpt lat="45.48356" lon="5.58582">
        <ele>560.93</ele>
        <time>2021-02-03T12:22:37.256Z</time>
      </trkpt>
      <trkpt lat="45.48363" lon="5.58593">
        <ele>560.05</ele>
        <time>2021-02-03T12:22:46.999Z</time>
      </trkpt>
      <trkpt lat="45.48369" lon="5.58604">
        <ele>559.58</ele>
        <time>2021-02-03T12:22:53.653Z</time>
      </trkpt>
      <trkpt lat="45.48374" lon="5.58615">
        <ele>559.29</ele>
        <time>2021-02-03T12:23:00.597Z</time>
      </trkpt>
      <trkpt lat="45.48379" lon="5.58628">
        <ele>558.28</ele>
        <time>2021-02-03T12:23:09.675Z</time>
      </trkpt>
      <trkpt lat="45.48386" lon="5.5864">
        <ele>558.05</ele>
        <time>2021-02-03T12:23:18.754Z</time>
      </trkpt>
      <trkpt lat="45.48392" lon="5.58649">
        <ele>558.29</ele>
        <time>2021-02-03T12:23:26.403Z</time>
      </trkpt>
      <trkpt lat="45.48397" lon="5.58658">
        <ele>558.03</ele>
        <time>2021-02-03T12:23:35.999Z</time>
      </trkpt>
      <trkpt lat="45.48402" lon="5.5867">
        <ele>558.34</ele>
        <time>2021-02-03T12:23:43.999Z</time>
      </trkpt>
      <trkpt lat="45.48407" lon="5.5868">
        <ele>558.74</ele>
        <time>2021-02-03T12:23:51.854Z</time>
      </trkpt>
      <trkpt lat="45.4841" lon="5.58688">
        <ele>558.95</ele>
        <time>2021-02-03T12:24:01.999Z</time>
      </trkpt>
      <trkpt lat="45.48417" lon="5.58697">
        <ele>559.05</ele>
        <time>2021-02-03T12:24:09.999Z</time>
      </trkpt>
      <trkpt lat="45.48423" lon="5.58708">
        <ele>560.28</ele>
        <time>2021-02-03T12:24:18.999Z</time>
      </trkpt>
      <trkpt lat="45.48427" lon="5.58719">
        <ele>560.21</ele>
        <time>2021-02-03T12:24:26.773Z</time>
      </trkpt>
      <trkpt lat="45.48432" lon="5.5873">
        <ele>560.96</ele>
        <time>2021-02-03T12:24:35.999Z</time>
      </trkpt>
      <trkpt lat="45.48437" lon="5.58742">
        <ele>561.09</ele>
        <time>2021-02-03T12:24:44.999Z</time>
      </trkpt>
      <trkpt lat="45.48439" lon="5.58755">
        <ele>562.4</ele>
        <time>2021-02-03T12:24:52.491Z</time>
      </trkpt>
      <trkpt lat="45.48443" lon="5.58766">
        <ele>562.39</ele>
        <time>2021-02-03T12:25:02.999Z</time>
      </trkpt>
      <trkpt lat="45.48446" lon="5.58777">
        <ele>562.94</ele>
        <time>2021-02-03T12:25:12.999Z</time>
      </trkpt>
      <trkpt lat="45.48448" lon="5.5879">
        <ele>562.27</ele>
        <time>2021-02-03T12:25:22.353Z</time>
      </trkpt>
      <trkpt lat="45.48451" lon="5.58803">
        <ele>563.51</ele>
        <time>2021-02-03T12:25:31.371Z</time>
      </trkpt>
      <trkpt lat="45.48454" lon="5.58816">
        <ele>563.29</ele>
        <time>2021-02-03T12:25:40.533Z</time>
      </trkpt>
      <trkpt lat="45.48456" lon="5.58826">
        <ele>564.27</ele>
        <time>2021-02-03T12:25:49.999Z</time>
      </trkpt>
      <trkpt lat="45.48456" lon="5.58833">
        <ele>565.4</ele>
        <time>2021-02-03T12:26:06.870Z</time>
      </trkpt>
      <trkpt lat="45.48459" lon="5.58845">
        <ele>565.79</ele>
        <time>2021-02-03T12:26:13.294Z</time>
      </trkpt>
      <trkpt lat="45.48463" lon="5.58858">
        <ele>565.79</ele>
        <time>2021-02-03T12:26:21.999Z</time>
      </trkpt>
      <trkpt lat="45.48465" lon="5.58871">
        <ele>565.86</ele>
        <time>2021-02-03T12:26:29.525Z</time>
      </trkpt>
      <trkpt lat="45.48467" lon="5.58881">
        <ele>565.71</ele>
        <time>2021-02-03T12:26:38.999Z</time>
      </trkpt>
      <trkpt lat="45.4847" lon="5.58893">
        <ele>566.14</ele>
        <time>2021-02-03T12:26:48.271Z</time>
      </trkpt>
      <trkpt lat="45.48472" lon="5.58908">
        <ele>566.62</ele>
        <time>2021-02-03T12:26:57.653Z</time>
      </trkpt>
      <trkpt lat="45.48473" lon="5.58921">
        <ele>566.11</ele>
        <time>2021-02-03T12:27:06.491Z</time>
      </trkpt>
      <trkpt lat="45.48474" lon="5.58933">
        <ele>566.74</ele>
        <time>2021-02-03T12:27:15.999Z</time>
      </trkpt>
      <trkpt lat="45.48478" lon="5.58946">
        <ele>566.81</ele>
        <time>2021-02-03T12:27:25.431Z</time>
      </trkpt>
      <trkpt lat="45.48483" lon="5.58956">
        <ele>566.92</ele>
        <time>2021-02-03T12:27:34.999Z</time>
      </trkpt>
      <trkpt lat="45.48486" lon="5.58968">
        <ele>566.55</ele>
        <time>2021-02-03T12:27:44.999Z</time>
      </trkpt>
      <trkpt lat="45.48486" lon="5.58981">
        <ele>566.13</ele>
        <time>2021-02-03T12:27:53.999Z</time>
      </trkpt>
      <trkpt lat="45.48487" lon="5.58985">
        <ele>565.94</ele>
        <time>2021-02-03T12:28:03.999Z</time>
      </trkpt>
      <trkpt lat="45.4849" lon="5.58987">
        <ele>565.6</ele>
        <time>2021-02-03T12:28:13.999Z</time>
      </trkpt>
      <trkpt lat="45.48499" lon="5.58992">
        <ele>565.36</ele>
        <time>2021-02-03T12:28:20.417Z</time>
      </trkpt>
      <trkpt lat="45.48507" lon="5.59">
        <ele>565.17</ele>
        <time>2021-02-03T12:28:27.999Z</time>
      </trkpt>
      <trkpt lat="45.48516" lon="5.59002">
        <ele>565.11</ele>
        <time>2021-02-03T12:28:35.999Z</time>
      </trkpt>
      <trkpt lat="45.48525" lon="5.58998">
        <ele>564.73</ele>
        <time>2021-02-03T12:28:41.958Z</time>
      </trkpt>
      <trkpt lat="45.48534" lon="5.59002">
        <ele>564.26</ele>
        <time>2021-02-03T12:28:49.892Z</time>
      </trkpt>
      <trkpt lat="45.4854" lon="5.59009">
        <ele>563.72</ele>
        <time>2021-02-03T12:28:58.999Z</time>
      </trkpt>
      <trkpt lat="45.48548" lon="5.59018">
        <ele>563.33</ele>
        <time>2021-02-03T12:29:04.674Z</time>
      </trkpt>
      <trkpt lat="45.48556" lon="5.59025">
        <ele>561.85</ele>
        <time>2021-02-03T12:29:12.999Z</time>
      </trkpt>
      <trkpt lat="45.48565" lon="5.5903">
        <ele>561.53</ele>
        <time>2021-02-03T12:29:20.999Z</time>
      </trkpt>
      <trkpt lat="45.48574" lon="5.59035">
        <ele>561.42</ele>
        <time>2021-02-03T12:29:30.999Z</time>
      </trkpt>
      <trkpt lat="45.48583" lon="5.59036">
        <ele>560.64</ele>
        <time>2021-02-03T12:29:37.335Z</time>
      </trkpt>
      <trkpt lat="45.48593" lon="5.59037">
        <ele>560.88</ele>
        <time>2021-02-03T12:29:44.734Z</time>
      </trkpt>
      <trkpt lat="45.48601" lon="5.59043">
        <ele>560.04</ele>
        <time>2021-02-03T12:29:53.772Z</time>
      </trkpt>
      <trkpt lat="45.4861" lon="5.59046">
        <ele>559.65</ele>
        <time>2021-02-03T12:30:02.999Z</time>
      </trkpt>
      <trkpt lat="45.48619" lon="5.5905">
        <ele>558.91</ele>
        <time>2021-02-03T12:30:10.999Z</time>
      </trkpt>
      <trkpt lat="45.48628" lon="5.59055">
        <ele>558.72</ele>
        <time>2021-02-03T12:30:18.999Z</time>
      </trkpt>
      <trkpt lat="45.48637" lon="5.59058">
        <ele>557.63</ele>
        <time>2021-02-03T12:30:26.999Z</time>
      </trkpt>
      <trkpt lat="45.48647" lon="5.59063">
        <ele>557.65</ele>
        <time>2021-02-03T12:30:35.329Z</time>
      </trkpt>
      <trkpt lat="45.48653" lon="5.59069">
        <ele>557.09</ele>
        <time>2021-02-03T12:30:44.627Z</time>
      </trkpt>
      <trkpt lat="45.48662" lon="5.59072">
        <ele>556.9</ele>
        <time>2021-02-03T12:30:53.999Z</time>
      </trkpt>
      <trkpt lat="45.48669" lon="5.59078">
        <ele>556.46</ele>
        <time>2021-02-03T12:31:02.256Z</time>
      </trkpt>
      <trkpt lat="45.48676" lon="5.59087">
        <ele>556.04</ele>
        <time>2021-02-03T12:31:10.230Z</time>
      </trkpt>
      <trkpt lat="45.48685" lon="5.59092">
        <ele>555.29</ele>
        <time>2021-02-03T12:31:18.289Z</time>
      </trkpt>
      <trkpt lat="45.48693" lon="5.59101">
        <ele>554.98</ele>
        <time>2021-02-03T12:31:26.090Z</time>
      </trkpt>
      <trkpt lat="45.48702" lon="5.59104">
        <ele>554.7</ele>
        <time>2021-02-03T12:31:33.674Z</time>
      </trkpt>
      <trkpt lat="45.48711" lon="5.59105">
        <ele>554.58</ele>
        <time>2021-02-03T12:31:41.573Z</time>
      </trkpt>
      <trkpt lat="45.48718" lon="5.59103">
        <ele>554.18</ele>
        <time>2021-02-03T12:31:50.999Z</time>
      </trkpt>
      <trkpt lat="45.48726" lon="5.59103">
        <ele>553.89</ele>
        <time>2021-02-03T12:32:00.999Z</time>
      </trkpt>
      <trkpt lat="45.48735" lon="5.59108">
        <ele>553.74</ele>
        <time>2021-02-03T12:32:08.999Z</time>
      </trkpt>
      <trkpt lat="45.48743" lon="5.59115">
        <ele>553.65</ele>
        <time>2021-02-03T12:32:15.751Z</time>
      </trkpt>
      <trkpt lat="45.48748" lon="5.59128">
        <ele>553.4</ele>
        <time>2021-02-03T12:32:24.929Z</time>
      </trkpt>
      <trkpt lat="45.48755" lon="5.59137">
        <ele>553.26</ele>
        <time>2021-02-03T12:32:34.999Z</time>
      </trkpt>
      <trkpt lat="45.48762" lon="5.59144">
        <ele>553.47</ele>
        <time>2021-02-03T12:32:43.999Z</time>
      </trkpt>
      <trkpt lat="45.4877" lon="5.59153">
        <ele>552.96</ele>
        <time>2021-02-03T12:32:50.999Z</time>
      </trkpt>
      <trkpt lat="45.48777" lon="5.59162">
        <ele>552.87</ele>
        <time>2021-02-03T12:32:57.976Z</time>
      </trkpt>
      <trkpt lat="45.48783" lon="5.5917">
        <ele>552.94</ele>
        <time>2021-02-03T12:33:06.999Z</time>
      </trkpt>
      <trkpt lat="45.48789" lon="5.59181">
        <ele>552.38</ele>
        <time>2021-02-03T12:33:14.869Z</time>
      </trkpt>
      <trkpt lat="45.48795" lon="5.59191">
        <ele>552.5</ele>
        <time>2021-02-03T12:33:23.869Z</time>
      </trkpt>
      <trkpt lat="45.48801" lon="5.59199">
        <ele>551.9</ele>
        <time>2021-02-03T12:33:33.999Z</time>
      </trkpt>
      <trkpt lat="45.48807" lon="5.59205">
        <ele>552.39</ele>
        <time>2021-02-03T12:33:43.999Z</time>
      </trkpt>
      <trkpt lat="45.48815" lon="5.59214">
        <ele>552.35</ele>
        <time>2021-02-03T12:33:51.999Z</time>
      </trkpt>
      <trkpt lat="45.48822" lon="5.59224">
        <ele>552.22</ele>
        <time>2021-02-03T12:34:00.999Z</time>
      </trkpt>
      <trkpt lat="45.4883" lon="5.59233">
        <ele>552.3</ele>
        <time>2021-02-03T12:34:08.593Z</time>
      </trkpt>
      <trkpt lat="45.48837" lon="5.59242">
        <ele>551.97</ele>
        <time>2021-02-03T12:34:17.913Z</time>
      </trkpt>
      <trkpt lat="45.48845" lon="5.59249">
        <ele>552.02</ele>
        <time>2021-02-03T12:34:26.632Z</time>
      </trkpt>
      <trkpt lat="45.48854" lon="5.59253">
        <ele>552.11</ele>
        <time>2021-02-03T12:34:36.000Z</time>
      </trkpt>
      <trkpt lat="45.48862" lon="5.5926">
        <ele>552.6</ele>
        <time>2021-02-03T12:34:44.870Z</time>
      </trkpt>
      <trkpt lat="45.48868" lon="5.59263">
        <ele>553.16</ele>
        <time>2021-02-03T12:34:54.000Z</time>
      </trkpt>
      <trkpt lat="45.48875" lon="5.59267">
        <ele>554.01</ele>
        <time>2021-02-03T12:35:03.529Z</time>
      </trkpt>
      <trkpt lat="45.48882" lon="5.5927">
        <ele>554.01</ele>
        <time>2021-02-03T12:35:13.000Z</time>
      </trkpt>
      <trkpt lat="45.48887" lon="5.59267">
        <ele>554.29</ele>
        <time>2021-02-03T12:35:23.000Z</time>
      </trkpt>
      <trkpt lat="45.48888" lon="5.59266">
        <ele>554.56</ele>
        <time>2021-02-03T12:35:33.000Z</time>
      </trkpt>
      <trkpt lat="45.48896" lon="5.59258">
        <ele>554.79</ele>
        <time>2021-02-03T12:35:41.000Z</time>
      </trkpt>
      <trkpt lat="45.48905" lon="5.59254">
        <ele>555.52</ele>
        <time>2021-02-03T12:35:46.496Z</time>
      </trkpt>
      <trkpt lat="45.48915" lon="5.59255">
        <ele>556.09</ele>
        <time>2021-02-03T12:35:53.728Z</time>
      </trkpt>
      <trkpt lat="45.48924" lon="5.59252">
        <ele>556.54</ele>
        <time>2021-02-03T12:36:04.000Z</time>
      </trkpt>
      <trkpt lat="45.48932" lon="5.59247">
        <ele>557.09</ele>
        <time>2021-02-03T12:36:11.435Z</time>
      </trkpt>
      <trkpt lat="45.48934" lon="5.59244">
        <ele>557.07</ele>
        <time>2021-02-03T12:36:28.336Z</time>
      </trkpt>
      <trkpt lat="45.48935" lon="5.59243">
        <ele>557.24</ele>
        <time>2021-02-03T12:36:37.435Z</time>
      </trkpt>
      <trkpt lat="45.48936" lon="5.59241">
        <ele>558.01</ele>
        <time>2021-02-03T12:37:04.000Z</time>
      </trkpt>
    </trkseg>
  </trk>
</gpx>